<?xml version="1.0" encoding="UTF-8"?>
<gpx version="1.0" creator="Trackator" xmlns:xsi="http://www.w3.org/2001/XMLSchema-instance" xmlns="http://www.topografix.com/GPX/1/0" xmlns:topografix="http://www.topografix.com/GPX/Private/TopoGrafix/0/1" xsi:schemaLocation="http://www.topografix.com/GPX/1/0 http://www.topografix.com/GPX/1/0/gpx.xsd http://www.topografix.com/GPX/Private/TopoGrafix/0/1 http://www.topografix.com/GPX/Private/TopoGrafix/0/1/topografix.xsd">
<metadata>
<link href="http://www.trackalia.com/trackatorweb.php">
<text>Trackator</text>
</link>
</metadata>
<time>2017-10-08T15:18:29Z</time>
<trk>
<name>Track: </name>
<desc>4x4-SUV</desc>
<trkseg>
<trkpt lat="53.9481784" lon="16.6005603">
<ele>170</ele>
<time>2017-10-08T15:18:29Z</time>
</trkpt>
<trkpt lat="53.9481784" lon="16.6005603">
<ele>170</ele>
<time>2017-10-08T15:18:35Z</time>
</trkpt>
<trkpt lat="53.9481784" lon="16.6005603">
<ele>170</ele>
<time>2017-10-08T15:18:41Z</time>
</trkpt>
<trkpt lat="53.9481784" lon="16.6005603">
<ele>170</ele>
<time>2017-10-08T15:18:47Z</time>
</trkpt>
<trkpt lat="53.9481784" lon="16.6005603">
<ele>170</ele>
<time>2017-10-08T15:18:53Z</time>
</trkpt>
<trkpt lat="53.9481784" lon="16.6005603">
<ele>170</ele>
<time>2017-10-08T15:18:59Z</time>
</trkpt>
<trkpt lat="53.9481784" lon="16.6005603">
<ele>170</ele>
<time>2017-10-08T15:19:05Z</time>
</trkpt>
<trkpt lat="53.9481784" lon="16.6005603">
<ele>170</ele>
<time>2017-10-08T15:19:11Z</time>
</trkpt>
<trkpt lat="53.9481784" lon="16.6005603">
<ele>170</ele>
<time>2017-10-08T15:19:17Z</time>
</trkpt>
<trkpt lat="53.9481784" lon="16.6005603">
<ele>170</ele>
<time>2017-10-08T15:19:23Z</time>
</trkpt>
<trkpt lat="53.9481784" lon="16.6005603">
<ele>170</ele>
<time>2017-10-08T15:19:29Z</time>
</trkpt>
<trkpt lat="53.9481784" lon="16.6005603">
<ele>170</ele>
<time>2017-10-08T15:19:35Z</time>
</trkpt>
<trkpt lat="53.9481594" lon="16.6006140">
<ele>169</ele>
<time>2017-10-08T15:19:41Z</time>
</trkpt>
<trkpt lat="53.9482282" lon="16.6006353">
<ele>168</ele>
<time>2017-10-08T15:19:47Z</time>
</trkpt>
<trkpt lat="53.9482883" lon="16.6003635">
<ele>167</ele>
<time>2017-10-08T15:19:53Z</time>
</trkpt>
<trkpt lat="53.9483749" lon="16.6001569">
<ele>167</ele>
<time>2017-10-08T15:19:59Z</time>
</trkpt>
<trkpt lat="53.9484294" lon="16.6002466">
<ele>166</ele>
<time>2017-10-08T15:20:05Z</time>
</trkpt>
<trkpt lat="53.9484294" lon="16.6002466">
<ele>166</ele>
<time>2017-10-08T15:20:11Z</time>
</trkpt>
<trkpt lat="53.9484294" lon="16.6002466">
<ele>166</ele>
<time>2017-10-08T15:20:17Z</time>
</trkpt>
<trkpt lat="53.9485096" lon="16.6004000">
<ele>167</ele>
<time>2017-10-08T15:20:23Z</time>
</trkpt>
<trkpt lat="53.9483777" lon="16.6007837">
<ele>166</ele>
<time>2017-10-08T15:20:29Z</time>
</trkpt>
<trkpt lat="53.9480828" lon="16.6015640">
<ele>166</ele>
<time>2017-10-08T15:20:35Z</time>
</trkpt>
<trkpt lat="53.9477580" lon="16.6023758">
<ele>167</ele>
<time>2017-10-08T15:20:41Z</time>
</trkpt>
<trkpt lat="53.9474924" lon="16.6030706">
<ele>168</ele>
<time>2017-10-08T15:20:47Z</time>
</trkpt>
<trkpt lat="53.9471383" lon="16.6039875">
<ele>168</ele>
<time>2017-10-08T15:20:53Z</time>
</trkpt>
<trkpt lat="53.9466545" lon="16.6051871">
<ele>166</ele>
<time>2017-10-08T15:20:59Z</time>
</trkpt>
<trkpt lat="53.9461355" lon="16.6064576">
<ele>164</ele>
<time>2017-10-08T15:21:05Z</time>
</trkpt>
<trkpt lat="53.9454929" lon="16.6077352">
<ele>165</ele>
<time>2017-10-08T15:21:11Z</time>
</trkpt>
<trkpt lat="53.9446513" lon="16.6087302">
<ele>163</ele>
<time>2017-10-08T15:21:17Z</time>
</trkpt>
<trkpt lat="53.9436873" lon="16.6096184">
<ele>163</ele>
<time>2017-10-08T15:21:23Z</time>
</trkpt>
<trkpt lat="53.9426718" lon="16.6105459">
<ele>162</ele>
<time>2017-10-08T15:21:29Z</time>
</trkpt>
<trkpt lat="53.9417667" lon="16.6115844">
<ele>161</ele>
<time>2017-10-08T15:21:35Z</time>
</trkpt>
<trkpt lat="53.9407" lon="16.6172">
<ele>160</ele>
<time>2017-10-08T15:21:53Z</time>
</trkpt>
<trkpt lat="53.9405" lon="16.6191">
<ele>158</ele>
<time>2017-10-08T15:21:59Z</time>
</trkpt>
<trkpt lat="53.9406" lon="16.6211">
<ele>159</ele>
<time>2017-10-08T15:22:05Z</time>
</trkpt>
<trkpt lat="53.9405" lon="16.6231">
<ele>156</ele>
<time>2017-10-08T15:22:11Z</time>
</trkpt>
<trkpt lat="53.9402" lon="16.6251">
<ele>155</ele>
<time>2017-10-08T15:22:17Z</time>
</trkpt>
<trkpt lat="53.9396" lon="16.6266">
<ele>157</ele>
<time>2017-10-08T15:22:23Z</time>
</trkpt>
<trkpt lat="53.9386" lon="16.6274">
<ele>162</ele>
<time>2017-10-08T15:22:29Z</time>
</trkpt>
<trkpt lat="53.9378" lon="16.6282">
<ele>165</ele>
<time>2017-10-08T15:22:35Z</time>
</trkpt>
<trkpt lat="53.9373" lon="16.6298">
<ele>166</ele>
<time>2017-10-08T15:22:41Z</time>
</trkpt>
<trkpt lat="53.937" lon="16.6315">
<ele>168</ele>
<time>2017-10-08T15:22:47Z</time>
</trkpt>
<trkpt lat="53.9367" lon="16.6333">
<ele>171</ele>
<time>2017-10-08T15:22:53Z</time>
</trkpt>
<trkpt lat="53.9361722" lon="16.6349543">
<ele>173</ele>
<time>2017-10-08T15:22:59Z</time>
</trkpt>
<trkpt lat="53.9354924" lon="16.6364439">
<ele>177</ele>
<time>2017-10-08T15:23:05Z</time>
</trkpt>
<trkpt lat="53.9349884" lon="16.6382034">
<ele>180</ele>
<time>2017-10-08T15:23:11Z</time>
</trkpt>
<trkpt lat="53.9344199" lon="16.6398838">
<ele>185</ele>
<time>2017-10-08T15:23:17Z</time>
</trkpt>
<trkpt lat="53.9339686" lon="16.6417098">
<ele>182</ele>
<time>2017-10-08T15:23:23Z</time>
</trkpt>
<trkpt lat="53.9335830" lon="16.6436488">
<ele>182</ele>
<time>2017-10-08T15:23:29Z</time>
</trkpt>
<trkpt lat="53.9330272" lon="16.6454467">
<ele>184</ele>
<time>2017-10-08T15:23:35Z</time>
</trkpt>
<trkpt lat="53.9324869" lon="16.6471474">
<ele>187</ele>
<time>2017-10-08T15:23:41Z</time>
</trkpt>
<trkpt lat="53.9318296" lon="16.6487071">
<ele>187</ele>
<time>2017-10-08T15:23:47Z</time>
</trkpt>
<trkpt lat="53.9311381" lon="16.6503396">
<ele>184</ele>
<time>2017-10-08T15:23:53Z</time>
</trkpt>
<trkpt lat="53.9306484" lon="16.6522380">
<ele>188</ele>
<time>2017-10-08T15:23:59Z</time>
</trkpt>
<trkpt lat="53.9304963" lon="16.6542402">
<ele>194</ele>
<time>2017-10-08T15:24:05Z</time>
</trkpt>
<trkpt lat="53.9304642" lon="16.6561933">
<ele>198</ele>
<time>2017-10-08T15:24:11Z</time>
</trkpt>
<trkpt lat="53.9304153" lon="16.6581641">
<ele>200</ele>
<time>2017-10-08T15:24:17Z</time>
</trkpt>
<trkpt lat="53.9300165" lon="16.6600397">
<ele>198</ele>
<time>2017-10-08T15:24:23Z</time>
</trkpt>
<trkpt lat="53.9292295" lon="16.6616080">
<ele>195</ele>
<time>2017-10-08T15:24:29Z</time>
</trkpt>
<trkpt lat="53.9284387" lon="16.6631456">
<ele>194</ele>
<time>2017-10-08T15:24:35Z</time>
</trkpt>
<trkpt lat="53.9279086" lon="16.6650151">
<ele>192</ele>
<time>2017-10-08T15:24:41Z</time>
</trkpt>
<trkpt lat="53.9275132" lon="16.6670177">
<ele>192</ele>
<time>2017-10-08T15:24:47Z</time>
</trkpt>
<trkpt lat="53.9271016" lon="16.6690726">
<ele>191</ele>
<time>2017-10-08T15:24:53Z</time>
</trkpt>
<trkpt lat="53.9266685" lon="16.6712009">
<ele>191</ele>
<time>2017-10-08T15:24:59Z</time>
</trkpt>
<trkpt lat="53.9262266" lon="16.6733082">
<ele>191</ele>
<time>2017-10-08T15:25:05Z</time>
</trkpt>
<trkpt lat="53.9257992" lon="16.6753979">
<ele>192</ele>
<time>2017-10-08T15:25:11Z</time>
</trkpt>
<trkpt lat="53.9253822" lon="16.6774331">
<ele>194</ele>
<time>2017-10-08T15:25:17Z</time>
</trkpt>
<trkpt lat="53.9249650" lon="16.6794606">
<ele>198</ele>
<time>2017-10-08T15:25:23Z</time>
</trkpt>
<trkpt lat="53.9245609" lon="16.6814701">
<ele>203</ele>
<time>2017-10-08T15:25:29Z</time>
</trkpt>
<trkpt lat="53.9241650" lon="16.6834773">
<ele>206</ele>
<time>2017-10-08T15:25:35Z</time>
</trkpt>
<trkpt lat="53.9237855" lon="16.6854965">
<ele>207</ele>
<time>2017-10-08T15:25:41Z</time>
</trkpt>
<trkpt lat="53.9233865" lon="16.6874821">
<ele>208</ele>
<time>2017-10-08T15:25:47Z</time>
</trkpt>
<trkpt lat="53.9229775" lon="16.6894655">
<ele>209</ele>
<time>2017-10-08T15:25:53Z</time>
</trkpt>
<trkpt lat="53.9225784" lon="16.6914523">
<ele>209</ele>
<time>2017-10-08T15:25:59Z</time>
</trkpt>
<trkpt lat="53.9221727" lon="16.6934647">
<ele>207</ele>
<time>2017-10-08T15:26:05Z</time>
</trkpt>
<trkpt lat="53.9217600" lon="16.6955127">
<ele>205</ele>
<time>2017-10-08T15:26:11Z</time>
</trkpt>
<trkpt lat="53.9213421" lon="16.6975258">
<ele>203</ele>
<time>2017-10-08T15:26:17Z</time>
</trkpt>
<trkpt lat="53.9209266" lon="16.6995170">
<ele>205</ele>
<time>2017-10-08T15:26:23Z</time>
</trkpt>
<trkpt lat="53.9205118" lon="16.7014811">
<ele>207</ele>
<time>2017-10-08T15:26:29Z</time>
</trkpt>
<trkpt lat="53.9201184" lon="16.7035167">
<ele>207</ele>
<time>2017-10-08T15:26:35Z</time>
</trkpt>
<trkpt lat="53.9197230" lon="16.7055343">
<ele>208</ele>
<time>2017-10-08T15:26:41Z</time>
</trkpt>
<trkpt lat="53.9193336" lon="16.7075339">
<ele>207</ele>
<time>2017-10-08T15:26:47Z</time>
</trkpt>
<trkpt lat="53.9189476" lon="16.7095272">
<ele>206</ele>
<time>2017-10-08T15:26:53Z</time>
</trkpt>
<trkpt lat="53.9185523" lon="16.7114989">
<ele>207</ele>
<time>2017-10-08T15:26:59Z</time>
</trkpt>
<trkpt lat="53.9181541" lon="16.7134258">
<ele>211</ele>
<time>2017-10-08T15:27:05Z</time>
</trkpt>
<trkpt lat="53.9177436" lon="16.7153476">
<ele>210</ele>
<time>2017-10-08T15:27:11Z</time>
</trkpt>
<trkpt lat="53.9173422" lon="16.7173505">
<ele>209</ele>
<time>2017-10-08T15:27:17Z</time>
</trkpt>
<trkpt lat="53.9169383" lon="16.7193565">
<ele>207</ele>
<time>2017-10-08T15:27:23Z</time>
</trkpt>
<trkpt lat="53.9165509" lon="16.7213598">
<ele>207</ele>
<time>2017-10-08T15:27:29Z</time>
</trkpt>
<trkpt lat="53.9161508" lon="16.7233898">
<ele>208</ele>
<time>2017-10-08T15:27:35Z</time>
</trkpt>
<trkpt lat="53.9157561" lon="16.7254122">
<ele>209</ele>
<time>2017-10-08T15:27:41Z</time>
</trkpt>
<trkpt lat="53.9153458" lon="16.7274034">
<ele>209</ele>
<time>2017-10-08T15:27:47Z</time>
</trkpt>
<trkpt lat="53.9149250" lon="16.7294227">
<ele>209</ele>
<time>2017-10-08T15:27:53Z</time>
</trkpt>
<trkpt lat="53.9143458" lon="16.7313399">
<ele>208</ele>
<time>2017-10-08T15:27:59Z</time>
</trkpt>
<trkpt lat="53.9137444" lon="16.7332597">
<ele>207</ele>
<time>2017-10-08T15:28:05Z</time>
</trkpt>
<trkpt lat="53.9131267" lon="16.7352090">
<ele>206</ele>
<time>2017-10-08T15:28:11Z</time>
</trkpt>
<trkpt lat="53.9125254" lon="16.7371427">
<ele>208</ele>
<time>2017-10-08T15:28:17Z</time>
</trkpt>
<trkpt lat="53.9119272" lon="16.7390766">
<ele>207</ele>
<time>2017-10-08T15:28:23Z</time>
</trkpt>
<trkpt lat="53.9113056" lon="16.7410372">
<ele>206</ele>
<time>2017-10-08T15:28:29Z</time>
</trkpt>
<trkpt lat="53.9107164" lon="16.7429783">
<ele>204</ele>
<time>2017-10-08T15:28:35Z</time>
</trkpt>
<trkpt lat="53.9100361" lon="16.7448483">
<ele>202</ele>
<time>2017-10-08T15:28:41Z</time>
</trkpt>
<trkpt lat="53.9091267" lon="16.7464425">
<ele>206</ele>
<time>2017-10-08T15:28:47Z</time>
</trkpt>
<trkpt lat="53.9082327" lon="16.7479628">
<ele>206</ele>
<time>2017-10-08T15:28:53Z</time>
</trkpt>
<trkpt lat="53.9073559" lon="16.7495008">
<ele>204</ele>
<time>2017-10-08T15:28:59Z</time>
</trkpt>
<trkpt lat="53.9067415" lon="16.7514426">
<ele>203</ele>
<time>2017-10-08T15:29:05Z</time>
</trkpt>
<trkpt lat="53.9064938" lon="16.7535829">
<ele>203</ele>
<time>2017-10-08T15:29:11Z</time>
</trkpt>
<trkpt lat="53.9062269" lon="16.7557260">
<ele>204</ele>
<time>2017-10-08T15:29:17Z</time>
</trkpt>
<trkpt lat="53.9059685" lon="16.7578498">
<ele>206</ele>
<time>2017-10-08T15:29:23Z</time>
</trkpt>
<trkpt lat="53.9057190" lon="16.7599633">
<ele>207</ele>
<time>2017-10-08T15:29:29Z</time>
</trkpt>
<trkpt lat="53.9054766" lon="16.7621205">
<ele>206</ele>
<time>2017-10-08T15:29:35Z</time>
</trkpt>
<trkpt lat="53.9052068" lon="16.7643407">
<ele>205</ele>
<time>2017-10-08T15:29:41Z</time>
</trkpt>
<trkpt lat="53.9049335" lon="16.7665796">
<ele>204</ele>
<time>2017-10-08T15:29:47Z</time>
</trkpt>
<trkpt lat="53.9046703" lon="16.7688023">
<ele>204</ele>
<time>2017-10-08T15:29:53Z</time>
</trkpt>
<trkpt lat="53.9044111" lon="16.7709984">
<ele>205</ele>
<time>2017-10-08T15:29:59Z</time>
</trkpt>
<trkpt lat="53.9041416" lon="16.7731963">
<ele>203</ele>
<time>2017-10-08T15:30:05Z</time>
</trkpt>
<trkpt lat="53.9038696" lon="16.7753846">
<ele>202</ele>
<time>2017-10-08T15:30:11Z</time>
</trkpt>
<trkpt lat="53.9036165" lon="16.7775956">
<ele>202</ele>
<time>2017-10-08T15:30:17Z</time>
</trkpt>
<trkpt lat="53.9033713" lon="16.7797963">
<ele>201</ele>
<time>2017-10-08T15:30:23Z</time>
</trkpt>
<trkpt lat="53.9031088" lon="16.7819855">
<ele>201</ele>
<time>2017-10-08T15:30:29Z</time>
</trkpt>
<trkpt lat="53.9028382" lon="16.7842113">
<ele>201</ele>
<time>2017-10-08T15:30:35Z</time>
</trkpt>
<trkpt lat="53.9025671" lon="16.7864133">
<ele>200</ele>
<time>2017-10-08T15:30:41Z</time>
</trkpt>
<trkpt lat="53.9023154" lon="16.7885138">
<ele>200</ele>
<time>2017-10-08T15:30:47Z</time>
</trkpt>
<trkpt lat="53.9020726" lon="16.7905573">
<ele>198</ele>
<time>2017-10-08T15:30:53Z</time>
</trkpt>
<trkpt lat="53.9018396" lon="16.7925554">
<ele>195</ele>
<time>2017-10-08T15:30:59Z</time>
</trkpt>
<trkpt lat="53.9016016" lon="16.7945248">
<ele>195</ele>
<time>2017-10-08T15:31:05Z</time>
</trkpt>
<trkpt lat="53.9013690" lon="16.7964736">
<ele>196</ele>
<time>2017-10-08T15:31:11Z</time>
</trkpt>
<trkpt lat="53.9011263" lon="16.7984110">
<ele>198</ele>
<time>2017-10-08T15:31:17Z</time>
</trkpt>
<trkpt lat="53.9008865" lon="16.8003392">
<ele>201</ele>
<time>2017-10-08T15:31:23Z</time>
</trkpt>
<trkpt lat="53.9006590" lon="16.8022322">
<ele>203</ele>
<time>2017-10-08T15:31:29Z</time>
</trkpt>
<trkpt lat="53.9004279" lon="16.8041652">
<ele>203</ele>
<time>2017-10-08T15:31:35Z</time>
</trkpt>
<trkpt lat="53.9002024" lon="16.8061060">
<ele>204</ele>
<time>2017-10-08T15:31:41Z</time>
</trkpt>
<trkpt lat="53.8999743" lon="16.8080247">
<ele>204</ele>
<time>2017-10-08T15:31:47Z</time>
</trkpt>
<trkpt lat="53.8997434" lon="16.8099421">
<ele>204</ele>
<time>2017-10-08T15:31:53Z</time>
</trkpt>
<trkpt lat="53.8995035" lon="16.8119002">
<ele>204</ele>
<time>2017-10-08T15:31:59Z</time>
</trkpt>
<trkpt lat="53.8992691" lon="16.8138557">
<ele>203</ele>
<time>2017-10-08T15:32:05Z</time>
</trkpt>
<trkpt lat="53.8990373" lon="16.8158111">
<ele>203</ele>
<time>2017-10-08T15:32:11Z</time>
</trkpt>
<trkpt lat="53.8988068" lon="16.8177692">
<ele>203</ele>
<time>2017-10-08T15:32:17Z</time>
</trkpt>
<trkpt lat="53.8985842" lon="16.8197745">
<ele>204</ele>
<time>2017-10-08T15:32:23Z</time>
</trkpt>
<trkpt lat="53.8983448" lon="16.8217933">
<ele>203</ele>
<time>2017-10-08T15:32:29Z</time>
</trkpt>
<trkpt lat="53.8981090" lon="16.8238458">
<ele>202</ele>
<time>2017-10-08T15:32:35Z</time>
</trkpt>
<trkpt lat="53.8976122" lon="16.8278174">
<ele>198</ele>
<time>2017-10-08T15:32:47Z</time>
</trkpt>
<trkpt lat="53.8973881" lon="16.8294056">
<ele>195</ele>
<time>2017-10-08T15:32:53Z</time>
</trkpt>
<trkpt lat="53.8972108" lon="16.8303648">
<ele>191</ele>
<time>2017-10-08T15:32:59Z</time>
</trkpt>
<trkpt lat="53.8968336" lon="16.8311498">
<ele>188</ele>
<time>2017-10-08T15:33:05Z</time>
</trkpt>
<trkpt lat="53.8962943" lon="16.8316154">
<ele>182</ele>
<time>2017-10-08T15:33:11Z</time>
</trkpt>
<trkpt lat="53.8958569" lon="16.8321072">
<ele>178</ele>
<time>2017-10-08T15:33:17Z</time>
</trkpt>
<trkpt lat="53.8958007" lon="16.8330335">
<ele>176</ele>
<time>2017-10-08T15:33:23Z</time>
</trkpt>
<trkpt lat="53.8959673" lon="16.8338634">
<ele>176</ele>
<time>2017-10-08T15:33:29Z</time>
</trkpt>
<trkpt lat="53.8961542" lon="16.8346058">
<ele>178</ele>
<time>2017-10-08T15:33:35Z</time>
</trkpt>
<trkpt lat="53.8963131" lon="16.8352002">
<ele>179</ele>
<time>2017-10-08T15:33:41Z</time>
</trkpt>
<trkpt lat="53.8962471" lon="16.8354686">
<ele>180</ele>
<time>2017-10-08T15:33:47Z</time>
</trkpt>
<trkpt lat="53.8959680" lon="16.8356425">
<ele>179</ele>
<time>2017-10-08T15:33:53Z</time>
</trkpt>
<trkpt lat="53.8958639" lon="16.8362487">
<ele>177</ele>
<time>2017-10-08T15:33:59Z</time>
</trkpt>
<trkpt lat="53.8957871" lon="16.8368952">
<ele>179</ele>
<time>2017-10-08T15:34:05Z</time>
</trkpt>
<trkpt lat="53.8956155" lon="16.8373741">
<ele>179</ele>
<time>2017-10-08T15:34:11Z</time>
</trkpt>
<trkpt lat="53.8951909" lon="16.8375782">
<ele>178</ele>
<time>2017-10-08T15:34:17Z</time>
</trkpt>
<trkpt lat="53.8946969" lon="16.8378197">
<ele>179</ele>
<time>2017-10-08T15:34:23Z</time>
</trkpt>
<trkpt lat="53.8941941" lon="16.8380542">
<ele>181</ele>
<time>2017-10-08T15:34:29Z</time>
</trkpt>
<trkpt lat="53.8937082" lon="16.8383693">
<ele>184</ele>
<time>2017-10-08T15:34:35Z</time>
</trkpt>
<trkpt lat="53.8935928" lon="16.8393448">
<ele>185</ele>
<time>2017-10-08T15:34:41Z</time>
</trkpt>
<trkpt lat="53.8941426" lon="16.8397539">
<ele>186</ele>
<time>2017-10-08T15:34:47Z</time>
</trkpt>
<trkpt lat="53.8947614" lon="16.8401093">
<ele>188</ele>
<time>2017-10-08T15:34:53Z</time>
</trkpt>
<trkpt lat="53.8951449" lon="16.8410735">
<ele>191</ele>
<time>2017-10-08T15:34:59Z</time>
</trkpt>
<trkpt lat="53.8950599" lon="16.8422840">
<ele>191</ele>
<time>2017-10-08T15:35:05Z</time>
</trkpt>
<trkpt lat="53.8947672" lon="16.8433566">
<ele>192</ele>
<time>2017-10-08T15:35:11Z</time>
</trkpt>
<trkpt lat="53.8945171" lon="16.8439833">
<ele>196</ele>
<time>2017-10-08T15:35:17Z</time>
</trkpt>
<trkpt lat="53.8943264" lon="16.8442682">
<ele>196</ele>
<time>2017-10-08T15:35:23Z</time>
</trkpt>
<trkpt lat="53.8938823" lon="16.8447474">
<ele>198</ele>
<time>2017-10-08T15:35:29Z</time>
</trkpt>
<trkpt lat="53.8932185" lon="16.8454556">
<ele>198</ele>
<time>2017-10-08T15:35:35Z</time>
</trkpt>
<trkpt lat="53.8925006" lon="16.8462487">
<ele>199</ele>
<time>2017-10-08T15:35:41Z</time>
</trkpt>
<trkpt lat="53.8917544" lon="16.8470690">
<ele>199</ele>
<time>2017-10-08T15:35:47Z</time>
</trkpt>
<trkpt lat="53.8909707" lon="16.8479066">
<ele>198</ele>
<time>2017-10-08T15:35:53Z</time>
</trkpt>
<trkpt lat="53.8901418" lon="16.8488019">
<ele>199</ele>
<time>2017-10-08T15:35:59Z</time>
</trkpt>
<trkpt lat="53.8893282" lon="16.8496875">
<ele>200</ele>
<time>2017-10-08T15:36:05Z</time>
</trkpt>
<trkpt lat="53.8885287" lon="16.8505665">
<ele>200</ele>
<time>2017-10-08T15:36:11Z</time>
</trkpt>
<trkpt lat="53.8877236" lon="16.8514351">
<ele>200</ele>
<time>2017-10-08T15:36:17Z</time>
</trkpt>
<trkpt lat="53.8869411" lon="16.8522834">
<ele>200</ele>
<time>2017-10-08T15:36:23Z</time>
</trkpt>
<trkpt lat="53.8862025" lon="16.8530718">
<ele>200</ele>
<time>2017-10-08T15:36:29Z</time>
</trkpt>
<trkpt lat="53.8855089" lon="16.8538199">
<ele>201</ele>
<time>2017-10-08T15:36:35Z</time>
</trkpt>
<trkpt lat="53.8848781" lon="16.8545103">
<ele>201</ele>
<time>2017-10-08T15:36:41Z</time>
</trkpt>
<trkpt lat="53.8844140" lon="16.8550266">
<ele>202</ele>
<time>2017-10-08T15:36:47Z</time>
</trkpt>
<trkpt lat="53.8838493" lon="16.8556353">
<ele>200</ele>
<time>2017-10-08T15:36:53Z</time>
</trkpt>
<trkpt lat="53.8831657" lon="16.8563786">
<ele>200</ele>
<time>2017-10-08T15:36:59Z</time>
</trkpt>
<trkpt lat="53.8823886" lon="16.8572334">
<ele>199</ele>
<time>2017-10-08T15:37:05Z</time>
</trkpt>
<trkpt lat="53.8815177" lon="16.8581643">
<ele>197</ele>
<time>2017-10-08T15:37:11Z</time>
</trkpt>
<trkpt lat="53.8805831" lon="16.8591722">
<ele>197</ele>
<time>2017-10-08T15:37:17Z</time>
</trkpt>
<trkpt lat="53.8796505" lon="16.8601856">
<ele>197</ele>
<time>2017-10-08T15:37:23Z</time>
</trkpt>
<trkpt lat="53.8786927" lon="16.8612236">
<ele>198</ele>
<time>2017-10-08T15:37:29Z</time>
</trkpt>
<trkpt lat="53.8777266" lon="16.8622562">
<ele>198</ele>
<time>2017-10-08T15:37:35Z</time>
</trkpt>
<trkpt lat="53.8767594" lon="16.8632960">
<ele>198</ele>
<time>2017-10-08T15:37:41Z</time>
</trkpt>
<trkpt lat="53.8757638" lon="16.8643516">
<ele>196</ele>
<time>2017-10-08T15:37:47Z</time>
</trkpt>
<trkpt lat="53.8747526" lon="16.8654609">
<ele>196</ele>
<time>2017-10-08T15:37:53Z</time>
</trkpt>
<trkpt lat="53.8737203" lon="16.8665766">
<ele>195</ele>
<time>2017-10-08T15:37:59Z</time>
</trkpt>
<trkpt lat="53.8726868" lon="16.8676877">
<ele>194</ele>
<time>2017-10-08T15:38:05Z</time>
</trkpt>
<trkpt lat="53.8716701" lon="16.8688249">
<ele>194</ele>
<time>2017-10-08T15:38:11Z</time>
</trkpt>
<trkpt lat="53.8706353" lon="16.8699820">
<ele>194</ele>
<time>2017-10-08T15:38:17Z</time>
</trkpt>
<trkpt lat="53.8695948" lon="16.8711328">
<ele>193</ele>
<time>2017-10-08T15:38:23Z</time>
</trkpt>
<trkpt lat="53.8685307" lon="16.8723295">
<ele>193</ele>
<time>2017-10-08T15:38:29Z</time>
</trkpt>
<trkpt lat="53.8674662" lon="16.8735351">
<ele>195</ele>
<time>2017-10-08T15:38:35Z</time>
</trkpt>
<trkpt lat="53.8664273" lon="16.8746622">
<ele>194</ele>
<time>2017-10-08T15:38:41Z</time>
</trkpt>
<trkpt lat="53.8654148" lon="16.8758074">
<ele>194</ele>
<time>2017-10-08T15:38:47Z</time>
</trkpt>
<trkpt lat="53.8633261" lon="16.8781575">
<ele>193</ele>
<time>2017-10-08T15:38:59Z</time>
</trkpt>
<trkpt lat="53.8622722" lon="16.8793355">
<ele>194</ele>
<time>2017-10-08T15:39:05Z</time>
</trkpt>
<trkpt lat="53.8601761" lon="16.8816760">
<ele>194</ele>
<time>2017-10-08T15:39:17Z</time>
</trkpt>
<trkpt lat="53.8591585" lon="16.8828153">
<ele>194</ele>
<time>2017-10-08T15:39:23Z</time>
</trkpt>
<trkpt lat="53.8581597" lon="16.8839356">
<ele>193</ele>
<time>2017-10-08T15:39:29Z</time>
</trkpt>
<trkpt lat="53.8571664" lon="16.8850244">
<ele>193</ele>
<time>2017-10-08T15:39:35Z</time>
</trkpt>
<trkpt lat="53.8561747" lon="16.8861187">
<ele>194</ele>
<time>2017-10-08T15:39:41Z</time>
</trkpt>
<trkpt lat="53.8551813" lon="16.8872462">
<ele>193</ele>
<time>2017-10-08T15:39:47Z</time>
</trkpt>
<trkpt lat="53.8541834" lon="16.8883478">
<ele>193</ele>
<time>2017-10-08T15:39:53Z</time>
</trkpt>
<trkpt lat="53.8531714" lon="16.8894909">
<ele>192</ele>
<time>2017-10-08T15:39:59Z</time>
</trkpt>
<trkpt lat="53.8521411" lon="16.8906366">
<ele>192</ele>
<time>2017-10-08T15:40:05Z</time>
</trkpt>
<trkpt lat="53.8510994" lon="16.8917793">
<ele>192</ele>
<time>2017-10-08T15:40:11Z</time>
</trkpt>
<trkpt lat="53.8500463" lon="16.8929458">
<ele>191</ele>
<time>2017-10-08T15:40:17Z</time>
</trkpt>
<trkpt lat="53.8490101" lon="16.8941071">
<ele>190</ele>
<time>2017-10-08T15:40:23Z</time>
</trkpt>
<trkpt lat="53.8479691" lon="16.8952610">
<ele>190</ele>
<time>2017-10-08T15:40:29Z</time>
</trkpt>
<trkpt lat="53.8469426" lon="16.8963689">
<ele>189</ele>
<time>2017-10-08T15:40:35Z</time>
</trkpt>
<trkpt lat="53.8460217" lon="16.8976708">
<ele>188</ele>
<time>2017-10-08T15:40:41Z</time>
</trkpt>
<trkpt lat="53.8453570" lon="16.8994063">
<ele>187</ele>
<time>2017-10-08T15:40:47Z</time>
</trkpt>
<trkpt lat="53.8446905" lon="16.9011121">
<ele>185</ele>
<time>2017-10-08T15:40:53Z</time>
</trkpt>
<trkpt lat="53.8440326" lon="16.9027713">
<ele>184</ele>
<time>2017-10-08T15:40:59Z</time>
</trkpt>
<trkpt lat="53.8433681" lon="16.9044657">
<ele>183</ele>
<time>2017-10-08T15:41:05Z</time>
</trkpt>
<trkpt lat="53.8426920" lon="16.9061629">
<ele>182</ele>
<time>2017-10-08T15:41:11Z</time>
</trkpt>
<trkpt lat="53.8420324" lon="16.9078485">
<ele>180</ele>
<time>2017-10-08T15:41:17Z</time>
</trkpt>
<trkpt lat="53.8413727" lon="16.9095147">
<ele>180</ele>
<time>2017-10-08T15:41:23Z</time>
</trkpt>
<trkpt lat="53.8407046" lon="16.9111766">
<ele>180</ele>
<time>2017-10-08T15:41:29Z</time>
</trkpt>
<trkpt lat="53.8400760" lon="16.9127826">
<ele>179</ele>
<time>2017-10-08T15:41:35Z</time>
</trkpt>
<trkpt lat="53.8395073" lon="16.9142278">
<ele>179</ele>
<time>2017-10-08T15:41:41Z</time>
</trkpt>
<trkpt lat="53.8391204" lon="16.9156927">
<ele>179</ele>
<time>2017-10-08T15:41:47Z</time>
</trkpt>
<trkpt lat="53.8388415" lon="16.9171278">
<ele>179</ele>
<time>2017-10-08T15:41:53Z</time>
</trkpt>
<trkpt lat="53.8385672" lon="16.9184310">
<ele>178</ele>
<time>2017-10-08T15:41:59Z</time>
</trkpt>
<trkpt lat="53.8382595" lon="16.9196591">
<ele>179</ele>
<time>2017-10-08T15:42:05Z</time>
</trkpt>
<trkpt lat="53.8379656" lon="16.9209076">
<ele>178</ele>
<time>2017-10-08T15:42:11Z</time>
</trkpt>
<trkpt lat="53.8377051" lon="16.9221769">
<ele>178</ele>
<time>2017-10-08T15:42:17Z</time>
</trkpt>
<trkpt lat="53.8374212" lon="16.9234033">
<ele>177</ele>
<time>2017-10-08T15:42:23Z</time>
</trkpt>
<trkpt lat="53.8369861" lon="16.9244796">
<ele>178</ele>
<time>2017-10-08T15:42:29Z</time>
</trkpt>
<trkpt lat="53.8365733" lon="16.9256062">
<ele>178</ele>
<time>2017-10-08T15:42:35Z</time>
</trkpt>
<trkpt lat="53.8361683" lon="16.9267430">
<ele>179</ele>
<time>2017-10-08T15:42:41Z</time>
</trkpt>
<trkpt lat="53.8357514" lon="16.9278699">
<ele>180</ele>
<time>2017-10-08T15:42:47Z</time>
</trkpt>
<trkpt lat="53.8353281" lon="16.9290088">
<ele>181</ele>
<time>2017-10-08T15:42:53Z</time>
</trkpt>
<trkpt lat="53.8349030" lon="16.9301711">
<ele>182</ele>
<time>2017-10-08T15:42:59Z</time>
</trkpt>
<trkpt lat="53.8344617" lon="16.9313071">
<ele>180</ele>
<time>2017-10-08T15:43:05Z</time>
</trkpt>
<trkpt lat="53.8338660" lon="16.9322962">
<ele>179</ele>
<time>2017-10-08T15:43:11Z</time>
</trkpt>
<trkpt lat="53.8332066" lon="16.9333046">
<ele>178</ele>
<time>2017-10-08T15:43:17Z</time>
</trkpt>
<trkpt lat="53.8325215" lon="16.9343684">
<ele>178</ele>
<time>2017-10-08T15:43:23Z</time>
</trkpt>
<trkpt lat="53.8317993" lon="16.9354864">
<ele>178</ele>
<time>2017-10-08T15:43:29Z</time>
</trkpt>
<trkpt lat="53.8310338" lon="16.9365461">
<ele>181</ele>
<time>2017-10-08T15:43:35Z</time>
</trkpt>
<trkpt lat="53.8302470" lon="16.9376029">
<ele>182</ele>
<time>2017-10-08T15:43:41Z</time>
</trkpt>
<trkpt lat="53.8294264" lon="16.9387138">
<ele>181</ele>
<time>2017-10-08T15:43:47Z</time>
</trkpt>
<trkpt lat="53.8285343" lon="16.9399309">
<ele>179</ele>
<time>2017-10-08T15:43:53Z</time>
</trkpt>
<trkpt lat="53.8275991" lon="16.9411927">
<ele>180</ele>
<time>2017-10-08T15:43:59Z</time>
</trkpt>
<trkpt lat="53.8266422" lon="16.9424800">
<ele>180</ele>
<time>2017-10-08T15:44:05Z</time>
</trkpt>
<trkpt lat="53.8256883" lon="16.9437517">
<ele>181</ele>
<time>2017-10-08T15:44:11Z</time>
</trkpt>
<trkpt lat="53.8247368" lon="16.9450388">
<ele>181</ele>
<time>2017-10-08T15:44:17Z</time>
</trkpt>
<trkpt lat="53.8237850" lon="16.9463325">
<ele>181</ele>
<time>2017-10-08T15:44:23Z</time>
</trkpt>
<trkpt lat="53.8228707" lon="16.9475641">
<ele>181</ele>
<time>2017-10-08T15:44:29Z</time>
</trkpt>
<trkpt lat="53.8219736" lon="16.9487698">
<ele>181</ele>
<time>2017-10-08T15:44:35Z</time>
</trkpt>
<trkpt lat="53.8212368" lon="16.9501936">
<ele>180</ele>
<time>2017-10-08T15:44:41Z</time>
</trkpt>
<trkpt lat="53.8207905" lon="16.9519926">
<ele>179</ele>
<time>2017-10-08T15:44:47Z</time>
</trkpt>
<trkpt lat="53.8203297" lon="16.9537879">
<ele>179</ele>
<time>2017-10-08T15:44:53Z</time>
</trkpt>
<trkpt lat="53.8198518" lon="16.9555261">
<ele>179</ele>
<time>2017-10-08T15:44:59Z</time>
</trkpt>
<trkpt lat="53.8193822" lon="16.9573094">
<ele>179</ele>
<time>2017-10-08T15:45:05Z</time>
</trkpt>
<trkpt lat="53.8189131" lon="16.9591572">
<ele>180</ele>
<time>2017-10-08T15:45:11Z</time>
</trkpt>
<trkpt lat="53.8184515" lon="16.9610140">
<ele>180</ele>
<time>2017-10-08T15:45:17Z</time>
</trkpt>
<trkpt lat="53.8179708" lon="16.9628813">
<ele>181</ele>
<time>2017-10-08T15:45:23Z</time>
</trkpt>
<trkpt lat="53.8174955" lon="16.9647378">
<ele>181</ele>
<time>2017-10-08T15:45:29Z</time>
</trkpt>
<trkpt lat="53.8170036" lon="16.9666079">
<ele>181</ele>
<time>2017-10-08T15:45:35Z</time>
</trkpt>
<trkpt lat="53.8165147" lon="16.9684849">
<ele>182</ele>
<time>2017-10-08T15:45:41Z</time>
</trkpt>
<trkpt lat="53.8160093" lon="16.9703201">
<ele>181</ele>
<time>2017-10-08T15:45:47Z</time>
</trkpt>
<trkpt lat="53.8155062" lon="16.9721778">
<ele>181</ele>
<time>2017-10-08T15:45:53Z</time>
</trkpt>
<trkpt lat="53.8150281" lon="16.9740019">
<ele>181</ele>
<time>2017-10-08T15:45:59Z</time>
</trkpt>
<trkpt lat="53.8145606" lon="16.9758414">
<ele>181</ele>
<time>2017-10-08T15:46:05Z</time>
</trkpt>
<trkpt lat="53.8140858" lon="16.9776993">
<ele>181</ele>
<time>2017-10-08T15:46:11Z</time>
</trkpt>
<trkpt lat="53.8136135" lon="16.9795398">
<ele>181</ele>
<time>2017-10-08T15:46:17Z</time>
</trkpt>
<trkpt lat="53.8131401" lon="16.9813917">
<ele>181</ele>
<time>2017-10-08T15:46:23Z</time>
</trkpt>
<trkpt lat="53.8126523" lon="16.9832604">
<ele>181</ele>
<time>2017-10-08T15:46:29Z</time>
</trkpt>
<trkpt lat="53.8121693" lon="16.9850852">
<ele>181</ele>
<time>2017-10-08T15:46:35Z</time>
</trkpt>
<trkpt lat="53.8116977" lon="16.9868675">
<ele>181</ele>
<time>2017-10-08T15:46:41Z</time>
</trkpt>
<trkpt lat="53.8112223" lon="16.9886861">
<ele>181</ele>
<time>2017-10-08T15:46:47Z</time>
</trkpt>
<trkpt lat="53.8107462" lon="16.9905106">
<ele>181</ele>
<time>2017-10-08T15:46:53Z</time>
</trkpt>
<trkpt lat="53.8102886" lon="16.9923055">
<ele>182</ele>
<time>2017-10-08T15:46:59Z</time>
</trkpt>
<trkpt lat="53.8098439" lon="16.9940613">
<ele>182</ele>
<time>2017-10-08T15:47:05Z</time>
</trkpt>
<trkpt lat="53.8094109" lon="16.9957659">
<ele>181</ele>
<time>2017-10-08T15:47:11Z</time>
</trkpt>
<trkpt lat="53.8085044" lon="16.9992744">
<ele>180</ele>
<time>2017-10-08T15:47:23Z</time>
</trkpt>
<trkpt lat="53.8080374" lon="17.0010368">
<ele>180</ele>
<time>2017-10-08T15:47:29Z</time>
</trkpt>
<trkpt lat="53.8075647" lon="17.0028073">
<ele>179</ele>
<time>2017-10-08T15:47:35Z</time>
</trkpt>
<trkpt lat="53.8070996" lon="17.0046335">
<ele>179</ele>
<time>2017-10-08T15:47:41Z</time>
</trkpt>
<trkpt lat="53.8066508" lon="17.0064034">
<ele>178</ele>
<time>2017-10-08T15:47:47Z</time>
</trkpt>
<trkpt lat="53.8062077" lon="17.0081589">
<ele>177</ele>
<time>2017-10-08T15:47:53Z</time>
</trkpt>
<trkpt lat="53.8058001" lon="17.0099291">
<ele>178</ele>
<time>2017-10-08T15:47:59Z</time>
</trkpt>
<trkpt lat="53.8054454" lon="17.0117398">
<ele>178</ele>
<time>2017-10-08T15:48:05Z</time>
</trkpt>
<trkpt lat="53.8051176" lon="17.0134168">
<ele>177</ele>
<time>2017-10-08T15:48:11Z</time>
</trkpt>
<trkpt lat="53.8048086" lon="17.0150165">
<ele>177</ele>
<time>2017-10-08T15:48:17Z</time>
</trkpt>
<trkpt lat="53.8039" lon="17.0199">
<ele>174</ele>
<time>2017-10-08T15:48:35Z</time>
</trkpt>
<trkpt lat="53.8032" lon="17.0232">
<ele>174</ele>
<time>2017-10-08T15:48:47Z</time>
</trkpt>
<trkpt lat="53.8029727" lon="17.0250054">
<ele>174</ele>
<time>2017-10-08T15:48:53Z</time>
</trkpt>
<trkpt lat="53.8027253" lon="17.0267971">
<ele>174</ele>
<time>2017-10-08T15:48:59Z</time>
</trkpt>
<trkpt lat="53.8023164" lon="17.0284703">
<ele>172</ele>
<time>2017-10-08T15:49:05Z</time>
</trkpt>
<trkpt lat="53.8017836" lon="17.0301112">
<ele>171</ele>
<time>2017-10-08T15:49:11Z</time>
</trkpt>
<trkpt lat="53.8012563" lon="17.0317788">
<ele>171</ele>
<time>2017-10-08T15:49:17Z</time>
</trkpt>
<trkpt lat="53.8007222" lon="17.0334798">
<ele>170</ele>
<time>2017-10-08T15:49:23Z</time>
</trkpt>
<trkpt lat="53.8001757" lon="17.0352175">
<ele>171</ele>
<time>2017-10-08T15:49:29Z</time>
</trkpt>
<trkpt lat="53.7996294" lon="17.0369451">
<ele>170</ele>
<time>2017-10-08T15:49:35Z</time>
</trkpt>
<trkpt lat="53.7990846" lon="17.0386619">
<ele>170</ele>
<time>2017-10-08T15:49:41Z</time>
</trkpt>
<trkpt lat="53.7985381" lon="17.0403666">
<ele>170</ele>
<time>2017-10-08T15:49:47Z</time>
</trkpt>
<trkpt lat="53.7979922" lon="17.0421320">
<ele>171</ele>
<time>2017-10-08T15:49:53Z</time>
</trkpt>
<trkpt lat="53.7974330" lon="17.0438868">
<ele>171</ele>
<time>2017-10-08T15:49:59Z</time>
</trkpt>
<trkpt lat="53.7968788" lon="17.0456217">
<ele>171</ele>
<time>2017-10-08T15:50:05Z</time>
</trkpt>
<trkpt lat="53.7963244" lon="17.0473502">
<ele>171</ele>
<time>2017-10-08T15:50:11Z</time>
</trkpt>
<trkpt lat="53.7957676" lon="17.0490380">
<ele>172</ele>
<time>2017-10-08T15:50:17Z</time>
</trkpt>
<trkpt lat="53.7952154" lon="17.0507456">
<ele>172</ele>
<time>2017-10-08T15:50:23Z</time>
</trkpt>
<trkpt lat="53.7946654" lon="17.0524633">
<ele>171</ele>
<time>2017-10-08T15:50:29Z</time>
</trkpt>
<trkpt lat="53.7941196" lon="17.0541688">
<ele>171</ele>
<time>2017-10-08T15:50:35Z</time>
</trkpt>
<trkpt lat="53.7935843" lon="17.0558918">
<ele>171</ele>
<time>2017-10-08T15:50:41Z</time>
</trkpt>
<trkpt lat="53.7930315" lon="17.0576091">
<ele>171</ele>
<time>2017-10-08T15:50:47Z</time>
</trkpt>
<trkpt lat="53.7923292" lon="17.0591435">
<ele>170</ele>
<time>2017-10-08T15:50:53Z</time>
</trkpt>
<trkpt lat="53.7914712" lon="17.0604660">
<ele>168</ele>
<time>2017-10-08T15:50:59Z</time>
</trkpt>
<trkpt lat="53.7906403" lon="17.0617667">
<ele>167</ele>
<time>2017-10-08T15:51:05Z</time>
</trkpt>
<trkpt lat="53.7898090" lon="17.0630993">
<ele>166</ele>
<time>2017-10-08T15:51:11Z</time>
</trkpt>
<trkpt lat="53.7889662" lon="17.0644316">
<ele>165</ele>
<time>2017-10-08T15:51:17Z</time>
</trkpt>
<trkpt lat="53.7881335" lon="17.0657660">
<ele>162</ele>
<time>2017-10-08T15:51:23Z</time>
</trkpt>
<trkpt lat="53.7872868" lon="17.0671227">
<ele>163</ele>
<time>2017-10-08T15:51:29Z</time>
</trkpt>
<trkpt lat="53.7864334" lon="17.0685095">
<ele>162</ele>
<time>2017-10-08T15:51:35Z</time>
</trkpt>
<trkpt lat="53.7855841" lon="17.0698502">
<ele>161</ele>
<time>2017-10-08T15:51:41Z</time>
</trkpt>
<trkpt lat="53.7847274" lon="17.0712121">
<ele>161</ele>
<time>2017-10-08T15:51:47Z</time>
</trkpt>
<trkpt lat="53.7838607" lon="17.0725995">
<ele>162</ele>
<time>2017-10-08T15:51:53Z</time>
</trkpt>
<trkpt lat="53.7830154" lon="17.0739298">
<ele>162</ele>
<time>2017-10-08T15:51:59Z</time>
</trkpt>
<trkpt lat="53.7821857" lon="17.0752445">
<ele>162</ele>
<time>2017-10-08T15:52:05Z</time>
</trkpt>
<trkpt lat="53.7813584" lon="17.0765919">
<ele>161</ele>
<time>2017-10-08T15:52:11Z</time>
</trkpt>
<trkpt lat="53.7805104" lon="17.0779316">
<ele>161</ele>
<time>2017-10-08T15:52:17Z</time>
</trkpt>
<trkpt lat="53.7796365" lon="17.0793029">
<ele>162</ele>
<time>2017-10-08T15:52:23Z</time>
</trkpt>
<trkpt lat="53.7787499" lon="17.0807155">
<ele>162</ele>
<time>2017-10-08T15:52:29Z</time>
</trkpt>
<trkpt lat="53.7778690" lon="17.0821420">
<ele>161</ele>
<time>2017-10-08T15:52:35Z</time>
</trkpt>
<trkpt lat="53.7770023" lon="17.0835595">
<ele>162</ele>
<time>2017-10-08T15:52:41Z</time>
</trkpt>
<trkpt lat="53.7761298" lon="17.0849433">
<ele>162</ele>
<time>2017-10-08T15:52:47Z</time>
</trkpt>
<trkpt lat="53.7752558" lon="17.0863148">
<ele>163</ele>
<time>2017-10-08T15:52:53Z</time>
</trkpt>
<trkpt lat="53.7743730" lon="17.0876987">
<ele>164</ele>
<time>2017-10-08T15:52:59Z</time>
</trkpt>
<trkpt lat="53.7734947" lon="17.0891117">
<ele>164</ele>
<time>2017-10-08T15:53:05Z</time>
</trkpt>
<trkpt lat="53.7726095" lon="17.0905431">
<ele>164</ele>
<time>2017-10-08T15:53:11Z</time>
</trkpt>
<trkpt lat="53.7717107" lon="17.0919691">
<ele>164</ele>
<time>2017-10-08T15:53:17Z</time>
</trkpt>
<trkpt lat="53.7708107" lon="17.0933838">
<ele>163</ele>
<time>2017-10-08T15:53:23Z</time>
</trkpt>
<trkpt lat="53.7698926" lon="17.0947864">
<ele>162</ele>
<time>2017-10-08T15:53:29Z</time>
</trkpt>
<trkpt lat="53.7689757" lon="17.0961992">
<ele>162</ele>
<time>2017-10-08T15:53:35Z</time>
</trkpt>
<trkpt lat="53.7680812" lon="17.0975837">
<ele>161</ele>
<time>2017-10-08T15:53:41Z</time>
</trkpt>
<trkpt lat="53.7671868" lon="17.0989846">
<ele>164</ele>
<time>2017-10-08T15:53:47Z</time>
</trkpt>
<trkpt lat="53.7662747" lon="17.1003942">
<ele>167</ele>
<time>2017-10-08T15:53:53Z</time>
</trkpt>
<trkpt lat="53.7653954" lon="17.1017054">
<ele>171</ele>
<time>2017-10-08T15:53:59Z</time>
</trkpt>
<trkpt lat="53.7646009" lon="17.1029164">
<ele>172</ele>
<time>2017-10-08T15:54:05Z</time>
</trkpt>
<trkpt lat="53.7638570" lon="17.1040684">
<ele>174</ele>
<time>2017-10-08T15:54:11Z</time>
</trkpt>
<trkpt lat="53.7631447" lon="17.1052011">
<ele>174</ele>
<time>2017-10-08T15:54:17Z</time>
</trkpt>
<trkpt lat="53.7624759" lon="17.1062345">
<ele>175</ele>
<time>2017-10-08T15:54:23Z</time>
</trkpt>
<trkpt lat="53.7618296" lon="17.1071417">
<ele>175</ele>
<time>2017-10-08T15:54:29Z</time>
</trkpt>
<trkpt lat="53.7610775" lon="17.1075442">
<ele>175</ele>
<time>2017-10-08T15:54:35Z</time>
</trkpt>
<trkpt lat="53.7603103" lon="17.1075533">
<ele>176</ele>
<time>2017-10-08T15:54:41Z</time>
</trkpt>
<trkpt lat="53.7595533" lon="17.1075252">
<ele>177</ele>
<time>2017-10-08T15:54:47Z</time>
</trkpt>
<trkpt lat="53.7588372" lon="17.1075396">
<ele>177</ele>
<time>2017-10-08T15:54:53Z</time>
</trkpt>
<trkpt lat="53.7581804" lon="17.1076740">
<ele>178</ele>
<time>2017-10-08T15:54:59Z</time>
</trkpt>
<trkpt lat="53.7577810" lon="17.1077091">
<ele>176</ele>
<time>2017-10-08T15:55:05Z</time>
</trkpt>
<trkpt lat="53.7575757" lon="17.1079165">
<ele>178</ele>
<time>2017-10-08T15:55:11Z</time>
</trkpt>
<trkpt lat="53.7574586" lon="17.1086018">
<ele>172</ele>
<time>2017-10-08T15:55:17Z</time>
</trkpt>
<trkpt lat="53.7572052" lon="17.1095416">
<ele>171</ele>
<time>2017-10-08T15:55:23Z</time>
</trkpt>
<trkpt lat="53.7568891" lon="17.1106860">
<ele>170</ele>
<time>2017-10-08T15:55:29Z</time>
</trkpt>
<trkpt lat="53.7566449" lon="17.1119017">
<ele>170</ele>
<time>2017-10-08T15:55:35Z</time>
</trkpt>
<trkpt lat="53.7563744" lon="17.1133012">
<ele>173</ele>
<time>2017-10-08T15:55:41Z</time>
</trkpt>
<trkpt lat="53.7559151" lon="17.1144621">
<ele>173</ele>
<time>2017-10-08T15:55:47Z</time>
</trkpt>
<trkpt lat="53.7554288" lon="17.1155787">
<ele>173</ele>
<time>2017-10-08T15:55:53Z</time>
</trkpt>
<trkpt lat="53.7551159" lon="17.1168420">
<ele>173</ele>
<time>2017-10-08T15:55:59Z</time>
</trkpt>
<trkpt lat="53.7552836" lon="17.1181594">
<ele>174</ele>
<time>2017-10-08T15:56:05Z</time>
</trkpt>
<trkpt lat="53.7555185" lon="17.1195197">
<ele>176</ele>
<time>2017-10-08T15:56:11Z</time>
</trkpt>
<trkpt lat="53.7555988" lon="17.1208609">
<ele>177</ele>
<time>2017-10-08T15:56:17Z</time>
</trkpt>
<trkpt lat="53.7553378" lon="17.1222416">
<ele>175</ele>
<time>2017-10-08T15:56:23Z</time>
</trkpt>
<trkpt lat="53.7550692" lon="17.1237590">
<ele>176</ele>
<time>2017-10-08T15:56:29Z</time>
</trkpt>
<trkpt lat="53.7547960" lon="17.1253667">
<ele>178</ele>
<time>2017-10-08T15:56:35Z</time>
</trkpt>
<trkpt lat="53.7545040" lon="17.1270854">
<ele>179</ele>
<time>2017-10-08T15:56:41Z</time>
</trkpt>
<trkpt lat="53.7542074" lon="17.1288508">
<ele>180</ele>
<time>2017-10-08T15:56:47Z</time>
</trkpt>
<trkpt lat="53.7539019" lon="17.1306674">
<ele>181</ele>
<time>2017-10-08T15:56:53Z</time>
</trkpt>
<trkpt lat="53.7535874" lon="17.1325230">
<ele>182</ele>
<time>2017-10-08T15:56:59Z</time>
</trkpt>
<trkpt lat="53.7532803" lon="17.1344132">
<ele>184</ele>
<time>2017-10-08T15:57:05Z</time>
</trkpt>
<trkpt lat="53.7529580" lon="17.1362810">
<ele>183</ele>
<time>2017-10-08T15:57:11Z</time>
</trkpt>
<trkpt lat="53.7526454" lon="17.1381027">
<ele>183</ele>
<time>2017-10-08T15:57:17Z</time>
</trkpt>
<trkpt lat="53.7523348" lon="17.1398999">
<ele>182</ele>
<time>2017-10-08T15:57:23Z</time>
</trkpt>
<trkpt lat="53.7520338" lon="17.1416636">
<ele>182</ele>
<time>2017-10-08T15:57:29Z</time>
</trkpt>
<trkpt lat="53.7517260" lon="17.1434433">
<ele>182</ele>
<time>2017-10-08T15:57:35Z</time>
</trkpt>
<trkpt lat="53.7514233" lon="17.1452324">
<ele>180</ele>
<time>2017-10-08T15:57:41Z</time>
</trkpt>
<trkpt lat="53.7511529" lon="17.1470276">
<ele>179</ele>
<time>2017-10-08T15:57:47Z</time>
</trkpt>
<trkpt lat="53.7509260" lon="17.1488443">
<ele>178</ele>
<time>2017-10-08T15:57:53Z</time>
</trkpt>
<trkpt lat="53.7506888" lon="17.1506778">
<ele>178</ele>
<time>2017-10-08T15:57:59Z</time>
</trkpt>
<trkpt lat="53.7504510" lon="17.1524808">
<ele>178</ele>
<time>2017-10-08T15:58:05Z</time>
</trkpt>
<trkpt lat="53.7502335" lon="17.1542248">
<ele>179</ele>
<time>2017-10-08T15:58:11Z</time>
</trkpt>
<trkpt lat="53.7500146" lon="17.1560184">
<ele>180</ele>
<time>2017-10-08T15:58:17Z</time>
</trkpt>
<trkpt lat="53.7497694" lon="17.1578400">
<ele>179</ele>
<time>2017-10-08T15:58:23Z</time>
</trkpt>
<trkpt lat="53.7494252" lon="17.1595855">
<ele>178</ele>
<time>2017-10-08T15:58:29Z</time>
</trkpt>
<trkpt lat="53.7490881" lon="17.1612975">
<ele>178</ele>
<time>2017-10-08T15:58:35Z</time>
</trkpt>
<trkpt lat="53.7487307" lon="17.1629986">
<ele>179</ele>
<time>2017-10-08T15:58:41Z</time>
</trkpt>
<trkpt lat="53.7483769" lon="17.1647430">
<ele>179</ele>
<time>2017-10-08T15:58:47Z</time>
</trkpt>
<trkpt lat="53.7480335" lon="17.1664901">
<ele>180</ele>
<time>2017-10-08T15:58:53Z</time>
</trkpt>
<trkpt lat="53.7476825" lon="17.1682060">
<ele>182</ele>
<time>2017-10-08T15:58:59Z</time>
</trkpt>
<trkpt lat="53.7473411" lon="17.1698942">
<ele>180</ele>
<time>2017-10-08T15:59:05Z</time>
</trkpt>
<trkpt lat="53.7469672" lon="17.1715747">
<ele>178</ele>
<time>2017-10-08T15:59:11Z</time>
</trkpt>
<trkpt lat="53.7462426" lon="17.1728871">
<ele>179</ele>
<time>2017-10-08T15:59:17Z</time>
</trkpt>
<trkpt lat="53.7454149" lon="17.1739996">
<ele>182</ele>
<time>2017-10-08T15:59:23Z</time>
</trkpt>
<trkpt lat="53.7445905" lon="17.1751426">
<ele>182</ele>
<time>2017-10-08T15:59:29Z</time>
</trkpt>
<trkpt lat="53.7437953" lon="17.1762856">
<ele>181</ele>
<time>2017-10-08T15:59:35Z</time>
</trkpt>
<trkpt lat="53.7429930" lon="17.1774106">
<ele>180</ele>
<time>2017-10-08T15:59:41Z</time>
</trkpt>
<trkpt lat="53.7422550" lon="17.1785736">
<ele>181</ele>
<time>2017-10-08T15:59:47Z</time>
</trkpt>
<trkpt lat="53.7417099" lon="17.1800278">
<ele>181</ele>
<time>2017-10-08T15:59:53Z</time>
</trkpt>
<trkpt lat="53.7412447" lon="17.1814926">
<ele>181</ele>
<time>2017-10-08T15:59:59Z</time>
</trkpt>
<trkpt lat="53.7408131" lon="17.1828576">
<ele>181</ele>
<time>2017-10-08T16:00:05Z</time>
</trkpt>
<trkpt lat="53.7403978" lon="17.1841868">
<ele>180</ele>
<time>2017-10-08T16:00:11Z</time>
</trkpt>
<trkpt lat="53.7399801" lon="17.1854796">
<ele>180</ele>
<time>2017-10-08T16:00:17Z</time>
</trkpt>
<trkpt lat="53.7395822" lon="17.1866998">
<ele>180</ele>
<time>2017-10-08T16:00:23Z</time>
</trkpt>
<trkpt lat="53.7392172" lon="17.1878552">
<ele>180</ele>
<time>2017-10-08T16:00:29Z</time>
</trkpt>
<trkpt lat="53.7388647" lon="17.1889297">
<ele>180</ele>
<time>2017-10-08T16:00:35Z</time>
</trkpt>
<trkpt lat="53.7384875" lon="17.1900154">
<ele>179</ele>
<time>2017-10-08T16:00:41Z</time>
</trkpt>
<trkpt lat="53.7381535" lon="17.1911837">
<ele>178</ele>
<time>2017-10-08T16:00:47Z</time>
</trkpt>
<trkpt lat="53.7376285" lon="17.1920757">
<ele>177</ele>
<time>2017-10-08T16:00:53Z</time>
</trkpt>
<trkpt lat="53.7369648" lon="17.1925671">
<ele>175</ele>
<time>2017-10-08T16:00:59Z</time>
</trkpt>
<trkpt lat="53.7363049" lon="17.1929359">
<ele>177</ele>
<time>2017-10-08T16:01:05Z</time>
</trkpt>
<trkpt lat="53.7357877" lon="17.1938956">
<ele>176</ele>
<time>2017-10-08T16:01:11Z</time>
</trkpt>
<trkpt lat="53.7353585" lon="17.1950673">
<ele>174</ele>
<time>2017-10-08T16:01:17Z</time>
</trkpt>
<trkpt lat="53.7348910" lon="17.1961012">
<ele>173</ele>
<time>2017-10-08T16:01:23Z</time>
</trkpt>
<trkpt lat="53.7346062" lon="17.1972960">
<ele>175</ele>
<time>2017-10-08T16:01:29Z</time>
</trkpt>
<trkpt lat="53.7341772" lon="17.1983620">
<ele>174</ele>
<time>2017-10-08T16:01:35Z</time>
</trkpt>
<trkpt lat="53.7337686" lon="17.1994486">
<ele>174</ele>
<time>2017-10-08T16:01:41Z</time>
</trkpt>
<trkpt lat="53.7334231" lon="17.2006275">
<ele>172</ele>
<time>2017-10-08T16:01:47Z</time>
</trkpt>
<trkpt lat="53.7330530" lon="17.2019371">
<ele>171</ele>
<time>2017-10-08T16:01:53Z</time>
</trkpt>
<trkpt lat="53.7326482" lon="17.2033772">
<ele>170</ele>
<time>2017-10-08T16:01:59Z</time>
</trkpt>
<trkpt lat="53.7322394" lon="17.2048214">
<ele>169</ele>
<time>2017-10-08T16:02:05Z</time>
</trkpt>
<trkpt lat="53.7318388" lon="17.2062078">
<ele>168</ele>
<time>2017-10-08T16:02:11Z</time>
</trkpt>
<trkpt lat="53.7316441" lon="17.2075454">
<ele>166</ele>
<time>2017-10-08T16:02:17Z</time>
</trkpt>
<trkpt lat="53.7318095" lon="17.2092129">
<ele>161</ele>
<time>2017-10-08T16:02:23Z</time>
</trkpt>
<trkpt lat="53.7320079" lon="17.2109310">
<ele>156</ele>
<time>2017-10-08T16:02:29Z</time>
</trkpt>
<trkpt lat="53.7321949" lon="17.2127337">
<ele>155</ele>
<time>2017-10-08T16:02:35Z</time>
</trkpt>
<trkpt lat="53.7323656" lon="17.2145371">
<ele>157</ele>
<time>2017-10-08T16:02:41Z</time>
</trkpt>
<trkpt lat="53.7323329" lon="17.2161774">
<ele>158</ele>
<time>2017-10-08T16:02:47Z</time>
</trkpt>
<trkpt lat="53.7317158" lon="17.2175965">
<ele>157</ele>
<time>2017-10-08T16:02:53Z</time>
</trkpt>
<trkpt lat="53.7310765" lon="17.2191618">
<ele>156</ele>
<time>2017-10-08T16:02:59Z</time>
</trkpt>
<trkpt lat="53.7304298" lon="17.2207877">
<ele>156</ele>
<time>2017-10-08T16:03:05Z</time>
</trkpt>
<trkpt lat="53.7301613" lon="17.2226435">
<ele>158</ele>
<time>2017-10-08T16:03:11Z</time>
</trkpt>
<trkpt lat="53.7299618" lon="17.2244638">
<ele>163</ele>
<time>2017-10-08T16:03:17Z</time>
</trkpt>
<trkpt lat="53.7297356" lon="17.2262284">
<ele>170</ele>
<time>2017-10-08T16:03:23Z</time>
</trkpt>
<trkpt lat="53.7291664" lon="17.2277574">
<ele>175</ele>
<time>2017-10-08T16:03:29Z</time>
</trkpt>
<trkpt lat="53.7284575" lon="17.2293227">
<ele>178</ele>
<time>2017-10-08T16:03:35Z</time>
</trkpt>
<trkpt lat="53.7277584" lon="17.2309335">
<ele>179</ele>
<time>2017-10-08T16:03:41Z</time>
</trkpt>
<trkpt lat="53.7270587" lon="17.2325303">
<ele>180</ele>
<time>2017-10-08T16:03:47Z</time>
</trkpt>
<trkpt lat="53.7263865" lon="17.2340838">
<ele>181</ele>
<time>2017-10-08T16:03:53Z</time>
</trkpt>
<trkpt lat="53.7257319" lon="17.2355939">
<ele>183</ele>
<time>2017-10-08T16:03:59Z</time>
</trkpt>
<trkpt lat="53.7249308" lon="17.2368372">
<ele>184</ele>
<time>2017-10-08T16:04:05Z</time>
</trkpt>
<trkpt lat="53.7240463" lon="17.2380328">
<ele>182</ele>
<time>2017-10-08T16:04:11Z</time>
</trkpt>
<trkpt lat="53.7232556" lon="17.2395027">
<ele>183</ele>
<time>2017-10-08T16:04:17Z</time>
</trkpt>
<trkpt lat="53.7225038" lon="17.2410261">
<ele>183</ele>
<time>2017-10-08T16:04:23Z</time>
</trkpt>
<trkpt lat="53.7217406" lon="17.2425254">
<ele>183</ele>
<time>2017-10-08T16:04:29Z</time>
</trkpt>
<trkpt lat="53.7209004" lon="17.2438941">
<ele>185</ele>
<time>2017-10-08T16:04:35Z</time>
</trkpt>
<trkpt lat="53.7200792" lon="17.2452354">
<ele>187</ele>
<time>2017-10-08T16:04:41Z</time>
</trkpt>
<trkpt lat="53.7192739" lon="17.2465747">
<ele>189</ele>
<time>2017-10-08T16:04:47Z</time>
</trkpt>
<trkpt lat="53.7182931" lon="17.2473468">
<ele>190</ele>
<time>2017-10-08T16:04:53Z</time>
</trkpt>
<trkpt lat="53.7172316" lon="17.2480033">
<ele>192</ele>
<time>2017-10-08T16:04:59Z</time>
</trkpt>
<trkpt lat="53.7161708" lon="17.2486818">
<ele>194</ele>
<time>2017-10-08T16:05:05Z</time>
</trkpt>
<trkpt lat="53.7151141" lon="17.2493418">
<ele>195</ele>
<time>2017-10-08T16:05:11Z</time>
</trkpt>
<trkpt lat="53.7141035" lon="17.2499384">
<ele>196</ele>
<time>2017-10-08T16:05:17Z</time>
</trkpt>
<trkpt lat="53.7132561" lon="17.2509451">
<ele>198</ele>
<time>2017-10-08T16:05:23Z</time>
</trkpt>
<trkpt lat="53.7125649" lon="17.2523465">
<ele>194</ele>
<time>2017-10-08T16:05:29Z</time>
</trkpt>
<trkpt lat="53.7118702" lon="17.2537349">
<ele>192</ele>
<time>2017-10-08T16:05:35Z</time>
</trkpt>
<trkpt lat="53.7111825" lon="17.2550781">
<ele>191</ele>
<time>2017-10-08T16:05:41Z</time>
</trkpt>
<trkpt lat="53.7105232" lon="17.2563485">
<ele>191</ele>
<time>2017-10-08T16:05:47Z</time>
</trkpt>
<trkpt lat="53.7099357" lon="17.2574941">
<ele>190</ele>
<time>2017-10-08T16:05:53Z</time>
</trkpt>
<trkpt lat="53.7094167" lon="17.2585460">
<ele>189</ele>
<time>2017-10-08T16:05:59Z</time>
</trkpt>
<trkpt lat="53.7089371" lon="17.2594827">
<ele>189</ele>
<time>2017-10-08T16:06:05Z</time>
</trkpt>
<trkpt lat="53.7084571" lon="17.2604150">
<ele>189</ele>
<time>2017-10-08T16:06:11Z</time>
</trkpt>
<trkpt lat="53.7079421" lon="17.2614201">
<ele>188</ele>
<time>2017-10-08T16:06:17Z</time>
</trkpt>
<trkpt lat="53.7073795" lon="17.2625299">
<ele>186</ele>
<time>2017-10-08T16:06:23Z</time>
</trkpt>
<trkpt lat="53.7067586" lon="17.2637526">
<ele>185</ele>
<time>2017-10-08T16:06:29Z</time>
</trkpt>
<trkpt lat="53.7061094" lon="17.2650303">
<ele>184</ele>
<time>2017-10-08T16:06:35Z</time>
</trkpt>
<trkpt lat="53.7054607" lon="17.2663092">
<ele>184</ele>
<time>2017-10-08T16:06:41Z</time>
</trkpt>
<trkpt lat="53.7047890" lon="17.2676382">
<ele>183</ele>
<time>2017-10-08T16:06:47Z</time>
</trkpt>
<trkpt lat="53.7041130" lon="17.2689926">
<ele>183</ele>
<time>2017-10-08T16:06:53Z</time>
</trkpt>
<trkpt lat="53.7034170" lon="17.2703659">
<ele>183</ele>
<time>2017-10-08T16:06:59Z</time>
</trkpt>
<trkpt lat="53.7028391" lon="17.2717717">
<ele>183</ele>
<time>2017-10-08T16:07:05Z</time>
</trkpt>
<trkpt lat="53.7026614" lon="17.2734944">
<ele>181</ele>
<time>2017-10-08T16:07:11Z</time>
</trkpt>
<trkpt lat="53.7023944" lon="17.2752315">
<ele>180</ele>
<time>2017-10-08T16:07:17Z</time>
</trkpt>
<trkpt lat="53.7019376" lon="17.2769270">
<ele>181</ele>
<time>2017-10-08T16:07:23Z</time>
</trkpt>
<trkpt lat="53.7015303" lon="17.2785991">
<ele>179</ele>
<time>2017-10-08T16:07:29Z</time>
</trkpt>
<trkpt lat="53.7011129" lon="17.2802849">
<ele>179</ele>
<time>2017-10-08T16:07:35Z</time>
</trkpt>
<trkpt lat="53.7006682" lon="17.2819278">
<ele>178</ele>
<time>2017-10-08T16:07:41Z</time>
</trkpt>
<trkpt lat="53.7002709" lon="17.2836064">
<ele>177</ele>
<time>2017-10-08T16:07:47Z</time>
</trkpt>
<trkpt lat="53.6998580" lon="17.2853024">
<ele>178</ele>
<time>2017-10-08T16:07:53Z</time>
</trkpt>
<trkpt lat="53.6994534" lon="17.2870246">
<ele>178</ele>
<time>2017-10-08T16:07:59Z</time>
</trkpt>
<trkpt lat="53.6990221" lon="17.2887161">
<ele>178</ele>
<time>2017-10-08T16:08:05Z</time>
</trkpt>
<trkpt lat="53.6986024" lon="17.2903794">
<ele>177</ele>
<time>2017-10-08T16:08:11Z</time>
</trkpt>
<trkpt lat="53.6980802" lon="17.2919267">
<ele>177</ele>
<time>2017-10-08T16:08:17Z</time>
</trkpt>
<trkpt lat="53.6973134" lon="17.2931596">
<ele>180</ele>
<time>2017-10-08T16:08:23Z</time>
</trkpt>
<trkpt lat="53.6965607" lon="17.2944663">
<ele>181</ele>
<time>2017-10-08T16:08:29Z</time>
</trkpt>
<trkpt lat="53.6957916" lon="17.2958042">
<ele>181</ele>
<time>2017-10-08T16:08:35Z</time>
</trkpt>
<trkpt lat="53.6950044" lon="17.2971465">
<ele>183</ele>
<time>2017-10-08T16:08:41Z</time>
</trkpt>
<trkpt lat="53.6942047" lon="17.2985038">
<ele>184</ele>
<time>2017-10-08T16:08:47Z</time>
</trkpt>
<trkpt lat="53.6934077" lon="17.2998878">
<ele>185</ele>
<time>2017-10-08T16:08:53Z</time>
</trkpt>
<trkpt lat="53.6926003" lon="17.3012427">
<ele>186</ele>
<time>2017-10-08T16:08:59Z</time>
</trkpt>
<trkpt lat="53.6917915" lon="17.3026025">
<ele>187</ele>
<time>2017-10-08T16:09:05Z</time>
</trkpt>
<trkpt lat="53.6911270" lon="17.3040916">
<ele>190</ele>
<time>2017-10-08T16:09:11Z</time>
</trkpt>
<trkpt lat="53.6908010" lon="17.3058501">
<ele>189</ele>
<time>2017-10-08T16:09:17Z</time>
</trkpt>
<trkpt lat="53.6904725" lon="17.3073144">
<ele>190</ele>
<time>2017-10-08T16:09:23Z</time>
</trkpt>
<trkpt lat="53.6901864" lon="17.3086179">
<ele>190</ele>
<time>2017-10-08T16:09:29Z</time>
</trkpt>
<trkpt lat="53.6899090" lon="17.3098319">
<ele>190</ele>
<time>2017-10-08T16:09:35Z</time>
</trkpt>
<trkpt lat="53.6896408" lon="17.3110528">
<ele>190</ele>
<time>2017-10-08T16:09:41Z</time>
</trkpt>
<trkpt lat="53.6893692" lon="17.3122730">
<ele>190</ele>
<time>2017-10-08T16:09:47Z</time>
</trkpt>
<trkpt lat="53.6890703" lon="17.3135410">
<ele>190</ele>
<time>2017-10-08T16:09:53Z</time>
</trkpt>
<trkpt lat="53.6887706" lon="17.3149176">
<ele>190</ele>
<time>2017-10-08T16:09:59Z</time>
</trkpt>
<trkpt lat="53.6884366" lon="17.3164196">
<ele>191</ele>
<time>2017-10-08T16:10:05Z</time>
</trkpt>
<trkpt lat="53.6880848" lon="17.3180621">
<ele>192</ele>
<time>2017-10-08T16:10:11Z</time>
</trkpt>
<trkpt lat="53.6877138" lon="17.3198002">
<ele>191</ele>
<time>2017-10-08T16:10:17Z</time>
</trkpt>
<trkpt lat="53.6873449" lon="17.3214584">
<ele>190</ele>
<time>2017-10-08T16:10:23Z</time>
</trkpt>
<trkpt lat="53.6870074" lon="17.3230090">
<ele>190</ele>
<time>2017-10-08T16:10:29Z</time>
</trkpt>
<trkpt lat="53.6867134" lon="17.3244764">
<ele>189</ele>
<time>2017-10-08T16:10:35Z</time>
</trkpt>
<trkpt lat="53.6866536" lon="17.3259002">
<ele>188</ele>
<time>2017-10-08T16:10:41Z</time>
</trkpt>
<trkpt lat="53.6865391" lon="17.3273090">
<ele>189</ele>
<time>2017-10-08T16:10:47Z</time>
</trkpt>
<trkpt lat="53.6860711" lon="17.3285106">
<ele>190</ele>
<time>2017-10-08T16:10:53Z</time>
</trkpt>
<trkpt lat="53.6855250" lon="17.3295422">
<ele>190</ele>
<time>2017-10-08T16:10:59Z</time>
</trkpt>
<trkpt lat="53.6849996" lon="17.3305592">
<ele>190</ele>
<time>2017-10-08T16:11:05Z</time>
</trkpt>
<trkpt lat="53.6844685" lon="17.3315952">
<ele>189</ele>
<time>2017-10-08T16:11:11Z</time>
</trkpt>
<trkpt lat="53.6839133" lon="17.3326300">
<ele>188</ele>
<time>2017-10-08T16:11:17Z</time>
</trkpt>
<trkpt lat="53.6832915" lon="17.3335266">
<ele>187</ele>
<time>2017-10-08T16:11:23Z</time>
</trkpt>
<trkpt lat="53.6826285" lon="17.3344302">
<ele>187</ele>
<time>2017-10-08T16:11:29Z</time>
</trkpt>
<trkpt lat="53.6819399" lon="17.3353755">
<ele>187</ele>
<time>2017-10-08T16:11:35Z</time>
</trkpt>
<trkpt lat="53.6812469" lon="17.3363241">
<ele>186</ele>
<time>2017-10-08T16:11:41Z</time>
</trkpt>
<trkpt lat="53.6805507" lon="17.3373121">
<ele>186</ele>
<time>2017-10-08T16:11:47Z</time>
</trkpt>
<trkpt lat="53.6798515" lon="17.3382987">
<ele>188</ele>
<time>2017-10-08T16:11:53Z</time>
</trkpt>
<trkpt lat="53.6791843" lon="17.3392059">
<ele>190</ele>
<time>2017-10-08T16:11:59Z</time>
</trkpt>
<trkpt lat="53.6785321" lon="17.3401020">
<ele>191</ele>
<time>2017-10-08T16:12:05Z</time>
</trkpt>
<trkpt lat="53.6778868" lon="17.3410042">
<ele>191</ele>
<time>2017-10-08T16:12:11Z</time>
</trkpt>
<trkpt lat="53.6772500" lon="17.3418939">
<ele>191</ele>
<time>2017-10-08T16:12:17Z</time>
</trkpt>
<trkpt lat="53.6766129" lon="17.3427736">
<ele>190</ele>
<time>2017-10-08T16:12:23Z</time>
</trkpt>
<trkpt lat="53.6759870" lon="17.3436261">
<ele>191</ele>
<time>2017-10-08T16:12:29Z</time>
</trkpt>
<trkpt lat="53.6753695" lon="17.3444763">
<ele>193</ele>
<time>2017-10-08T16:12:35Z</time>
</trkpt>
<trkpt lat="53.6747736" lon="17.3452973">
<ele>195</ele>
<time>2017-10-08T16:12:41Z</time>
</trkpt>
<trkpt lat="53.6741765" lon="17.3461304">
<ele>194</ele>
<time>2017-10-08T16:12:47Z</time>
</trkpt>
<trkpt lat="53.6735466" lon="17.3470208">
<ele>194</ele>
<time>2017-10-08T16:12:53Z</time>
</trkpt>
<trkpt lat="53.6729368" lon="17.3478761">
<ele>193</ele>
<time>2017-10-08T16:12:59Z</time>
</trkpt>
<trkpt lat="53.6723359" lon="17.3487058">
<ele>194</ele>
<time>2017-10-08T16:13:05Z</time>
</trkpt>
<trkpt lat="53.6717493" lon="17.3494952">
<ele>195</ele>
<time>2017-10-08T16:13:11Z</time>
</trkpt>
<trkpt lat="53.6711685" lon="17.3502915">
<ele>196</ele>
<time>2017-10-08T16:13:17Z</time>
</trkpt>
<trkpt lat="53.6706301" lon="17.3510757">
<ele>197</ele>
<time>2017-10-08T16:13:23Z</time>
</trkpt>
<trkpt lat="53.6701709" lon="17.3517429">
<ele>197</ele>
<time>2017-10-08T16:13:29Z</time>
</trkpt>
<trkpt lat="53.6700045" lon="17.3519636">
<ele>196</ele>
<time>2017-10-08T16:13:35Z</time>
</trkpt>
<trkpt lat="53.6700086" lon="17.3519615">
<ele>196</ele>
<time>2017-10-08T16:13:41Z</time>
</trkpt>
<trkpt lat="53.6700086" lon="17.3519615">
<ele>196</ele>
<time>2017-10-08T16:13:47Z</time>
</trkpt>
<trkpt lat="53.6700086" lon="17.3519615">
<ele>196</ele>
<time>2017-10-08T16:13:53Z</time>
</trkpt>
<trkpt lat="53.6700086" lon="17.3519615">
<ele>196</ele>
<time>2017-10-08T16:13:59Z</time>
</trkpt>
<trkpt lat="53.6700086" lon="17.3519615">
<ele>196</ele>
<time>2017-10-08T16:14:05Z</time>
</trkpt>
<trkpt lat="53.6700086" lon="17.3519615">
<ele>196</ele>
<time>2017-10-08T16:14:11Z</time>
</trkpt>
<trkpt lat="53.6700086" lon="17.3519615">
<ele>196</ele>
<time>2017-10-08T16:14:17Z</time>
</trkpt>
<trkpt lat="53.6698393" lon="17.3521948">
<ele>196</ele>
<time>2017-10-08T16:14:23Z</time>
</trkpt>
<trkpt lat="53.6698554" lon="17.3528160">
<ele>196</ele>
<time>2017-10-08T16:14:29Z</time>
</trkpt>
<trkpt lat="53.6701439" lon="17.3537066">
<ele>196</ele>
<time>2017-10-08T16:14:35Z</time>
</trkpt>
<trkpt lat="53.6706006" lon="17.3547509">
<ele>195</ele>
<time>2017-10-08T16:14:41Z</time>
</trkpt>
<trkpt lat="53.6711124" lon="17.3557915">
<ele>194</ele>
<time>2017-10-08T16:14:47Z</time>
</trkpt>
<trkpt lat="53.6716765" lon="17.3569171">
<ele>193</ele>
<time>2017-10-08T16:14:53Z</time>
</trkpt>
<trkpt lat="53.6722258" lon="17.3580089">
<ele>192</ele>
<time>2017-10-08T16:14:59Z</time>
</trkpt>
<trkpt lat="53.6726287" lon="17.3588987">
<ele>192</ele>
<time>2017-10-08T16:15:05Z</time>
</trkpt>
<trkpt lat="53.6729108" lon="17.3598424">
<ele>193</ele>
<time>2017-10-08T16:15:11Z</time>
</trkpt>
<trkpt lat="53.6731652" lon="17.3610215">
<ele>193</ele>
<time>2017-10-08T16:15:17Z</time>
</trkpt>
<trkpt lat="53.6733176" lon="17.3623275">
<ele>194</ele>
<time>2017-10-08T16:15:23Z</time>
</trkpt>
<trkpt lat="53.6733075" lon="17.3637596">
<ele>193</ele>
<time>2017-10-08T16:15:29Z</time>
</trkpt>
<trkpt lat="53.6732079" lon="17.3653492">
<ele>193</ele>
<time>2017-10-08T16:15:35Z</time>
</trkpt>
<trkpt lat="53.6731543" lon="17.3669246">
<ele>193</ele>
<time>2017-10-08T16:15:41Z</time>
</trkpt>
<trkpt lat="53.6731234" lon="17.3677580">
<ele>196</ele>
<time>2017-10-08T16:15:47Z</time>
</trkpt>
<trkpt lat="53.6730758" lon="17.3682437">
<ele>194</ele>
<time>2017-10-08T16:15:53Z</time>
</trkpt>
<trkpt lat="53.6732221" lon="17.3689922">
<ele>194</ele>
<time>2017-10-08T16:15:59Z</time>
</trkpt>
<trkpt lat="53.6733395" lon="17.3698798">
<ele>195</ele>
<time>2017-10-08T16:16:05Z</time>
</trkpt>
<trkpt lat="53.6735433" lon="17.3709191">
<ele>194</ele>
<time>2017-10-08T16:16:11Z</time>
</trkpt>
<trkpt lat="53.6738182" lon="17.3722088">
<ele>195</ele>
<time>2017-10-08T16:16:17Z</time>
</trkpt>
<trkpt lat="53.6740858" lon="17.3736174">
<ele>195</ele>
<time>2017-10-08T16:16:23Z</time>
</trkpt>
<trkpt lat="53.6743866" lon="17.3750735">
<ele>198</ele>
<time>2017-10-08T16:16:29Z</time>
</trkpt>
<trkpt lat="53.6746755" lon="17.3765127">
<ele>197</ele>
<time>2017-10-08T16:16:35Z</time>
</trkpt>
<trkpt lat="53.6749743" lon="17.3779893">
<ele>199</ele>
<time>2017-10-08T16:16:41Z</time>
</trkpt>
<trkpt lat="53.6752575" lon="17.3793897">
<ele>198</ele>
<time>2017-10-08T16:16:47Z</time>
</trkpt>
<trkpt lat="53.6755481" lon="17.3808770">
<ele>200</ele>
<time>2017-10-08T16:16:53Z</time>
</trkpt>
<trkpt lat="53.6758328" lon="17.3822776">
<ele>201</ele>
<time>2017-10-08T16:16:59Z</time>
</trkpt>
<trkpt lat="53.6761272" lon="17.3836755">
<ele>202</ele>
<time>2017-10-08T16:17:05Z</time>
</trkpt>
<trkpt lat="53.6764035" lon="17.3850805">
<ele>201</ele>
<time>2017-10-08T16:17:11Z</time>
</trkpt>
<trkpt lat="53.6766991" lon="17.3864741">
<ele>201</ele>
<time>2017-10-08T16:17:17Z</time>
</trkpt>
<trkpt lat="53.6770080" lon="17.3879821">
<ele>203</ele>
<time>2017-10-08T16:17:23Z</time>
</trkpt>
<trkpt lat="53.6773102" lon="17.3894480">
<ele>203</ele>
<time>2017-10-08T16:17:29Z</time>
</trkpt>
<trkpt lat="53.6776273" lon="17.3909376">
<ele>200</ele>
<time>2017-10-08T16:17:35Z</time>
</trkpt>
<trkpt lat="53.6779575" lon="17.3925471">
<ele>197</ele>
<time>2017-10-08T16:17:41Z</time>
</trkpt>
<trkpt lat="53.6782941" lon="17.3941907">
<ele>194</ele>
<time>2017-10-08T16:17:47Z</time>
</trkpt>
<trkpt lat="53.6786392" lon="17.3958338">
<ele>192</ele>
<time>2017-10-08T16:17:53Z</time>
</trkpt>
<trkpt lat="53.6789791" lon="17.3975058">
<ele>194</ele>
<time>2017-10-08T16:17:59Z</time>
</trkpt>
<trkpt lat="53.6793020" lon="17.3991502">
<ele>195</ele>
<time>2017-10-08T16:18:05Z</time>
</trkpt>
<trkpt lat="53.6796079" lon="17.4007619">
<ele>198</ele>
<time>2017-10-08T16:18:11Z</time>
</trkpt>
<trkpt lat="53.6799274" lon="17.4022938">
<ele>202</ele>
<time>2017-10-08T16:18:17Z</time>
</trkpt>
<trkpt lat="53.6802368" lon="17.4038437">
<ele>202</ele>
<time>2017-10-08T16:18:23Z</time>
</trkpt>
<trkpt lat="53.6805525" lon="17.4054580">
<ele>201</ele>
<time>2017-10-08T16:18:29Z</time>
</trkpt>
<trkpt lat="53.6808865" lon="17.4071335">
<ele>199</ele>
<time>2017-10-08T16:18:35Z</time>
</trkpt>
<trkpt lat="53.6812207" lon="17.4087800">
<ele>198</ele>
<time>2017-10-08T16:18:41Z</time>
</trkpt>
<trkpt lat="53.6815460" lon="17.4103999">
<ele>198</ele>
<time>2017-10-08T16:18:47Z</time>
</trkpt>
<trkpt lat="53.6818893" lon="17.4121295">
<ele>199</ele>
<time>2017-10-08T16:18:53Z</time>
</trkpt>
<trkpt lat="53.6822575" lon="17.4139366">
<ele>203</ele>
<time>2017-10-08T16:18:59Z</time>
</trkpt>
<trkpt lat="53.6826209" lon="17.4156862">
<ele>203</ele>
<time>2017-10-08T16:19:05Z</time>
</trkpt>
<trkpt lat="53.6829804" lon="17.4174678">
<ele>205</ele>
<time>2017-10-08T16:19:11Z</time>
</trkpt>
<trkpt lat="53.6833501" lon="17.4192464">
<ele>204</ele>
<time>2017-10-08T16:19:17Z</time>
</trkpt>
<trkpt lat="53.6837225" lon="17.4210041">
<ele>202</ele>
<time>2017-10-08T16:19:23Z</time>
</trkpt>
<trkpt lat="53.6840438" lon="17.4225836">
<ele>200</ele>
<time>2017-10-08T16:19:29Z</time>
</trkpt>
<trkpt lat="53.6843391" lon="17.4239859">
<ele>199</ele>
<time>2017-10-08T16:19:35Z</time>
</trkpt>
<trkpt lat="53.6845754" lon="17.4253174">
<ele>198</ele>
<time>2017-10-08T16:19:41Z</time>
</trkpt>
<trkpt lat="53.6847191" lon="17.4266081">
<ele>196</ele>
<time>2017-10-08T16:19:47Z</time>
</trkpt>
<trkpt lat="53.6848337" lon="17.4278676">
<ele>198</ele>
<time>2017-10-08T16:19:53Z</time>
</trkpt>
<trkpt lat="53.6849620" lon="17.4290981">
<ele>198</ele>
<time>2017-10-08T16:19:59Z</time>
</trkpt>
<trkpt lat="53.6850940" lon="17.4304767">
<ele>198</ele>
<time>2017-10-08T16:20:05Z</time>
</trkpt>
<trkpt lat="53.6852375" lon="17.4319995">
<ele>196</ele>
<time>2017-10-08T16:20:11Z</time>
</trkpt>
<trkpt lat="53.6854072" lon="17.4336283">
<ele>197</ele>
<time>2017-10-08T16:20:17Z</time>
</trkpt>
<trkpt lat="53.6855722" lon="17.4352963">
<ele>197</ele>
<time>2017-10-08T16:20:23Z</time>
</trkpt>
<trkpt lat="53.6857309" lon="17.4369777">
<ele>196</ele>
<time>2017-10-08T16:20:29Z</time>
</trkpt>
<trkpt lat="53.6858936" lon="17.4387241">
<ele>197</ele>
<time>2017-10-08T16:20:35Z</time>
</trkpt>
<trkpt lat="53.6860545" lon="17.4404502">
<ele>201</ele>
<time>2017-10-08T16:20:41Z</time>
</trkpt>
<trkpt lat="53.6862065" lon="17.4422002">
<ele>204</ele>
<time>2017-10-08T16:20:47Z</time>
</trkpt>
<trkpt lat="53.6863805" lon="17.4439457">
<ele>206</ele>
<time>2017-10-08T16:20:53Z</time>
</trkpt>
<trkpt lat="53.6865466" lon="17.4456942">
<ele>207</ele>
<time>2017-10-08T16:20:59Z</time>
</trkpt>
<trkpt lat="53.6867268" lon="17.4475253">
<ele>208</ele>
<time>2017-10-08T16:21:05Z</time>
</trkpt>
<trkpt lat="53.6869036" lon="17.4492927">
<ele>210</ele>
<time>2017-10-08T16:21:11Z</time>
</trkpt>
<trkpt lat="53.6870970" lon="17.4510900">
<ele>208</ele>
<time>2017-10-08T16:21:17Z</time>
</trkpt>
<trkpt lat="53.6872956" lon="17.4529973">
<ele>206</ele>
<time>2017-10-08T16:21:23Z</time>
</trkpt>
<trkpt lat="53.6874962" lon="17.4549291">
<ele>209</ele>
<time>2017-10-08T16:21:29Z</time>
</trkpt>
<trkpt lat="53.6878678" lon="17.4588387">
<ele>205</ele>
<time>2017-10-08T16:21:41Z</time>
</trkpt>
<trkpt lat="53.6880666" lon="17.4609155">
<ele>206</ele>
<time>2017-10-08T16:21:47Z</time>
</trkpt>
<trkpt lat="53.6882661" lon="17.4629399">
<ele>207</ele>
<time>2017-10-08T16:21:53Z</time>
</trkpt>
<trkpt lat="53.6884667" lon="17.4649349">
<ele>206</ele>
<time>2017-10-08T16:21:59Z</time>
</trkpt>
<trkpt lat="53.6886594" lon="17.4668893">
<ele>206</ele>
<time>2017-10-08T16:22:05Z</time>
</trkpt>
<trkpt lat="53.6887953" lon="17.4686282">
<ele>206</ele>
<time>2017-10-08T16:22:11Z</time>
</trkpt>
<trkpt lat="53.6888381" lon="17.4701917">
<ele>206</ele>
<time>2017-10-08T16:22:17Z</time>
</trkpt>
<trkpt lat="53.6888068" lon="17.4716843">
<ele>206</ele>
<time>2017-10-08T16:22:23Z</time>
</trkpt>
<trkpt lat="53.6887346" lon="17.4731068">
<ele>206</ele>
<time>2017-10-08T16:22:29Z</time>
</trkpt>
<trkpt lat="53.6886043" lon="17.4745260">
<ele>207</ele>
<time>2017-10-08T16:22:35Z</time>
</trkpt>
<trkpt lat="53.6884129" lon="17.4759640">
<ele>208</ele>
<time>2017-10-08T16:22:41Z</time>
</trkpt>
<trkpt lat="53.6881513" lon="17.4774941">
<ele>208</ele>
<time>2017-10-08T16:22:47Z</time>
</trkpt>
<trkpt lat="53.6877712" lon="17.4791234">
<ele>208</ele>
<time>2017-10-08T16:22:53Z</time>
</trkpt>
<trkpt lat="53.6873228" lon="17.4808664">
<ele>208</ele>
<time>2017-10-08T16:22:59Z</time>
</trkpt>
<trkpt lat="53.6868283" lon="17.4826614">
<ele>207</ele>
<time>2017-10-08T16:23:05Z</time>
</trkpt>
<trkpt lat="53.6863502" lon="17.4845375">
<ele>206</ele>
<time>2017-10-08T16:23:11Z</time>
</trkpt>
<trkpt lat="53.6859219" lon="17.4865117">
<ele>206</ele>
<time>2017-10-08T16:23:17Z</time>
</trkpt>
<trkpt lat="53.6855544" lon="17.4885450">
<ele>204</ele>
<time>2017-10-08T16:23:23Z</time>
</trkpt>
<trkpt lat="53.6852492" lon="17.4905759">
<ele>204</ele>
<time>2017-10-08T16:23:29Z</time>
</trkpt>
<trkpt lat="53.6849952" lon="17.4925497">
<ele>202</ele>
<time>2017-10-08T16:23:35Z</time>
</trkpt>
<trkpt lat="53.6848254" lon="17.4945541">
<ele>201</ele>
<time>2017-10-08T16:23:41Z</time>
</trkpt>
<trkpt lat="53.6847023" lon="17.4966236">
<ele>200</ele>
<time>2017-10-08T16:23:47Z</time>
</trkpt>
<trkpt lat="53.6845961" lon="17.4986587">
<ele>201</ele>
<time>2017-10-08T16:23:53Z</time>
</trkpt>
<trkpt lat="53.6844946" lon="17.5006474">
<ele>202</ele>
<time>2017-10-08T16:23:59Z</time>
</trkpt>
<trkpt lat="53.6843932" lon="17.5026202">
<ele>203</ele>
<time>2017-10-08T16:24:05Z</time>
</trkpt>
<trkpt lat="53.6842991" lon="17.5045955">
<ele>203</ele>
<time>2017-10-08T16:24:11Z</time>
</trkpt>
<trkpt lat="53.6842030" lon="17.5065650">
<ele>203</ele>
<time>2017-10-08T16:24:17Z</time>
</trkpt>
<trkpt lat="53.6840999" lon="17.5084912">
<ele>203</ele>
<time>2017-10-08T16:24:23Z</time>
</trkpt>
<trkpt lat="53.6840067" lon="17.5105327">
<ele>203</ele>
<time>2017-10-08T16:24:29Z</time>
</trkpt>
<trkpt lat="53.6839065" lon="17.5126194">
<ele>202</ele>
<time>2017-10-08T16:24:35Z</time>
</trkpt>
<trkpt lat="53.6838027" lon="17.5147212">
<ele>201</ele>
<time>2017-10-08T16:24:41Z</time>
</trkpt>
<trkpt lat="53.6837039" lon="17.5167850">
<ele>200</ele>
<time>2017-10-08T16:24:47Z</time>
</trkpt>
<trkpt lat="53.6835996" lon="17.5188787">
<ele>199</ele>
<time>2017-10-08T16:24:53Z</time>
</trkpt>
<trkpt lat="53.6835005" lon="17.5209852">
<ele>198</ele>
<time>2017-10-08T16:24:59Z</time>
</trkpt>
<trkpt lat="53.6833902" lon="17.5230463">
<ele>196</ele>
<time>2017-10-08T16:25:05Z</time>
</trkpt>
<trkpt lat="53.6832822" lon="17.5251137">
<ele>195</ele>
<time>2017-10-08T16:25:11Z</time>
</trkpt>
<trkpt lat="53.6831683" lon="17.5272020">
<ele>193</ele>
<time>2017-10-08T16:25:17Z</time>
</trkpt>
<trkpt lat="53.6830043" lon="17.5292829">
<ele>192</ele>
<time>2017-10-08T16:25:23Z</time>
</trkpt>
<trkpt lat="53.6828031" lon="17.5313540">
<ele>193</ele>
<time>2017-10-08T16:25:29Z</time>
</trkpt>
<trkpt lat="53.6825598" lon="17.5334268">
<ele>194</ele>
<time>2017-10-08T16:25:35Z</time>
</trkpt>
<trkpt lat="53.6823021" lon="17.5354446">
<ele>195</ele>
<time>2017-10-08T16:25:41Z</time>
</trkpt>
<trkpt lat="53.6820629" lon="17.5373597">
<ele>196</ele>
<time>2017-10-08T16:25:47Z</time>
</trkpt>
<trkpt lat="53.6818272" lon="17.5392692">
<ele>198</ele>
<time>2017-10-08T16:25:53Z</time>
</trkpt>
<trkpt lat="53.6815756" lon="17.5412148">
<ele>198</ele>
<time>2017-10-08T16:25:59Z</time>
</trkpt>
<trkpt lat="53.6813155" lon="17.5431902">
<ele>198</ele>
<time>2017-10-08T16:26:05Z</time>
</trkpt>
<trkpt lat="53.6810652" lon="17.5451937">
<ele>197</ele>
<time>2017-10-08T16:26:11Z</time>
</trkpt>
<trkpt lat="53.6808342" lon="17.5472244">
<ele>196</ele>
<time>2017-10-08T16:26:17Z</time>
</trkpt>
<trkpt lat="53.6805835" lon="17.5492693">
<ele>195</ele>
<time>2017-10-08T16:26:23Z</time>
</trkpt>
<trkpt lat="53.6803640" lon="17.5512516">
<ele>193</ele>
<time>2017-10-08T16:26:29Z</time>
</trkpt>
<trkpt lat="53.6802484" lon="17.5532513">
<ele>191</ele>
<time>2017-10-08T16:26:35Z</time>
</trkpt>
<trkpt lat="53.6802251" lon="17.5552075">
<ele>189</ele>
<time>2017-10-08T16:26:41Z</time>
</trkpt>
<trkpt lat="53.6802935" lon="17.5571677">
<ele>187</ele>
<time>2017-10-08T16:26:47Z</time>
</trkpt>
<trkpt lat="53.6803936" lon="17.5590825">
<ele>186</ele>
<time>2017-10-08T16:26:53Z</time>
</trkpt>
<trkpt lat="53.6805016" lon="17.5609572">
<ele>185</ele>
<time>2017-10-08T16:26:59Z</time>
</trkpt>
<trkpt lat="53.6805936" lon="17.5627600">
<ele>186</ele>
<time>2017-10-08T16:27:05Z</time>
</trkpt>
<trkpt lat="53.6806442" lon="17.5645534">
<ele>188</ele>
<time>2017-10-08T16:27:11Z</time>
</trkpt>
<trkpt lat="53.6806309" lon="17.5664329">
<ele>190</ele>
<time>2017-10-08T16:27:17Z</time>
</trkpt>
<trkpt lat="53.6805251" lon="17.5683404">
<ele>190</ele>
<time>2017-10-08T16:27:23Z</time>
</trkpt>
<trkpt lat="53.6802897" lon="17.5702102">
<ele>191</ele>
<time>2017-10-08T16:27:29Z</time>
</trkpt>
<trkpt lat="53.6799851" lon="17.5720806">
<ele>192</ele>
<time>2017-10-08T16:27:35Z</time>
</trkpt>
<trkpt lat="53.6796915" lon="17.5739317">
<ele>193</ele>
<time>2017-10-08T16:27:41Z</time>
</trkpt>
<trkpt lat="53.6794128" lon="17.5757892">
<ele>194</ele>
<time>2017-10-08T16:27:47Z</time>
</trkpt>
<trkpt lat="53.6791579" lon="17.5776431">
<ele>195</ele>
<time>2017-10-08T16:27:53Z</time>
</trkpt>
<trkpt lat="53.6789598" lon="17.5795127">
<ele>195</ele>
<time>2017-10-08T16:27:59Z</time>
</trkpt>
<trkpt lat="53.6788287" lon="17.5813929">
<ele>194</ele>
<time>2017-10-08T16:28:05Z</time>
</trkpt>
<trkpt lat="53.6787833" lon="17.5832837">
<ele>195</ele>
<time>2017-10-08T16:28:11Z</time>
</trkpt>
<trkpt lat="53.6788281" lon="17.5851827">
<ele>196</ele>
<time>2017-10-08T16:28:17Z</time>
</trkpt>
<trkpt lat="53.6789483" lon="17.5870403">
<ele>197</ele>
<time>2017-10-08T16:28:23Z</time>
</trkpt>
<trkpt lat="53.6791353" lon="17.5888703">
<ele>198</ele>
<time>2017-10-08T16:28:29Z</time>
</trkpt>
<trkpt lat="53.6794040" lon="17.5906682">
<ele>199</ele>
<time>2017-10-08T16:28:35Z</time>
</trkpt>
<trkpt lat="53.6797359" lon="17.5924399">
<ele>200</ele>
<time>2017-10-08T16:28:41Z</time>
</trkpt>
<trkpt lat="53.6801354" lon="17.5941916">
<ele>201</ele>
<time>2017-10-08T16:28:47Z</time>
</trkpt>
<trkpt lat="53.6805945" lon="17.5958845">
<ele>201</ele>
<time>2017-10-08T16:28:53Z</time>
</trkpt>
<trkpt lat="53.6811098" lon="17.5974752">
<ele>202</ele>
<time>2017-10-08T16:28:59Z</time>
</trkpt>
<trkpt lat="53.6816703" lon="17.5990269">
<ele>203</ele>
<time>2017-10-08T16:29:05Z</time>
</trkpt>
<trkpt lat="53.6822376" lon="17.6006018">
<ele>203</ele>
<time>2017-10-08T16:29:11Z</time>
</trkpt>
<trkpt lat="53.6827932" lon="17.6021873">
<ele>204</ele>
<time>2017-10-08T16:29:17Z</time>
</trkpt>
<trkpt lat="53.6833445" lon="17.6037621">
<ele>205</ele>
<time>2017-10-08T16:29:23Z</time>
</trkpt>
<trkpt lat="53.6838999" lon="17.6053451">
<ele>206</ele>
<time>2017-10-08T16:29:29Z</time>
</trkpt>
<trkpt lat="53.6844717" lon="17.6069573">
<ele>207</ele>
<time>2017-10-08T16:29:35Z</time>
</trkpt>
<trkpt lat="53.6850637" lon="17.6085839">
<ele>207</ele>
<time>2017-10-08T16:29:41Z</time>
</trkpt>
<trkpt lat="53.6856599" lon="17.6102285">
<ele>207</ele>
<time>2017-10-08T16:29:47Z</time>
</trkpt>
<trkpt lat="53.6862276" lon="17.6117812">
<ele>207</ele>
<time>2017-10-08T16:29:53Z</time>
</trkpt>
<trkpt lat="53.6867591" lon="17.6133198">
<ele>206</ele>
<time>2017-10-08T16:29:59Z</time>
</trkpt>
<trkpt lat="53.6872622" lon="17.6147954">
<ele>206</ele>
<time>2017-10-08T16:30:05Z</time>
</trkpt>
<trkpt lat="53.6877857" lon="17.6161084">
<ele>205</ele>
<time>2017-10-08T16:30:11Z</time>
</trkpt>
<trkpt lat="53.6881530" lon="17.6173486">
<ele>206</ele>
<time>2017-10-08T16:30:17Z</time>
</trkpt>
<trkpt lat="53.6881282" lon="17.6186497">
<ele>204</ele>
<time>2017-10-08T16:30:23Z</time>
</trkpt>
<trkpt lat="53.6883337" lon="17.6196275">
<ele>202</ele>
<time>2017-10-08T16:30:29Z</time>
</trkpt>
<trkpt lat="53.6888538" lon="17.6199453">
<ele>202</ele>
<time>2017-10-08T16:30:35Z</time>
</trkpt>
<trkpt lat="53.6890949" lon="17.6201353">
<ele>201</ele>
<time>2017-10-08T16:30:41Z</time>
</trkpt>
<trkpt lat="53.6891000" lon="17.6201605">
<ele>201</ele>
<time>2017-10-08T16:30:47Z</time>
</trkpt>
<trkpt lat="53.6891000" lon="17.6201605">
<ele>201</ele>
<time>2017-10-08T16:30:53Z</time>
</trkpt>
<trkpt lat="53.6890692" lon="17.6204981">
<ele>201</ele>
<time>2017-10-08T16:30:59Z</time>
</trkpt>
<trkpt lat="53.6888633" lon="17.6213102">
<ele>200</ele>
<time>2017-10-08T16:31:05Z</time>
</trkpt>
<trkpt lat="53.6886167" lon="17.6224885">
<ele>199</ele>
<time>2017-10-08T16:31:11Z</time>
</trkpt>
<trkpt lat="53.6882803" lon="17.6238924">
<ele>198</ele>
<time>2017-10-08T16:31:17Z</time>
</trkpt>
<trkpt lat="53.6879487" lon="17.6253013">
<ele>197</ele>
<time>2017-10-08T16:31:23Z</time>
</trkpt>
<trkpt lat="53.6875823" lon="17.6266102">
<ele>196</ele>
<time>2017-10-08T16:31:29Z</time>
</trkpt>
<trkpt lat="53.6872129" lon="17.6277744">
<ele>195</ele>
<time>2017-10-08T16:31:35Z</time>
</trkpt>
<trkpt lat="53.6868005" lon="17.6291114">
<ele>193</ele>
<time>2017-10-08T16:31:41Z</time>
</trkpt>
<trkpt lat="53.6862725" lon="17.6304197">
<ele>192</ele>
<time>2017-10-08T16:31:47Z</time>
</trkpt>
<trkpt lat="53.6856191" lon="17.6316741">
<ele>191</ele>
<time>2017-10-08T16:31:53Z</time>
</trkpt>
<trkpt lat="53.6848448" lon="17.6327542">
<ele>189</ele>
<time>2017-10-08T16:31:59Z</time>
</trkpt>
<trkpt lat="53.6840798" lon="17.6338573">
<ele>188</ele>
<time>2017-10-08T16:32:05Z</time>
</trkpt>
<trkpt lat="53.6835021" lon="17.6352561">
<ele>187</ele>
<time>2017-10-08T16:32:11Z</time>
</trkpt>
<trkpt lat="53.6829355" lon="17.6366241">
<ele>186</ele>
<time>2017-10-08T16:32:17Z</time>
</trkpt>
<trkpt lat="53.6823486" lon="17.6380325">
<ele>183</ele>
<time>2017-10-08T16:32:23Z</time>
</trkpt>
<trkpt lat="53.6817533" lon="17.6394338">
<ele>183</ele>
<time>2017-10-08T16:32:29Z</time>
</trkpt>
<trkpt lat="53.6811812" lon="17.6406771">
<ele>185</ele>
<time>2017-10-08T16:32:35Z</time>
</trkpt>
<trkpt lat="53.6804306" lon="17.6415776">
<ele>184</ele>
<time>2017-10-08T16:32:41Z</time>
</trkpt>
<trkpt lat="53.6796093" lon="17.6424459">
<ele>183</ele>
<time>2017-10-08T16:32:47Z</time>
</trkpt>
<trkpt lat="53.6787816" lon="17.6433293">
<ele>183</ele>
<time>2017-10-08T16:32:53Z</time>
</trkpt>
<trkpt lat="53.6779519" lon="17.6442061">
<ele>187</ele>
<time>2017-10-08T16:32:59Z</time>
</trkpt>
<trkpt lat="53.6771509" lon="17.6450626">
<ele>190</ele>
<time>2017-10-08T16:33:05Z</time>
</trkpt>
<trkpt lat="53.6764655" lon="17.6461876">
<ele>191</ele>
<time>2017-10-08T16:33:11Z</time>
</trkpt>
<trkpt lat="53.6757910" lon="17.6474559">
<ele>190</ele>
<time>2017-10-08T16:33:17Z</time>
</trkpt>
<trkpt lat="53.6750967" lon="17.6487654">
<ele>188</ele>
<time>2017-10-08T16:33:23Z</time>
</trkpt>
<trkpt lat="53.6743931" lon="17.6501195">
<ele>186</ele>
<time>2017-10-08T16:33:29Z</time>
</trkpt>
<trkpt lat="53.6736588" lon="17.6515142">
<ele>185</ele>
<time>2017-10-08T16:33:35Z</time>
</trkpt>
<trkpt lat="53.6729200" lon="17.6529108">
<ele>182</ele>
<time>2017-10-08T16:33:41Z</time>
</trkpt>
<trkpt lat="53.6721783" lon="17.6543215">
<ele>180</ele>
<time>2017-10-08T16:33:47Z</time>
</trkpt>
<trkpt lat="53.6714295" lon="17.6557265">
<ele>179</ele>
<time>2017-10-08T16:33:53Z</time>
</trkpt>
<trkpt lat="53.6706869" lon="17.6571361">
<ele>178</ele>
<time>2017-10-08T16:33:59Z</time>
</trkpt>
<trkpt lat="53.6699333" lon="17.6585845">
<ele>178</ele>
<time>2017-10-08T16:34:05Z</time>
</trkpt>
<trkpt lat="53.6691642" lon="17.6600511">
<ele>177</ele>
<time>2017-10-08T16:34:11Z</time>
</trkpt>
<trkpt lat="53.6683899" lon="17.6615056">
<ele>177</ele>
<time>2017-10-08T16:34:17Z</time>
</trkpt>
<trkpt lat="53.6676039" lon="17.6629932">
<ele>177</ele>
<time>2017-10-08T16:34:23Z</time>
</trkpt>
<trkpt lat="53.6668119" lon="17.6645010">
<ele>178</ele>
<time>2017-10-08T16:34:29Z</time>
</trkpt>
<trkpt lat="53.6660054" lon="17.6660278">
<ele>179</ele>
<time>2017-10-08T16:34:35Z</time>
</trkpt>
<trkpt lat="53.6652146" lon="17.6675248">
<ele>178</ele>
<time>2017-10-08T16:34:41Z</time>
</trkpt>
<trkpt lat="53.6644367" lon="17.6689929">
<ele>178</ele>
<time>2017-10-08T16:34:47Z</time>
</trkpt>
<trkpt lat="53.6636549" lon="17.6704869">
<ele>178</ele>
<time>2017-10-08T16:34:53Z</time>
</trkpt>
<trkpt lat="53.6630443" lon="17.6721426">
<ele>179</ele>
<time>2017-10-08T16:34:59Z</time>
</trkpt>
<trkpt lat="53.6625760" lon="17.6739629">
<ele>181</ele>
<time>2017-10-08T16:35:05Z</time>
</trkpt>
<trkpt lat="53.6621204" lon="17.6757542">
<ele>180</ele>
<time>2017-10-08T16:35:11Z</time>
</trkpt>
<trkpt lat="53.6616382" lon="17.6775996">
<ele>178</ele>
<time>2017-10-08T16:35:17Z</time>
</trkpt>
<trkpt lat="53.6611484" lon="17.6794755">
<ele>176</ele>
<time>2017-10-08T16:35:23Z</time>
</trkpt>
<trkpt lat="53.6606874" lon="17.6812725">
<ele>175</ele>
<time>2017-10-08T16:35:29Z</time>
</trkpt>
<trkpt lat="53.6600758" lon="17.6828471">
<ele>173</ele>
<time>2017-10-08T16:35:35Z</time>
</trkpt>
<trkpt lat="53.6592588" lon="17.6842048">
<ele>170</ele>
<time>2017-10-08T16:35:41Z</time>
</trkpt>
<trkpt lat="53.6584878" lon="17.6855428">
<ele>169</ele>
<time>2017-10-08T16:35:47Z</time>
</trkpt>
<trkpt lat="53.6577275" lon="17.6868644">
<ele>170</ele>
<time>2017-10-08T16:35:53Z</time>
</trkpt>
<trkpt lat="53.6569677" lon="17.6881819">
<ele>168</ele>
<time>2017-10-08T16:35:59Z</time>
</trkpt>
<trkpt lat="53.6562317" lon="17.6894334">
<ele>166</ele>
<time>2017-10-08T16:36:05Z</time>
</trkpt>
<trkpt lat="53.6555146" lon="17.6906644">
<ele>165</ele>
<time>2017-10-08T16:36:11Z</time>
</trkpt>
<trkpt lat="53.6548115" lon="17.6919192">
<ele>165</ele>
<time>2017-10-08T16:36:17Z</time>
</trkpt>
<trkpt lat="53.6541255" lon="17.6930845">
<ele>165</ele>
<time>2017-10-08T16:36:23Z</time>
</trkpt>
<trkpt lat="53.6534616" lon="17.6941756">
<ele>164</ele>
<time>2017-10-08T16:36:29Z</time>
</trkpt>
<trkpt lat="53.6528331" lon="17.6953365">
<ele>163</ele>
<time>2017-10-08T16:36:35Z</time>
</trkpt>
<trkpt lat="53.6521811" lon="17.6964464">
<ele>162</ele>
<time>2017-10-08T16:36:41Z</time>
</trkpt>
<trkpt lat="53.6515472" lon="17.6975442">
<ele>163</ele>
<time>2017-10-08T16:36:47Z</time>
</trkpt>
<trkpt lat="53.6509632" lon="17.6986468">
<ele>163</ele>
<time>2017-10-08T16:36:53Z</time>
</trkpt>
<trkpt lat="53.6504409" lon="17.6998302">
<ele>162</ele>
<time>2017-10-08T16:36:59Z</time>
</trkpt>
<trkpt lat="53.6499153" lon="17.7009842">
<ele>161</ele>
<time>2017-10-08T16:37:05Z</time>
</trkpt>
<trkpt lat="53.6494464" lon="17.7022051">
<ele>160</ele>
<time>2017-10-08T16:37:11Z</time>
</trkpt>
<trkpt lat="53.6490077" lon="17.7034591">
<ele>158</ele>
<time>2017-10-08T16:37:17Z</time>
</trkpt>
<trkpt lat="53.6485049" lon="17.7046595">
<ele>158</ele>
<time>2017-10-08T16:37:23Z</time>
</trkpt>
<trkpt lat="53.6479867" lon="17.7058118">
<ele>159</ele>
<time>2017-10-08T16:37:29Z</time>
</trkpt>
<trkpt lat="53.6475147" lon="17.7069250">
<ele>160</ele>
<time>2017-10-08T16:37:35Z</time>
</trkpt>
<trkpt lat="53.6469612" lon="17.7079847">
<ele>159</ele>
<time>2017-10-08T16:37:41Z</time>
</trkpt>
<trkpt lat="53.6463761" lon="17.7090464">
<ele>156</ele>
<time>2017-10-08T16:37:47Z</time>
</trkpt>
<trkpt lat="53.6458722" lon="17.7102111">
<ele>156</ele>
<time>2017-10-08T16:37:53Z</time>
</trkpt>
<trkpt lat="53.6453948" lon="17.7114417">
<ele>157</ele>
<time>2017-10-08T16:37:59Z</time>
</trkpt>
<trkpt lat="53.6448713" lon="17.7127532">
<ele>156</ele>
<time>2017-10-08T16:38:05Z</time>
</trkpt>
<trkpt lat="53.6442626" lon="17.7140203">
<ele>158</ele>
<time>2017-10-08T16:38:11Z</time>
</trkpt>
<trkpt lat="53.6435897" lon="17.7153138">
<ele>159</ele>
<time>2017-10-08T16:38:17Z</time>
</trkpt>
<trkpt lat="53.6428955" lon="17.7166184">
<ele>159</ele>
<time>2017-10-08T16:38:23Z</time>
</trkpt>
<trkpt lat="53.6421978" lon="17.7179893">
<ele>158</ele>
<time>2017-10-08T16:38:29Z</time>
</trkpt>
<trkpt lat="53.6415589" lon="17.7195185">
<ele>154</ele>
<time>2017-10-08T16:38:35Z</time>
</trkpt>
<trkpt lat="53.6409986" lon="17.7212745">
<ele>150</ele>
<time>2017-10-08T16:38:41Z</time>
</trkpt>
<trkpt lat="53.6404865" lon="17.7230833">
<ele>149</ele>
<time>2017-10-08T16:38:47Z</time>
</trkpt>
<trkpt lat="53.6401926" lon="17.7250038">
<ele>149</ele>
<time>2017-10-08T16:38:53Z</time>
</trkpt>
<trkpt lat="53.6398666" lon="17.7268974">
<ele>151</ele>
<time>2017-10-08T16:38:59Z</time>
</trkpt>
<trkpt lat="53.6392675" lon="17.7285435">
<ele>154</ele>
<time>2017-10-08T16:39:05Z</time>
</trkpt>
<trkpt lat="53.6386506" lon="17.7301192">
<ele>156</ele>
<time>2017-10-08T16:39:11Z</time>
</trkpt>
<trkpt lat="53.6380436" lon="17.7317266">
<ele>156</ele>
<time>2017-10-08T16:39:17Z</time>
</trkpt>
<trkpt lat="53.6374328" lon="17.7333498">
<ele>157</ele>
<time>2017-10-08T16:39:23Z</time>
</trkpt>
<trkpt lat="53.6368444" lon="17.7349165">
<ele>158</ele>
<time>2017-10-08T16:39:29Z</time>
</trkpt>
<trkpt lat="53.6362743" lon="17.7364724">
<ele>159</ele>
<time>2017-10-08T16:39:35Z</time>
</trkpt>
<trkpt lat="53.6357018" lon="17.7380173">
<ele>161</ele>
<time>2017-10-08T16:39:41Z</time>
</trkpt>
<trkpt lat="53.6351077" lon="17.7395940">
<ele>162</ele>
<time>2017-10-08T16:39:47Z</time>
</trkpt>
<trkpt lat="53.6344879" lon="17.7411617">
<ele>162</ele>
<time>2017-10-08T16:39:53Z</time>
</trkpt>
<trkpt lat="53.6338346" lon="17.7427536">
<ele>160</ele>
<time>2017-10-08T16:39:59Z</time>
</trkpt>
<trkpt lat="53.6332084" lon="17.7442973">
<ele>160</ele>
<time>2017-10-08T16:40:05Z</time>
</trkpt>
<trkpt lat="53.6325895" lon="17.7458486">
<ele>160</ele>
<time>2017-10-08T16:40:11Z</time>
</trkpt>
<trkpt lat="53.6319794" lon="17.7473683">
<ele>159</ele>
<time>2017-10-08T16:40:17Z</time>
</trkpt>
<trkpt lat="53.6313496" lon="17.7489142">
<ele>159</ele>
<time>2017-10-08T16:40:23Z</time>
</trkpt>
<trkpt lat="53.6307305" lon="17.7504538">
<ele>159</ele>
<time>2017-10-08T16:40:29Z</time>
</trkpt>
<trkpt lat="53.6301271" lon="17.7519493">
<ele>160</ele>
<time>2017-10-08T16:40:35Z</time>
</trkpt>
<trkpt lat="53.6295097" lon="17.7534753">
<ele>161</ele>
<time>2017-10-08T16:40:41Z</time>
</trkpt>
<trkpt lat="53.6288917" lon="17.7550297">
<ele>161</ele>
<time>2017-10-08T16:40:47Z</time>
</trkpt>
<trkpt lat="53.6283113" lon="17.7564821">
<ele>161</ele>
<time>2017-10-08T16:40:53Z</time>
</trkpt>
<trkpt lat="53.6277655" lon="17.7577775">
<ele>160</ele>
<time>2017-10-08T16:40:59Z</time>
</trkpt>
<trkpt lat="53.6272764" lon="17.7589965">
<ele>160</ele>
<time>2017-10-08T16:41:05Z</time>
</trkpt>
<trkpt lat="53.6268197" lon="17.7601744">
<ele>160</ele>
<time>2017-10-08T16:41:11Z</time>
</trkpt>
<trkpt lat="53.6263450" lon="17.7614046">
<ele>160</ele>
<time>2017-10-08T16:41:17Z</time>
</trkpt>
<trkpt lat="53.6258283" lon="17.7627740">
<ele>158</ele>
<time>2017-10-08T16:41:23Z</time>
</trkpt>
<trkpt lat="53.6252786" lon="17.7642338">
<ele>155</ele>
<time>2017-10-08T16:41:29Z</time>
</trkpt>
<trkpt lat="53.6247146" lon="17.7657314">
<ele>159</ele>
<time>2017-10-08T16:41:35Z</time>
</trkpt>
<trkpt lat="53.6239626" lon="17.7667439">
<ele>162</ele>
<time>2017-10-08T16:41:41Z</time>
</trkpt>
<trkpt lat="53.6230932" lon="17.7673214">
<ele>161</ele>
<time>2017-10-08T16:41:47Z</time>
</trkpt>
<trkpt lat="53.6221757" lon="17.7679215">
<ele>159</ele>
<time>2017-10-08T16:41:53Z</time>
</trkpt>
<trkpt lat="53.6212474" lon="17.7684968">
<ele>158</ele>
<time>2017-10-08T16:41:59Z</time>
</trkpt>
<trkpt lat="53.6203255" lon="17.7690676">
<ele>157</ele>
<time>2017-10-08T16:42:05Z</time>
</trkpt>
<trkpt lat="53.6194971" lon="17.7695903">
<ele>158</ele>
<time>2017-10-08T16:42:11Z</time>
</trkpt>
<trkpt lat="53.6188117" lon="17.7700303">
<ele>159</ele>
<time>2017-10-08T16:42:17Z</time>
</trkpt>
<trkpt lat="53.6181798" lon="17.7704436">
<ele>161</ele>
<time>2017-10-08T16:42:23Z</time>
</trkpt>
<trkpt lat="53.6175341" lon="17.7708669">
<ele>162</ele>
<time>2017-10-08T16:42:29Z</time>
</trkpt>
<trkpt lat="53.6161351" lon="17.7717763">
<ele>162</ele>
<time>2017-10-08T16:42:41Z</time>
</trkpt>
<trkpt lat="53.6154269" lon="17.7722332">
<ele>162</ele>
<time>2017-10-08T16:42:47Z</time>
</trkpt>
<trkpt lat="53.6147349" lon="17.7727666">
<ele>161</ele>
<time>2017-10-08T16:42:53Z</time>
</trkpt>
<trkpt lat="53.6142279" lon="17.7737175">
<ele>162</ele>
<time>2017-10-08T16:42:59Z</time>
</trkpt>
<trkpt lat="53.6137995" lon="17.7747602">
<ele>163</ele>
<time>2017-10-08T16:43:05Z</time>
</trkpt>
<trkpt lat="53.6133466" lon="17.7757935">
<ele>165</ele>
<time>2017-10-08T16:43:11Z</time>
</trkpt>
<trkpt lat="53.6129067" lon="17.7768234">
<ele>167</ele>
<time>2017-10-08T16:43:17Z</time>
</trkpt>
<trkpt lat="53.6124787" lon="17.7779106">
<ele>170</ele>
<time>2017-10-08T16:43:23Z</time>
</trkpt>
<trkpt lat="53.6120617" lon="17.7791620">
<ele>170</ele>
<time>2017-10-08T16:43:29Z</time>
</trkpt>
<trkpt lat="53.6115851" lon="17.7805776">
<ele>168</ele>
<time>2017-10-08T16:43:35Z</time>
</trkpt>
<trkpt lat="53.6110990" lon="17.7820831">
<ele>169</ele>
<time>2017-10-08T16:43:41Z</time>
</trkpt>
<trkpt lat="53.6105978" lon="17.7836244">
<ele>169</ele>
<time>2017-10-08T16:43:47Z</time>
</trkpt>
<trkpt lat="53.6100780" lon="17.7851748">
<ele>170</ele>
<time>2017-10-08T16:43:53Z</time>
</trkpt>
<trkpt lat="53.6095657" lon="17.7867574">
<ele>170</ele>
<time>2017-10-08T16:43:59Z</time>
</trkpt>
<trkpt lat="53.6090443" lon="17.7883633">
<ele>169</ele>
<time>2017-10-08T16:44:05Z</time>
</trkpt>
<trkpt lat="53.6085033" lon="17.7900143">
<ele>169</ele>
<time>2017-10-08T16:44:11Z</time>
</trkpt>
<trkpt lat="53.6079621" lon="17.7916285">
<ele>171</ele>
<time>2017-10-08T16:44:17Z</time>
</trkpt>
<trkpt lat="53.6074397" lon="17.7932180">
<ele>172</ele>
<time>2017-10-08T16:44:23Z</time>
</trkpt>
<trkpt lat="53.6069209" lon="17.7948119">
<ele>174</ele>
<time>2017-10-08T16:44:29Z</time>
</trkpt>
<trkpt lat="53.6063969" lon="17.7964266">
<ele>175</ele>
<time>2017-10-08T16:44:35Z</time>
</trkpt>
<trkpt lat="53.6059776" lon="17.7981129">
<ele>175</ele>
<time>2017-10-08T16:44:41Z</time>
</trkpt>
<trkpt lat="53.6056222" lon="17.7998427">
<ele>175</ele>
<time>2017-10-08T16:44:47Z</time>
</trkpt>
<trkpt lat="53.6052721" lon="17.8015436">
<ele>175</ele>
<time>2017-10-08T16:44:53Z</time>
</trkpt>
<trkpt lat="53.6049398" lon="17.8031795">
<ele>176</ele>
<time>2017-10-08T16:44:59Z</time>
</trkpt>
<trkpt lat="53.6046220" lon="17.8047283">
<ele>175</ele>
<time>2017-10-08T16:45:05Z</time>
</trkpt>
<trkpt lat="53.6042947" lon="17.8062496">
<ele>173</ele>
<time>2017-10-08T16:45:11Z</time>
</trkpt>
<trkpt lat="53.6037445" lon="17.8074834">
<ele>171</ele>
<time>2017-10-08T16:45:17Z</time>
</trkpt>
<trkpt lat="53.6029802" lon="17.8084956">
<ele>172</ele>
<time>2017-10-08T16:45:23Z</time>
</trkpt>
<trkpt lat="53.6022052" lon="17.8095601">
<ele>171</ele>
<time>2017-10-08T16:45:29Z</time>
</trkpt>
<trkpt lat="53.6014654" lon="17.8105793">
<ele>171</ele>
<time>2017-10-08T16:45:35Z</time>
</trkpt>
<trkpt lat="53.6008016" lon="17.8114611">
<ele>170</ele>
<time>2017-10-08T16:45:41Z</time>
</trkpt>
<trkpt lat="53.6001691" lon="17.8123158">
<ele>169</ele>
<time>2017-10-08T16:45:47Z</time>
</trkpt>
<trkpt lat="53.5995629" lon="17.8131230">
<ele>171</ele>
<time>2017-10-08T16:45:53Z</time>
</trkpt>
<trkpt lat="53.5989989" lon="17.8138891">
<ele>173</ele>
<time>2017-10-08T16:45:59Z</time>
</trkpt>
<trkpt lat="53.5984435" lon="17.8146339">
<ele>173</ele>
<time>2017-10-08T16:46:05Z</time>
</trkpt>
<trkpt lat="53.5978734" lon="17.8153762">
<ele>171</ele>
<time>2017-10-08T16:46:11Z</time>
</trkpt>
<trkpt lat="53.5972146" lon="17.8159660">
<ele>171</ele>
<time>2017-10-08T16:46:17Z</time>
</trkpt>
<trkpt lat="53.5965497" lon="17.8165116">
<ele>169</ele>
<time>2017-10-08T16:46:23Z</time>
</trkpt>
<trkpt lat="53.5959254" lon="17.8170059">
<ele>169</ele>
<time>2017-10-08T16:46:29Z</time>
</trkpt>
<trkpt lat="53.5953558" lon="17.8176324">
<ele>168</ele>
<time>2017-10-08T16:46:35Z</time>
</trkpt>
<trkpt lat="53.5949587" lon="17.8185361">
<ele>168</ele>
<time>2017-10-08T16:46:41Z</time>
</trkpt>
<trkpt lat="53.5951053" lon="17.8195892">
<ele>167</ele>
<time>2017-10-08T16:46:47Z</time>
</trkpt>
<trkpt lat="53.5953588" lon="17.8206635">
<ele>167</ele>
<time>2017-10-08T16:46:53Z</time>
</trkpt>
<trkpt lat="53.5955165" lon="17.8218008">
<ele>167</ele>
<time>2017-10-08T16:46:59Z</time>
</trkpt>
<trkpt lat="53.5955780" lon="17.8230826">
<ele>167</ele>
<time>2017-10-08T16:47:05Z</time>
</trkpt>
<trkpt lat="53.5956278" lon="17.8245593">
<ele>167</ele>
<time>2017-10-08T16:47:11Z</time>
</trkpt>
<trkpt lat="53.5956813" lon="17.8261844">
<ele>165</ele>
<time>2017-10-08T16:47:17Z</time>
</trkpt>
<trkpt lat="53.5957392" lon="17.8279393">
<ele>162</ele>
<time>2017-10-08T16:47:23Z</time>
</trkpt>
<trkpt lat="53.5957935" lon="17.8297065">
<ele>160</ele>
<time>2017-10-08T16:47:29Z</time>
</trkpt>
<trkpt lat="53.5958592" lon="17.8315064">
<ele>157</ele>
<time>2017-10-08T16:47:35Z</time>
</trkpt>
<trkpt lat="53.5959132" lon="17.8333206">
<ele>155</ele>
<time>2017-10-08T16:47:41Z</time>
</trkpt>
<trkpt lat="53.5959680" lon="17.8350918">
<ele>155</ele>
<time>2017-10-08T16:47:47Z</time>
</trkpt>
<trkpt lat="53.5960310" lon="17.8367863">
<ele>155</ele>
<time>2017-10-08T16:47:53Z</time>
</trkpt>
<trkpt lat="53.5960712" lon="17.8384550">
<ele>153</ele>
<time>2017-10-08T16:47:59Z</time>
</trkpt>
<trkpt lat="53.5961058" lon="17.8401472">
<ele>150</ele>
<time>2017-10-08T16:48:05Z</time>
</trkpt>
<trkpt lat="53.5961192" lon="17.8418106">
<ele>149</ele>
<time>2017-10-08T16:48:11Z</time>
</trkpt>
<trkpt lat="53.5961293" lon="17.8433725">
<ele>149</ele>
<time>2017-10-08T16:48:17Z</time>
</trkpt>
<trkpt lat="53.5961503" lon="17.8449178">
<ele>147</ele>
<time>2017-10-08T16:48:23Z</time>
</trkpt>
<trkpt lat="53.5961788" lon="17.8463850">
<ele>147</ele>
<time>2017-10-08T16:48:29Z</time>
</trkpt>
<trkpt lat="53.5961375" lon="17.8477805">
<ele>146</ele>
<time>2017-10-08T16:48:35Z</time>
</trkpt>
<trkpt lat="53.5957563" lon="17.8490137">
<ele>145</ele>
<time>2017-10-08T16:48:41Z</time>
</trkpt>
<trkpt lat="53.5953262" lon="17.8502187">
<ele>144</ele>
<time>2017-10-08T16:48:47Z</time>
</trkpt>
<trkpt lat="53.5949098" lon="17.8514475">
<ele>143</ele>
<time>2017-10-08T16:48:53Z</time>
</trkpt>
<trkpt lat="53.5945071" lon="17.8525994">
<ele>142</ele>
<time>2017-10-08T16:48:59Z</time>
</trkpt>
<trkpt lat="53.5941329" lon="17.8536589">
<ele>140</ele>
<time>2017-10-08T16:49:05Z</time>
</trkpt>
<trkpt lat="53.5937965" lon="17.8546760">
<ele>140</ele>
<time>2017-10-08T16:49:11Z</time>
</trkpt>
<trkpt lat="53.5933617" lon="17.8555968">
<ele>137</ele>
<time>2017-10-08T16:49:17Z</time>
</trkpt>
<trkpt lat="53.5930604" lon="17.8565393">
<ele>136</ele>
<time>2017-10-08T16:49:23Z</time>
</trkpt>
<trkpt lat="53.5930635" lon="17.8574528">
<ele>137</ele>
<time>2017-10-08T16:49:29Z</time>
</trkpt>
<trkpt lat="53.5931436" lon="17.8583404">
<ele>137</ele>
<time>2017-10-08T16:49:35Z</time>
</trkpt>
<trkpt lat="53.5931694" lon="17.8592928">
<ele>137</ele>
<time>2017-10-08T16:49:41Z</time>
</trkpt>
<trkpt lat="53.5931735" lon="17.8602969">
<ele>138</ele>
<time>2017-10-08T16:49:47Z</time>
</trkpt>
<trkpt lat="53.5931807" lon="17.8613478">
<ele>140</ele>
<time>2017-10-08T16:49:53Z</time>
</trkpt>
<trkpt lat="53.5931641" lon="17.8624606">
<ele>140</ele>
<time>2017-10-08T16:49:59Z</time>
</trkpt>
<trkpt lat="53.5931703" lon="17.8635150">
<ele>139</ele>
<time>2017-10-08T16:50:05Z</time>
</trkpt>
<trkpt lat="53.5931520" lon="17.8645107">
<ele>139</ele>
<time>2017-10-08T16:50:11Z</time>
</trkpt>
<trkpt lat="53.5930124" lon="17.8653606">
<ele>140</ele>
<time>2017-10-08T16:50:17Z</time>
</trkpt>
<trkpt lat="53.5926971" lon="17.8660174">
<ele>142</ele>
<time>2017-10-08T16:50:23Z</time>
</trkpt>
<trkpt lat="53.5922169" lon="17.8663479">
<ele>141</ele>
<time>2017-10-08T16:50:29Z</time>
</trkpt>
<trkpt lat="53.5917399" lon="17.8659478">
<ele>141</ele>
<time>2017-10-08T16:50:35Z</time>
</trkpt>
<trkpt lat="53.5912640" lon="17.8654907">
<ele>139</ele>
<time>2017-10-08T16:50:41Z</time>
</trkpt>
<trkpt lat="53.5909287" lon="17.8650831">
<ele>137</ele>
<time>2017-10-08T16:50:47Z</time>
</trkpt>
<trkpt lat="53.5907107" lon="17.8649135">
<ele>137</ele>
<time>2017-10-08T16:50:53Z</time>
</trkpt>
<trkpt lat="53.5904820" lon="17.8653223">
<ele>136</ele>
<time>2017-10-08T16:50:59Z</time>
</trkpt>
<trkpt lat="53.5901151" lon="17.8658935">
<ele>135</ele>
<time>2017-10-08T16:51:05Z</time>
</trkpt>
<trkpt lat="53.5896593" lon="17.8665394">
<ele>136</ele>
<time>2017-10-08T16:51:11Z</time>
</trkpt>
<trkpt lat="53.5891741" lon="17.8672875">
<ele>138</ele>
<time>2017-10-08T16:51:17Z</time>
</trkpt>
<trkpt lat="53.5887335" lon="17.8680979">
<ele>138</ele>
<time>2017-10-08T16:51:23Z</time>
</trkpt>
<trkpt lat="53.5882635" lon="17.8689630">
<ele>138</ele>
<time>2017-10-08T16:51:29Z</time>
</trkpt>
<trkpt lat="53.5877773" lon="17.8698682">
<ele>139</ele>
<time>2017-10-08T16:51:35Z</time>
</trkpt>
<trkpt lat="53.5872818" lon="17.8707918">
<ele>140</ele>
<time>2017-10-08T16:51:41Z</time>
</trkpt>
<trkpt lat="53.5867728" lon="17.8717543">
<ele>142</ele>
<time>2017-10-08T16:51:47Z</time>
</trkpt>
<trkpt lat="53.5863752" lon="17.8728764">
<ele>144</ele>
<time>2017-10-08T16:51:53Z</time>
</trkpt>
<trkpt lat="53.5860299" lon="17.8739667">
<ele>145</ele>
<time>2017-10-08T16:51:59Z</time>
</trkpt>
<trkpt lat="53.5857053" lon="17.8750265">
<ele>147</ele>
<time>2017-10-08T16:52:05Z</time>
</trkpt>
<trkpt lat="53.5853599" lon="17.8758468">
<ele>147</ele>
<time>2017-10-08T16:52:11Z</time>
</trkpt>
<trkpt lat="53.5849335" lon="17.8757924">
<ele>146</ele>
<time>2017-10-08T16:52:17Z</time>
</trkpt>
<trkpt lat="53.5844880" lon="17.8751978">
<ele>145</ele>
<time>2017-10-08T16:52:23Z</time>
</trkpt>
<trkpt lat="53.5840083" lon="17.8745921">
<ele>145</ele>
<time>2017-10-08T16:52:29Z</time>
</trkpt>
<trkpt lat="53.5835301" lon="17.8739423">
<ele>143</ele>
<time>2017-10-08T16:52:35Z</time>
</trkpt>
<trkpt lat="53.5830223" lon="17.8732816">
<ele>141</ele>
<time>2017-10-08T16:52:41Z</time>
</trkpt>
<trkpt lat="53.5824979" lon="17.8726063">
<ele>139</ele>
<time>2017-10-08T16:52:47Z</time>
</trkpt>
<trkpt lat="53.5819668" lon="17.8719420">
<ele>138</ele>
<time>2017-10-08T16:52:53Z</time>
</trkpt>
<trkpt lat="53.5814370" lon="17.8711874">
<ele>137</ele>
<time>2017-10-08T16:53:05Z</time>
</trkpt>
<trkpt lat="53.5812582" lon="17.8712579">
<ele>138</ele>
<time>2017-10-08T16:53:11Z</time>
</trkpt>
<trkpt lat="53.5810096" lon="17.8718351">
<ele>137</ele>
<time>2017-10-08T16:53:17Z</time>
</trkpt>
<trkpt lat="53.5806502" lon="17.8726169">
<ele>138</ele>
<time>2017-10-08T16:53:23Z</time>
</trkpt>
<trkpt lat="53.5802054" lon="17.8735671">
<ele>138</ele>
<time>2017-10-08T16:53:29Z</time>
</trkpt>
<trkpt lat="53.5797399" lon="17.8746258">
<ele>138</ele>
<time>2017-10-08T16:53:35Z</time>
</trkpt>
<trkpt lat="53.5792870" lon="17.8756699">
<ele>138</ele>
<time>2017-10-08T16:53:41Z</time>
</trkpt>
<trkpt lat="53.5788209" lon="17.8767082">
<ele>136</ele>
<time>2017-10-08T16:53:47Z</time>
</trkpt>
<trkpt lat="53.5783733" lon="17.8775583">
<ele>135</ele>
<time>2017-10-08T16:53:53Z</time>
</trkpt>
<trkpt lat="53.5779317" lon="17.8782310">
<ele>134</ele>
<time>2017-10-08T16:53:59Z</time>
</trkpt>
<trkpt lat="53.5774027" lon="17.8790074">
<ele>134</ele>
<time>2017-10-08T16:54:05Z</time>
</trkpt>
<trkpt lat="53.5767693" lon="17.8799270">
<ele>135</ele>
<time>2017-10-08T16:54:11Z</time>
</trkpt>
<trkpt lat="53.5760807" lon="17.8809490">
<ele>135</ele>
<time>2017-10-08T16:54:17Z</time>
</trkpt>
<trkpt lat="53.5753656" lon="17.8820061">
<ele>134</ele>
<time>2017-10-08T16:54:23Z</time>
</trkpt>
<trkpt lat="53.5746358" lon="17.8830978">
<ele>134</ele>
<time>2017-10-08T16:54:29Z</time>
</trkpt>
<trkpt lat="53.5739240" lon="17.8841480">
<ele>133</ele>
<time>2017-10-08T16:54:35Z</time>
</trkpt>
<trkpt lat="53.5733034" lon="17.8850672">
<ele>133</ele>
<time>2017-10-08T16:54:41Z</time>
</trkpt>
<trkpt lat="53.5727428" lon="17.8859002">
<ele>133</ele>
<time>2017-10-08T16:54:47Z</time>
</trkpt>
<trkpt lat="53.5722076" lon="17.8866751">
<ele>133</ele>
<time>2017-10-08T16:54:53Z</time>
</trkpt>
<trkpt lat="53.5716720" lon="17.8874477">
<ele>132</ele>
<time>2017-10-08T16:54:59Z</time>
</trkpt>
<trkpt lat="53.5713395" lon="17.8879572">
<ele>132</ele>
<time>2017-10-08T16:55:05Z</time>
</trkpt>
<trkpt lat="53.5709770" lon="17.8885221">
<ele>132</ele>
<time>2017-10-08T16:55:11Z</time>
</trkpt>
<trkpt lat="53.5705135" lon="17.8891850">
<ele>132</ele>
<time>2017-10-08T16:55:17Z</time>
</trkpt>
<trkpt lat="53.5700183" lon="17.8899113">
<ele>132</ele>
<time>2017-10-08T16:55:23Z</time>
</trkpt>
<trkpt lat="53.5695195" lon="17.8906521">
<ele>132</ele>
<time>2017-10-08T16:55:29Z</time>
</trkpt>
<trkpt lat="53.5690409" lon="17.8913718">
<ele>132</ele>
<time>2017-10-08T16:55:35Z</time>
</trkpt>
<trkpt lat="53.5685276" lon="17.8921414">
<ele>132</ele>
<time>2017-10-08T16:55:41Z</time>
</trkpt>
<trkpt lat="53.5680055" lon="17.8929138">
<ele>132</ele>
<time>2017-10-08T16:55:47Z</time>
</trkpt>
<trkpt lat="53.5674589" lon="17.8937193">
<ele>130</ele>
<time>2017-10-08T16:55:53Z</time>
</trkpt>
<trkpt lat="53.5668899" lon="17.8945670">
<ele>128</ele>
<time>2017-10-08T16:55:59Z</time>
</trkpt>
<trkpt lat="53.5662859" lon="17.8954720">
<ele>126</ele>
<time>2017-10-08T16:56:05Z</time>
</trkpt>
<trkpt lat="53.5656854" lon="17.8963592">
<ele>126</ele>
<time>2017-10-08T16:56:11Z</time>
</trkpt>
<trkpt lat="53.5650795" lon="17.8972350">
<ele>125</ele>
<time>2017-10-08T16:56:17Z</time>
</trkpt>
<trkpt lat="53.5644537" lon="17.8981541">
<ele>123</ele>
<time>2017-10-08T16:56:23Z</time>
</trkpt>
<trkpt lat="53.5639152" lon="17.8991566">
<ele>121</ele>
<time>2017-10-08T16:56:29Z</time>
</trkpt>
<trkpt lat="53.5635278" lon="17.9002119">
<ele>120</ele>
<time>2017-10-08T16:56:35Z</time>
</trkpt>
<trkpt lat="53.5629703" lon="17.9009113">
<ele>121</ele>
<time>2017-10-08T16:56:41Z</time>
</trkpt>
<trkpt lat="53.5622273" lon="17.9009764">
<ele>121</ele>
<time>2017-10-08T16:56:47Z</time>
</trkpt>
<trkpt lat="53.5615038" lon="17.9011308">
<ele>122</ele>
<time>2017-10-08T16:56:53Z</time>
</trkpt>
<trkpt lat="53.5607448" lon="17.9013878">
<ele>123</ele>
<time>2017-10-08T16:56:59Z</time>
</trkpt>
<trkpt lat="53.5599577" lon="17.9016897">
<ele>124</ele>
<time>2017-10-08T16:57:05Z</time>
</trkpt>
<trkpt lat="53.5591492" lon="17.9016798">
<ele>123</ele>
<time>2017-10-08T16:57:11Z</time>
</trkpt>
<trkpt lat="53.5583297" lon="17.9015378">
<ele>119</ele>
<time>2017-10-08T16:57:17Z</time>
</trkpt>
<trkpt lat="53.5575035" lon="17.9013825">
<ele>114</ele>
<time>2017-10-08T16:57:23Z</time>
</trkpt>
<trkpt lat="53.5567202" lon="17.9012616">
<ele>111</ele>
<time>2017-10-08T16:57:29Z</time>
</trkpt>
<trkpt lat="53.5560295" lon="17.9011704">
<ele>109</ele>
<time>2017-10-08T16:57:35Z</time>
</trkpt>
<trkpt lat="53.5554954" lon="17.9011645">
<ele>103</ele>
<time>2017-10-08T16:57:41Z</time>
</trkpt>
<trkpt lat="53.5550387" lon="17.9015372">
<ele>101</ele>
<time>2017-10-08T16:57:47Z</time>
</trkpt>
<trkpt lat="53.5546721" lon="17.9021348">
<ele>103</ele>
<time>2017-10-08T16:57:53Z</time>
</trkpt>
<trkpt lat="53.5543518" lon="17.9034527">
<ele>106</ele>
<time>2017-10-08T16:57:59Z</time>
</trkpt>
<trkpt lat="53.5542915" lon="17.9049432">
<ele>108</ele>
<time>2017-10-08T16:58:05Z</time>
</trkpt>
<trkpt lat="53.5544385" lon="17.9063731">
<ele>110</ele>
<time>2017-10-08T16:58:11Z</time>
</trkpt>
<trkpt lat="53.5541021" lon="17.9094555">
<ele>114</ele>
<time>2017-10-08T16:58:23Z</time>
</trkpt>
<trkpt lat="53.5538339" lon="17.9107923">
<ele>115</ele>
<time>2017-10-08T16:58:29Z</time>
</trkpt>
<trkpt lat="53.5537297" lon="17.9114162">
<ele>117</ele>
<time>2017-10-08T16:58:35Z</time>
</trkpt>
<trkpt lat="53.5537040" lon="17.9115080">
<ele>118</ele>
<time>2017-10-08T16:58:41Z</time>
</trkpt>
<trkpt lat="53.5537040" lon="17.9115080">
<ele>118</ele>
<time>2017-10-08T16:58:47Z</time>
</trkpt>
<trkpt lat="53.5537282" lon="17.9114633">
<ele>118</ele>
<time>2017-10-08T16:58:53Z</time>
</trkpt>
<trkpt lat="53.5537228" lon="17.9114749">
<ele>118</ele>
<time>2017-10-08T16:58:59Z</time>
</trkpt>
<trkpt lat="53.5537205" lon="17.9114756">
<ele>118</ele>
<time>2017-10-08T16:59:05Z</time>
</trkpt>
<trkpt lat="53.5537205" lon="17.9114756">
<ele>118</ele>
<time>2017-10-08T16:59:11Z</time>
</trkpt>
<trkpt lat="53.5537363" lon="17.9114877">
<ele>118</ele>
<time>2017-10-08T16:59:17Z</time>
</trkpt>
<trkpt lat="53.5537363" lon="17.9114877">
<ele>118</ele>
<time>2017-10-08T16:59:23Z</time>
</trkpt>
<trkpt lat="53.5537363" lon="17.9114877">
<ele>118</ele>
<time>2017-10-08T16:59:29Z</time>
</trkpt>
<trkpt lat="53.5537427" lon="17.9114883">
<ele>118</ele>
<time>2017-10-08T16:59:35Z</time>
</trkpt>
<trkpt lat="53.5537848" lon="17.9114871">
<ele>118</ele>
<time>2017-10-08T16:59:41Z</time>
</trkpt>
<trkpt lat="53.5538161" lon="17.9114677">
<ele>118</ele>
<time>2017-10-08T16:59:47Z</time>
</trkpt>
<trkpt lat="53.5538161" lon="17.9114677">
<ele>118</ele>
<time>2017-10-08T16:59:53Z</time>
</trkpt>
<trkpt lat="53.5538509" lon="17.9114431">
<ele>117</ele>
<time>2017-10-08T16:59:59Z</time>
</trkpt>
<trkpt lat="53.5538555" lon="17.9114463">
<ele>117</ele>
<time>2017-10-08T17:00:05Z</time>
</trkpt>
<trkpt lat="53.5538555" lon="17.9114463">
<ele>117</ele>
<time>2017-10-08T17:00:11Z</time>
</trkpt>
<trkpt lat="53.5538555" lon="17.9114463">
<ele>117</ele>
<time>2017-10-08T17:00:23Z</time>
</trkpt>
<trkpt lat="53.5538555" lon="17.9114463">
<ele>117</ele>
<time>2017-10-08T17:00:29Z</time>
</trkpt>
<trkpt lat="53.5538555" lon="17.9114463">
<ele>117</ele>
<time>2017-10-08T17:00:35Z</time>
</trkpt>
<trkpt lat="53.5538555" lon="17.9114463">
<ele>117</ele>
<time>2017-10-08T17:00:41Z</time>
</trkpt>
<trkpt lat="53.5538555" lon="17.9114463">
<ele>117</ele>
<time>2017-10-08T17:00:47Z</time>
</trkpt>
<trkpt lat="53.5538555" lon="17.9114463">
<ele>117</ele>
<time>2017-10-08T17:00:53Z</time>
</trkpt>
<trkpt lat="53.5538555" lon="17.9114463">
<ele>117</ele>
<time>2017-10-08T17:00:59Z</time>
</trkpt>
<trkpt lat="53.5538555" lon="17.9114463">
<ele>117</ele>
<time>2017-10-08T17:01:05Z</time>
</trkpt>
<trkpt lat="53.5538555" lon="17.9114463">
<ele>117</ele>
<time>2017-10-08T17:01:11Z</time>
</trkpt>
<trkpt lat="53.5538555" lon="17.9114463">
<ele>117</ele>
<time>2017-10-08T17:01:17Z</time>
</trkpt>
<trkpt lat="53.5538555" lon="17.9114463">
<ele>117</ele>
<time>2017-10-08T17:01:23Z</time>
</trkpt>
<trkpt lat="53.5538555" lon="17.9114463">
<ele>117</ele>
<time>2017-10-08T17:01:29Z</time>
</trkpt>
<trkpt lat="53.5538555" lon="17.9114463">
<ele>117</ele>
<time>2017-10-08T17:01:35Z</time>
</trkpt>
<trkpt lat="53.5538555" lon="17.9114463">
<ele>117</ele>
<time>2017-10-08T17:01:41Z</time>
</trkpt>
<trkpt lat="53.5538555" lon="17.9114463">
<ele>117</ele>
<time>2017-10-08T17:01:47Z</time>
</trkpt>
<trkpt lat="53.5538555" lon="17.9114463">
<ele>117</ele>
<time>2017-10-08T17:01:53Z</time>
</trkpt>
<trkpt lat="53.5538555" lon="17.9114463">
<ele>117</ele>
<time>2017-10-08T17:01:59Z</time>
</trkpt>
<trkpt lat="53.5538555" lon="17.9114463">
<ele>117</ele>
<time>2017-10-08T17:02:05Z</time>
</trkpt>
<trkpt lat="53.5538555" lon="17.9114463">
<ele>117</ele>
<time>2017-10-08T17:02:11Z</time>
</trkpt>
<trkpt lat="53.5538555" lon="17.9114463">
<ele>117</ele>
<time>2017-10-08T17:02:17Z</time>
</trkpt>
<trkpt lat="53.5538555" lon="17.9114463">
<ele>117</ele>
<time>2017-10-08T17:02:23Z</time>
</trkpt>
<trkpt lat="53.5537693" lon="17.9117987">
<ele>120</ele>
<time>2017-10-08T17:02:29Z</time>
</trkpt>
<trkpt lat="53.5536083" lon="17.9125433">
<ele>123</ele>
<time>2017-10-08T17:02:35Z</time>
</trkpt>
<trkpt lat="53.5533920" lon="17.9135589">
<ele>123</ele>
<time>2017-10-08T17:02:41Z</time>
</trkpt>
<trkpt lat="53.5531466" lon="17.9147811">
<ele>124</ele>
<time>2017-10-08T17:02:47Z</time>
</trkpt>
<trkpt lat="53.5528422" lon="17.9162092">
<ele>124</ele>
<time>2017-10-08T17:02:53Z</time>
</trkpt>
<trkpt lat="53.5525271" lon="17.9177412">
<ele>125</ele>
<time>2017-10-08T17:02:59Z</time>
</trkpt>
<trkpt lat="53.5522452" lon="17.9189743">
<ele>126</ele>
<time>2017-10-08T17:03:05Z</time>
</trkpt>
<trkpt lat="53.5520926" lon="17.9197128">
<ele>127</ele>
<time>2017-10-08T17:03:11Z</time>
</trkpt>
<trkpt lat="53.5520882" lon="17.9199302">
<ele>127</ele>
<time>2017-10-08T17:03:17Z</time>
</trkpt>
<trkpt lat="53.5520882" lon="17.9199302">
<ele>127</ele>
<time>2017-10-08T17:03:23Z</time>
</trkpt>
<trkpt lat="53.5520882" lon="17.9199302">
<ele>127</ele>
<time>2017-10-08T17:03:29Z</time>
</trkpt>
<trkpt lat="53.5520882" lon="17.9199302">
<ele>127</ele>
<time>2017-10-08T17:03:35Z</time>
</trkpt>
<trkpt lat="53.5520882" lon="17.9199302">
<ele>127</ele>
<time>2017-10-08T17:03:41Z</time>
</trkpt>
<trkpt lat="53.5520882" lon="17.9199302">
<ele>127</ele>
<time>2017-10-08T17:03:47Z</time>
</trkpt>
<trkpt lat="53.5520882" lon="17.9199302">
<ele>127</ele>
<time>2017-10-08T17:03:53Z</time>
</trkpt>
<trkpt lat="53.5520882" lon="17.9199302">
<ele>127</ele>
<time>2017-10-08T17:03:59Z</time>
</trkpt>
<trkpt lat="53.5520882" lon="17.9199302">
<ele>127</ele>
<time>2017-10-08T17:04:05Z</time>
</trkpt>
<trkpt lat="53.5520882" lon="17.9199302">
<ele>127</ele>
<time>2017-10-08T17:04:11Z</time>
</trkpt>
<trkpt lat="53.5520882" lon="17.9199302">
<ele>127</ele>
<time>2017-10-08T17:04:17Z</time>
</trkpt>
<trkpt lat="53.5520882" lon="17.9199302">
<ele>127</ele>
<time>2017-10-08T17:04:23Z</time>
</trkpt>
<trkpt lat="53.5520882" lon="17.9199302">
<ele>127</ele>
<time>2017-10-08T17:04:29Z</time>
</trkpt>
<trkpt lat="53.5520882" lon="17.9199302">
<ele>127</ele>
<time>2017-10-08T17:04:35Z</time>
</trkpt>
<trkpt lat="53.5520882" lon="17.9199302">
<ele>127</ele>
<time>2017-10-08T17:04:41Z</time>
</trkpt>
<trkpt lat="53.5520882" lon="17.9199302">
<ele>127</ele>
<time>2017-10-08T17:04:47Z</time>
</trkpt>
<trkpt lat="53.5520882" lon="17.9199302">
<ele>127</ele>
<time>2017-10-08T17:04:53Z</time>
</trkpt>
<trkpt lat="53.5520882" lon="17.9199302">
<ele>127</ele>
<time>2017-10-08T17:04:59Z</time>
</trkpt>
<trkpt lat="53.5520882" lon="17.9199302">
<ele>127</ele>
<time>2017-10-08T17:05:05Z</time>
</trkpt>
<trkpt lat="53.5520882" lon="17.9199302">
<ele>127</ele>
<time>2017-10-08T17:05:11Z</time>
</trkpt>
<trkpt lat="53.5520882" lon="17.9199302">
<ele>127</ele>
<time>2017-10-08T17:05:17Z</time>
</trkpt>
<trkpt lat="53.5520882" lon="17.9199302">
<ele>127</ele>
<time>2017-10-08T17:05:23Z</time>
</trkpt>
<trkpt lat="53.5520882" lon="17.9199302">
<ele>127</ele>
<time>2017-10-08T17:05:29Z</time>
</trkpt>
<trkpt lat="53.5520882" lon="17.9199302">
<ele>127</ele>
<time>2017-10-08T17:05:35Z</time>
</trkpt>
<trkpt lat="53.5520882" lon="17.9199302">
<ele>127</ele>
<time>2017-10-08T17:05:41Z</time>
</trkpt>
<trkpt lat="53.5520882" lon="17.9199302">
<ele>127</ele>
<time>2017-10-08T17:05:47Z</time>
</trkpt>
<trkpt lat="53.5520882" lon="17.9199302">
<ele>127</ele>
<time>2017-10-08T17:05:53Z</time>
</trkpt>
<trkpt lat="53.5520882" lon="17.9199302">
<ele>127</ele>
<time>2017-10-08T17:05:59Z</time>
</trkpt>
<trkpt lat="53.5520882" lon="17.9199302">
<ele>127</ele>
<time>2017-10-08T17:06:05Z</time>
</trkpt>
<trkpt lat="53.5520882" lon="17.9199302">
<ele>127</ele>
<time>2017-10-08T17:06:11Z</time>
</trkpt>
<trkpt lat="53.5520882" lon="17.9199302">
<ele>127</ele>
<time>2017-10-08T17:06:17Z</time>
</trkpt>
<trkpt lat="53.5520669" lon="17.9202234">
<ele>127</ele>
<time>2017-10-08T17:06:23Z</time>
</trkpt>
<trkpt lat="53.5519333" lon="17.9208181">
<ele>131</ele>
<time>2017-10-08T17:06:29Z</time>
</trkpt>
<trkpt lat="53.5517081" lon="17.9217664">
<ele>133</ele>
<time>2017-10-08T17:06:35Z</time>
</trkpt>
<trkpt lat="53.5514323" lon="17.9229392">
<ele>133</ele>
<time>2017-10-08T17:06:41Z</time>
</trkpt>
<trkpt lat="53.5509733" lon="17.9241394">
<ele>126</ele>
<time>2017-10-08T17:06:47Z</time>
</trkpt>
<trkpt lat="53.5502158" lon="17.9252197">
<ele>125</ele>
<time>2017-10-08T17:06:53Z</time>
</trkpt>
<trkpt lat="53.5493374" lon="17.9261789">
<ele>128</ele>
<time>2017-10-08T17:06:59Z</time>
</trkpt>
<trkpt lat="53.5484544" lon="17.9271949">
<ele>132</ele>
<time>2017-10-08T17:07:05Z</time>
</trkpt>
<trkpt lat="53.5475416" lon="17.9282534">
<ele>136</ele>
<time>2017-10-08T17:07:11Z</time>
</trkpt>
<trkpt lat="53.5465781" lon="17.9293197">
<ele>136</ele>
<time>2017-10-08T17:07:17Z</time>
</trkpt>
<trkpt lat="53.5455996" lon="17.9304311">
<ele>138</ele>
<time>2017-10-08T17:07:23Z</time>
</trkpt>
<trkpt lat="53.5446400" lon="17.9315285">
<ele>141</ele>
<time>2017-10-08T17:07:29Z</time>
</trkpt>
<trkpt lat="53.5436925" lon="17.9325996">
<ele>142</ele>
<time>2017-10-08T17:07:35Z</time>
</trkpt>
<trkpt lat="53.5427487" lon="17.9336881">
<ele>143</ele>
<time>2017-10-08T17:07:41Z</time>
</trkpt>
<trkpt lat="53.5418056" lon="17.9348139">
<ele>144</ele>
<time>2017-10-08T17:07:47Z</time>
</trkpt>
<trkpt lat="53.5408523" lon="17.9359476">
<ele>144</ele>
<time>2017-10-08T17:07:53Z</time>
</trkpt>
<trkpt lat="53.5398991" lon="17.9370759">
<ele>145</ele>
<time>2017-10-08T17:07:59Z</time>
</trkpt>
<trkpt lat="53.5389880" lon="17.9381600">
<ele>145</ele>
<time>2017-10-08T17:08:05Z</time>
</trkpt>
<trkpt lat="53.5381524" lon="17.9391383">
<ele>146</ele>
<time>2017-10-08T17:08:11Z</time>
</trkpt>
<trkpt lat="53.5374646" lon="17.9399590">
<ele>148</ele>
<time>2017-10-08T17:08:17Z</time>
</trkpt>
<trkpt lat="53.5367588" lon="17.9407635">
<ele>145</ele>
<time>2017-10-08T17:08:23Z</time>
</trkpt>
<trkpt lat="53.5360692" lon="17.9415713">
<ele>144</ele>
<time>2017-10-08T17:08:29Z</time>
</trkpt>
<trkpt lat="53.5353576" lon="17.9423454">
<ele>141</ele>
<time>2017-10-08T17:08:35Z</time>
</trkpt>
<trkpt lat="53.5346325" lon="17.9426947">
<ele>139</ele>
<time>2017-10-08T17:08:41Z</time>
</trkpt>
<trkpt lat="53.5340141" lon="17.9431370">
<ele>135</ele>
<time>2017-10-08T17:08:47Z</time>
</trkpt>
<trkpt lat="53.5335079" lon="17.9437969">
<ele>134</ele>
<time>2017-10-08T17:08:53Z</time>
</trkpt>
<trkpt lat="53.5330083" lon="17.9442114">
<ele>132</ele>
<time>2017-10-08T17:08:59Z</time>
</trkpt>
<trkpt lat="53.5324704" lon="17.9445133">
<ele>130</ele>
<time>2017-10-08T17:09:05Z</time>
</trkpt>
<trkpt lat="53.5319397" lon="17.9447454">
<ele>129</ele>
<time>2017-10-08T17:09:11Z</time>
</trkpt>
<trkpt lat="53.5313343" lon="17.9449511">
<ele>129</ele>
<time>2017-10-08T17:09:17Z</time>
</trkpt>
<trkpt lat="53.5307011" lon="17.9454381">
<ele>128</ele>
<time>2017-10-08T17:09:23Z</time>
</trkpt>
<trkpt lat="53.5300801" lon="17.9460331">
<ele>128</ele>
<time>2017-10-08T17:09:29Z</time>
</trkpt>
<trkpt lat="53.5294330" lon="17.9464720">
<ele>127</ele>
<time>2017-10-08T17:09:35Z</time>
</trkpt>
<trkpt lat="53.5287857" lon="17.9468343">
<ele>128</ele>
<time>2017-10-08T17:09:41Z</time>
</trkpt>
<trkpt lat="53.5281249" lon="17.9472270">
<ele>129</ele>
<time>2017-10-08T17:09:47Z</time>
</trkpt>
<trkpt lat="53.5274588" lon="17.9476185">
<ele>129</ele>
<time>2017-10-08T17:09:53Z</time>
</trkpt>
<trkpt lat="53.5266931" lon="17.9480510">
<ele>129</ele>
<time>2017-10-08T17:09:59Z</time>
</trkpt>
<trkpt lat="53.5258320" lon="17.9485203">
<ele>128</ele>
<time>2017-10-08T17:10:05Z</time>
</trkpt>
<trkpt lat="53.5249481" lon="17.9490210">
<ele>129</ele>
<time>2017-10-08T17:10:11Z</time>
</trkpt>
<trkpt lat="53.5240775" lon="17.9494959">
<ele>130</ele>
<time>2017-10-08T17:10:17Z</time>
</trkpt>
<trkpt lat="53.5233229" lon="17.9499090">
<ele>130</ele>
<time>2017-10-08T17:10:23Z</time>
</trkpt>
<trkpt lat="53.5229360" lon="17.9501057">
<ele>133</ele>
<time>2017-10-08T17:10:29Z</time>
</trkpt>
<trkpt lat="53.5225354" lon="17.9503369">
<ele>137</ele>
<time>2017-10-08T17:10:35Z</time>
</trkpt>
<trkpt lat="53.5221218" lon="17.9505693">
<ele>140</ele>
<time>2017-10-08T17:10:41Z</time>
</trkpt>
<trkpt lat="53.5216867" lon="17.9507993">
<ele>141</ele>
<time>2017-10-08T17:10:47Z</time>
</trkpt>
<trkpt lat="53.5213425" lon="17.9509844">
<ele>145</ele>
<time>2017-10-08T17:10:53Z</time>
</trkpt>
<trkpt lat="53.5210134" lon="17.9512049">
<ele>147</ele>
<time>2017-10-08T17:10:59Z</time>
</trkpt>
<trkpt lat="53.5207010" lon="17.9514052">
<ele>150</ele>
<time>2017-10-08T17:11:05Z</time>
</trkpt>
<trkpt lat="53.5203418" lon="17.9515855">
<ele>146</ele>
<time>2017-10-08T17:11:11Z</time>
</trkpt>
<trkpt lat="53.5200007" lon="17.9517580">
<ele>146</ele>
<time>2017-10-08T17:11:17Z</time>
</trkpt>
<trkpt lat="53.5196587" lon="17.9519586">
<ele>145</ele>
<time>2017-10-08T17:11:23Z</time>
</trkpt>
<trkpt lat="53.5192729" lon="17.9521951">
<ele>142</ele>
<time>2017-10-08T17:11:29Z</time>
</trkpt>
<trkpt lat="53.5188611" lon="17.9524414">
<ele>141</ele>
<time>2017-10-08T17:11:35Z</time>
</trkpt>
<trkpt lat="53.5184805" lon="17.9527157">
<ele>139</ele>
<time>2017-10-08T17:11:41Z</time>
</trkpt>
<trkpt lat="53.5181801" lon="17.9530057">
<ele>137</ele>
<time>2017-10-08T17:11:47Z</time>
</trkpt>
<trkpt lat="53.5179030" lon="17.9533811">
<ele>136</ele>
<time>2017-10-08T17:11:53Z</time>
</trkpt>
<trkpt lat="53.5175891" lon="17.9538136">
<ele>136</ele>
<time>2017-10-08T17:11:59Z</time>
</trkpt>
<trkpt lat="53.5172249" lon="17.9545071">
<ele>135</ele>
<time>2017-10-08T17:12:05Z</time>
</trkpt>
<trkpt lat="53.5168951" lon="17.9553076">
<ele>136</ele>
<time>2017-10-08T17:12:11Z</time>
</trkpt>
<trkpt lat="53.5165966" lon="17.9565221">
<ele>135</ele>
<time>2017-10-08T17:12:17Z</time>
</trkpt>
<trkpt lat="53.5162595" lon="17.9580742">
<ele>137</ele>
<time>2017-10-08T17:12:23Z</time>
</trkpt>
<trkpt lat="53.5159103" lon="17.9598593">
<ele>137</ele>
<time>2017-10-08T17:12:29Z</time>
</trkpt>
<trkpt lat="53.5155704" lon="17.9616940">
<ele>136</ele>
<time>2017-10-08T17:12:35Z</time>
</trkpt>
<trkpt lat="53.5152036" lon="17.9636056">
<ele>135</ele>
<time>2017-10-08T17:12:41Z</time>
</trkpt>
<trkpt lat="53.5148282" lon="17.9655719">
<ele>134</ele>
<time>2017-10-08T17:12:47Z</time>
</trkpt>
<trkpt lat="53.5143833" lon="17.9674062">
<ele>133</ele>
<time>2017-10-08T17:12:53Z</time>
</trkpt>
<trkpt lat="53.5136610" lon="17.9690319">
<ele>133</ele>
<time>2017-10-08T17:12:59Z</time>
</trkpt>
<trkpt lat="53.5129180" lon="17.9706541">
<ele>132</ele>
<time>2017-10-08T17:13:05Z</time>
</trkpt>
<trkpt lat="53.5121690" lon="17.9722856">
<ele>131</ele>
<time>2017-10-08T17:13:11Z</time>
</trkpt>
<trkpt lat="53.5114103" lon="17.9739038">
<ele>130</ele>
<time>2017-10-08T17:13:17Z</time>
</trkpt>
<trkpt lat="53.5104285" lon="17.9750335">
<ele>129</ele>
<time>2017-10-08T17:13:23Z</time>
</trkpt>
<trkpt lat="53.5093462" lon="17.9757495">
<ele>132</ele>
<time>2017-10-08T17:13:29Z</time>
</trkpt>
<trkpt lat="53.5082897" lon="17.9764827">
<ele>132</ele>
<time>2017-10-08T17:13:35Z</time>
</trkpt>
<trkpt lat="53.5073751" lon="17.9775729">
<ele>133</ele>
<time>2017-10-08T17:13:41Z</time>
</trkpt>
<trkpt lat="53.5069125" lon="17.9794296">
<ele>132</ele>
<time>2017-10-08T17:13:47Z</time>
</trkpt>
<trkpt lat="53.5065076" lon="17.9812173">
<ele>132</ele>
<time>2017-10-08T17:13:53Z</time>
</trkpt>
<trkpt lat="53.5061126" lon="17.9829268">
<ele>131</ele>
<time>2017-10-08T17:13:59Z</time>
</trkpt>
<trkpt lat="53.5057568" lon="17.9844650">
<ele>130</ele>
<time>2017-10-08T17:14:05Z</time>
</trkpt>
<trkpt lat="53.5054871" lon="17.9859763">
<ele>130</ele>
<time>2017-10-08T17:14:11Z</time>
</trkpt>
<trkpt lat="53.5057646" lon="17.9874534">
<ele>128</ele>
<time>2017-10-08T17:14:17Z</time>
</trkpt>
<trkpt lat="53.5062820" lon="17.9887336">
<ele>127</ele>
<time>2017-10-08T17:14:23Z</time>
</trkpt>
<trkpt lat="53.5069758" lon="17.9897069">
<ele>125</ele>
<time>2017-10-08T17:14:29Z</time>
</trkpt>
<trkpt lat="53.5072889" lon="17.9909874">
<ele>124</ele>
<time>2017-10-08T17:14:35Z</time>
</trkpt>
<trkpt lat="53.5072779" lon="17.9923167">
<ele>121</ele>
<time>2017-10-08T17:14:41Z</time>
</trkpt>
<trkpt lat="53.5072857" lon="17.9935764">
<ele>123</ele>
<time>2017-10-08T17:14:47Z</time>
</trkpt>
<trkpt lat="53.5070412" lon="17.9947494">
<ele>124</ele>
<time>2017-10-08T17:14:53Z</time>
</trkpt>
<trkpt lat="53.5067069" lon="17.9958803">
<ele>124</ele>
<time>2017-10-08T17:14:59Z</time>
</trkpt>
<trkpt lat="53.5063775" lon="17.9969124">
<ele>124</ele>
<time>2017-10-08T17:15:05Z</time>
</trkpt>
<trkpt lat="53.5061400" lon="17.9980094">
<ele>120</ele>
<time>2017-10-08T17:15:11Z</time>
</trkpt>
<trkpt lat="53.5060869" lon="17.9992560">
<ele>122</ele>
<time>2017-10-08T17:15:17Z</time>
</trkpt>
<trkpt lat="53.5058668" lon="18.0004804">
<ele>123</ele>
<time>2017-10-08T17:15:23Z</time>
</trkpt>
<trkpt lat="53.5056155" lon="18.0018117">
<ele>124</ele>
<time>2017-10-08T17:15:29Z</time>
</trkpt>
<trkpt lat="53.5053762" lon="18.0032000">
<ele>124</ele>
<time>2017-10-08T17:15:35Z</time>
</trkpt>
<trkpt lat="53.5051694" lon="18.0046184">
<ele>125</ele>
<time>2017-10-08T17:15:41Z</time>
</trkpt>
<trkpt lat="53.5049407" lon="18.0060300">
<ele>127</ele>
<time>2017-10-08T17:15:47Z</time>
</trkpt>
<trkpt lat="53.5046781" lon="18.0074191">
<ele>128</ele>
<time>2017-10-08T17:15:53Z</time>
</trkpt>
<trkpt lat="53.5043919" lon="18.0088653">
<ele>129</ele>
<time>2017-10-08T17:15:59Z</time>
</trkpt>
<trkpt lat="53.5041229" lon="18.0103158">
<ele>130</ele>
<time>2017-10-08T17:16:05Z</time>
</trkpt>
<trkpt lat="53.5038304" lon="18.0119051">
<ele>130</ele>
<time>2017-10-08T17:16:11Z</time>
</trkpt>
<trkpt lat="53.5035050" lon="18.0136537">
<ele>131</ele>
<time>2017-10-08T17:16:17Z</time>
</trkpt>
<trkpt lat="53.5031595" lon="18.0155338">
<ele>131</ele>
<time>2017-10-08T17:16:23Z</time>
</trkpt>
<trkpt lat="53.5027963" lon="18.0175078">
<ele>131</ele>
<time>2017-10-08T17:16:29Z</time>
</trkpt>
<trkpt lat="53.5024247" lon="18.0195076">
<ele>131</ele>
<time>2017-10-08T17:16:35Z</time>
</trkpt>
<trkpt lat="53.5020560" lon="18.0214979">
<ele>131</ele>
<time>2017-10-08T17:16:41Z</time>
</trkpt>
<trkpt lat="53.5016852" lon="18.0235217">
<ele>130</ele>
<time>2017-10-08T17:16:47Z</time>
</trkpt>
<trkpt lat="53.5012968" lon="18.0255507">
<ele>129</ele>
<time>2017-10-08T17:16:53Z</time>
</trkpt>
<trkpt lat="53.5009210" lon="18.0275829">
<ele>128</ele>
<time>2017-10-08T17:16:59Z</time>
</trkpt>
<trkpt lat="53.5005508" lon="18.0296053">
<ele>130</ele>
<time>2017-10-08T17:17:05Z</time>
</trkpt>
<trkpt lat="53.5001803" lon="18.0315771">
<ele>131</ele>
<time>2017-10-08T17:17:11Z</time>
</trkpt>
<trkpt lat="53.4997973" lon="18.0335678">
<ele>134</ele>
<time>2017-10-08T17:17:17Z</time>
</trkpt>
<trkpt lat="53.4994162" lon="18.0355533">
<ele>136</ele>
<time>2017-10-08T17:17:23Z</time>
</trkpt>
<trkpt lat="53.4990643" lon="18.0375326">
<ele>135</ele>
<time>2017-10-08T17:17:29Z</time>
</trkpt>
<trkpt lat="53.4987061" lon="18.0394878">
<ele>135</ele>
<time>2017-10-08T17:17:35Z</time>
</trkpt>
<trkpt lat="53.4983426" lon="18.0414405">
<ele>134</ele>
<time>2017-10-08T17:17:41Z</time>
</trkpt>
<trkpt lat="53.4979933" lon="18.0433649">
<ele>134</ele>
<time>2017-10-08T17:17:47Z</time>
</trkpt>
<trkpt lat="53.4976251" lon="18.0453241">
<ele>134</ele>
<time>2017-10-08T17:17:53Z</time>
</trkpt>
<trkpt lat="53.4972698" lon="18.0472818">
<ele>136</ele>
<time>2017-10-08T17:17:59Z</time>
</trkpt>
<trkpt lat="53.4969247" lon="18.0491833">
<ele>137</ele>
<time>2017-10-08T17:18:05Z</time>
</trkpt>
<trkpt lat="53.4966843" lon="18.0511442">
<ele>138</ele>
<time>2017-10-08T17:18:11Z</time>
</trkpt>
<trkpt lat="53.4965149" lon="18.0531637">
<ele>135</ele>
<time>2017-10-08T17:18:17Z</time>
</trkpt>
<trkpt lat="53.4964311" lon="18.0551685">
<ele>133</ele>
<time>2017-10-08T17:18:23Z</time>
</trkpt>
<trkpt lat="53.4963546" lon="18.0570838">
<ele>132</ele>
<time>2017-10-08T17:18:29Z</time>
</trkpt>
<trkpt lat="53.4962593" lon="18.0589981">
<ele>131</ele>
<time>2017-10-08T17:18:35Z</time>
</trkpt>
<trkpt lat="53.4961803" lon="18.0609094">
<ele>129</ele>
<time>2017-10-08T17:18:41Z</time>
</trkpt>
<trkpt lat="53.4960839" lon="18.0628375">
<ele>129</ele>
<time>2017-10-08T17:18:47Z</time>
</trkpt>
<trkpt lat="53.4959065" lon="18.0647001">
<ele>129</ele>
<time>2017-10-08T17:18:53Z</time>
</trkpt>
<trkpt lat="53.4957128" lon="18.0665396">
<ele>130</ele>
<time>2017-10-08T17:18:59Z</time>
</trkpt>
<trkpt lat="53.4955095" lon="18.0684184">
<ele>131</ele>
<time>2017-10-08T17:19:05Z</time>
</trkpt>
<trkpt lat="53.4953193" lon="18.0702408">
<ele>132</ele>
<time>2017-10-08T17:19:11Z</time>
</trkpt>
<trkpt lat="53.4951477" lon="18.0719407">
<ele>132</ele>
<time>2017-10-08T17:19:17Z</time>
</trkpt>
<trkpt lat="53.4949711" lon="18.0736299">
<ele>131</ele>
<time>2017-10-08T17:19:23Z</time>
</trkpt>
<trkpt lat="53.4948035" lon="18.0753529">
<ele>129</ele>
<time>2017-10-08T17:19:29Z</time>
</trkpt>
<trkpt lat="53.4946327" lon="18.0773369">
<ele>127</ele>
<time>2017-10-08T17:19:35Z</time>
</trkpt>
<trkpt lat="53.4943860" lon="18.0794677">
<ele>126</ele>
<time>2017-10-08T17:19:41Z</time>
</trkpt>
<trkpt lat="53.4941031" lon="18.0815234">
<ele>126</ele>
<time>2017-10-08T17:19:47Z</time>
</trkpt>
<trkpt lat="53.4936365" lon="18.0834700">
<ele>127</ele>
<time>2017-10-08T17:19:53Z</time>
</trkpt>
<trkpt lat="53.4931003" lon="18.0853963">
<ele>127</ele>
<time>2017-10-08T17:19:59Z</time>
</trkpt>
<trkpt lat="53.4925598" lon="18.0874080">
<ele>127</ele>
<time>2017-10-08T17:20:05Z</time>
</trkpt>
<trkpt lat="53.4920344" lon="18.0893989">
<ele>127</ele>
<time>2017-10-08T17:20:11Z</time>
</trkpt>
<trkpt lat="53.4915015" lon="18.0913753">
<ele>129</ele>
<time>2017-10-08T17:20:17Z</time>
</trkpt>
<trkpt lat="53.4909618" lon="18.0933668">
<ele>129</ele>
<time>2017-10-08T17:20:23Z</time>
</trkpt>
<trkpt lat="53.4904168" lon="18.0953480">
<ele>128</ele>
<time>2017-10-08T17:20:29Z</time>
</trkpt>
<trkpt lat="53.4899632" lon="18.0973752">
<ele>126</ele>
<time>2017-10-08T17:20:35Z</time>
</trkpt>
<trkpt lat="53.4896069" lon="18.0995139">
<ele>126</ele>
<time>2017-10-08T17:20:41Z</time>
</trkpt>
<trkpt lat="53.4892734" lon="18.1016611">
<ele>127</ele>
<time>2017-10-08T17:20:47Z</time>
</trkpt>
<trkpt lat="53.4889317" lon="18.1037887">
<ele>129</ele>
<time>2017-10-08T17:20:53Z</time>
</trkpt>
<trkpt lat="53.4885781" lon="18.1058802">
<ele>129</ele>
<time>2017-10-08T17:20:59Z</time>
</trkpt>
<trkpt lat="53.4882445" lon="18.1079229">
<ele>130</ele>
<time>2017-10-08T17:21:05Z</time>
</trkpt>
<trkpt lat="53.4879226" lon="18.1099937">
<ele>131</ele>
<time>2017-10-08T17:21:11Z</time>
</trkpt>
<trkpt lat="53.4876087" lon="18.1120805">
<ele>130</ele>
<time>2017-10-08T17:21:17Z</time>
</trkpt>
<trkpt lat="53.4872815" lon="18.1140775">
<ele>130</ele>
<time>2017-10-08T17:21:23Z</time>
</trkpt>
<trkpt lat="53.4869721" lon="18.1160041">
<ele>129</ele>
<time>2017-10-08T17:21:29Z</time>
</trkpt>
<trkpt lat="53.4866575" lon="18.1179444">
<ele>131</ele>
<time>2017-10-08T17:21:35Z</time>
</trkpt>
<trkpt lat="53.4863168" lon="18.1199039">
<ele>132</ele>
<time>2017-10-08T17:21:41Z</time>
</trkpt>
<trkpt lat="53.4860076" lon="18.1218481">
<ele>129</ele>
<time>2017-10-08T17:21:47Z</time>
</trkpt>
<trkpt lat="53.4857129" lon="18.1237311">
<ele>130</ele>
<time>2017-10-08T17:21:53Z</time>
</trkpt>
<trkpt lat="53.4853846" lon="18.1255847">
<ele>127</ele>
<time>2017-10-08T17:21:59Z</time>
</trkpt>
<trkpt lat="53.4849372" lon="18.1274113">
<ele>127</ele>
<time>2017-10-08T17:22:05Z</time>
</trkpt>
<trkpt lat="53.4842631" lon="18.1291118">
<ele>127</ele>
<time>2017-10-08T17:22:11Z</time>
</trkpt>
<trkpt lat="53.4835980" lon="18.1307289">
<ele>126</ele>
<time>2017-10-08T17:22:17Z</time>
</trkpt>
<trkpt lat="53.4830186" lon="18.1321865">
<ele>126</ele>
<time>2017-10-08T17:22:23Z</time>
</trkpt>
<trkpt lat="53.4825605" lon="18.1333978">
<ele>126</ele>
<time>2017-10-08T17:22:29Z</time>
</trkpt>
<trkpt lat="53.4820919" lon="18.1346411">
<ele>129</ele>
<time>2017-10-08T17:22:35Z</time>
</trkpt>
<trkpt lat="53.4815410" lon="18.1359300">
<ele>130</ele>
<time>2017-10-08T17:22:41Z</time>
</trkpt>
<trkpt lat="53.4809926" lon="18.1373300">
<ele>133</ele>
<time>2017-10-08T17:22:47Z</time>
</trkpt>
<trkpt lat="53.4804098" lon="18.1388307">
<ele>135</ele>
<time>2017-10-08T17:22:53Z</time>
</trkpt>
<trkpt lat="53.4797864" lon="18.1403805">
<ele>135</ele>
<time>2017-10-08T17:22:59Z</time>
</trkpt>
<trkpt lat="53.4791483" lon="18.1420013">
<ele>135</ele>
<time>2017-10-08T17:23:05Z</time>
</trkpt>
<trkpt lat="53.4784996" lon="18.1436283">
<ele>135</ele>
<time>2017-10-08T17:23:11Z</time>
</trkpt>
<trkpt lat="53.4778498" lon="18.1452663">
<ele>135</ele>
<time>2017-10-08T17:23:17Z</time>
</trkpt>
<trkpt lat="53.4771795" lon="18.1469564">
<ele>134</ele>
<time>2017-10-08T17:23:23Z</time>
</trkpt>
<trkpt lat="53.4765078" lon="18.1486629">
<ele>134</ele>
<time>2017-10-08T17:23:29Z</time>
</trkpt>
<trkpt lat="53.4758630" lon="18.1503000">
<ele>133</ele>
<time>2017-10-08T17:23:35Z</time>
</trkpt>
<trkpt lat="53.4753002" lon="18.1517721">
<ele>132</ele>
<time>2017-10-08T17:23:41Z</time>
</trkpt>
<trkpt lat="53.4747350" lon="18.1532445">
<ele>130</ele>
<time>2017-10-08T17:23:47Z</time>
</trkpt>
<trkpt lat="53.4741125" lon="18.1547539">
<ele>129</ele>
<time>2017-10-08T17:23:53Z</time>
</trkpt>
<trkpt lat="53.4734786" lon="18.1563381">
<ele>129</ele>
<time>2017-10-08T17:23:59Z</time>
</trkpt>
<trkpt lat="53.4728150" lon="18.1579011">
<ele>132</ele>
<time>2017-10-08T17:24:05Z</time>
</trkpt>
<trkpt lat="53.4721692" lon="18.1594711">
<ele>134</ele>
<time>2017-10-08T17:24:11Z</time>
</trkpt>
<trkpt lat="53.4715047" lon="18.1610905">
<ele>135</ele>
<time>2017-10-08T17:24:17Z</time>
</trkpt>
<trkpt lat="53.4707997" lon="18.1627488">
<ele>136</ele>
<time>2017-10-08T17:24:23Z</time>
</trkpt>
<trkpt lat="53.4701018" lon="18.1644622">
<ele>136</ele>
<time>2017-10-08T17:24:29Z</time>
</trkpt>
<trkpt lat="53.4693888" lon="18.1662023">
<ele>136</ele>
<time>2017-10-08T17:24:35Z</time>
</trkpt>
<trkpt lat="53.4686483" lon="18.1679747">
<ele>135</ele>
<time>2017-10-08T17:24:41Z</time>
</trkpt>
<trkpt lat="53.4679200" lon="18.1697399">
<ele>134</ele>
<time>2017-10-08T17:24:47Z</time>
</trkpt>
<trkpt lat="53.4671782" lon="18.1715384">
<ele>133</ele>
<time>2017-10-08T17:24:53Z</time>
</trkpt>
<trkpt lat="53.4656642" lon="18.1752106">
<ele>129</ele>
<time>2017-10-08T17:25:05Z</time>
</trkpt>
<trkpt lat="53.4649232" lon="18.1770924">
<ele>129</ele>
<time>2017-10-08T17:25:11Z</time>
</trkpt>
<trkpt lat="53.4641907" lon="18.1789125">
<ele>134</ele>
<time>2017-10-08T17:25:17Z</time>
</trkpt>
<trkpt lat="53.4634685" lon="18.1807102">
<ele>135</ele>
<time>2017-10-08T17:25:23Z</time>
</trkpt>
<trkpt lat="53.4627373" lon="18.1825003">
<ele>134</ele>
<time>2017-10-08T17:25:29Z</time>
</trkpt>
<trkpt lat="53.4619986" lon="18.1843249">
<ele>133</ele>
<time>2017-10-08T17:25:35Z</time>
</trkpt>
<trkpt lat="53.4612459" lon="18.1861837">
<ele>131</ele>
<time>2017-10-08T17:25:41Z</time>
</trkpt>
<trkpt lat="53.4605026" lon="18.1880280">
<ele>130</ele>
<time>2017-10-08T17:25:47Z</time>
</trkpt>
<trkpt lat="53.4597500" lon="18.1898923">
<ele>130</ele>
<time>2017-10-08T17:25:53Z</time>
</trkpt>
<trkpt lat="53.4590019" lon="18.1917473">
<ele>130</ele>
<time>2017-10-08T17:25:59Z</time>
</trkpt>
<trkpt lat="53.4582701" lon="18.1935552">
<ele>130</ele>
<time>2017-10-08T17:26:05Z</time>
</trkpt>
<trkpt lat="53.4575511" lon="18.1953283">
<ele>130</ele>
<time>2017-10-08T17:26:11Z</time>
</trkpt>
<trkpt lat="53.4568465" lon="18.1970934">
<ele>130</ele>
<time>2017-10-08T17:26:17Z</time>
</trkpt>
<trkpt lat="53.4561419" lon="18.1988415">
<ele>131</ele>
<time>2017-10-08T17:26:23Z</time>
</trkpt>
<trkpt lat="53.4549412" lon="18.2017834">
<ele>130</ele>
<time>2017-10-08T17:26:35Z</time>
</trkpt>
<trkpt lat="53.4544536" lon="18.2031372">
<ele>129</ele>
<time>2017-10-08T17:26:41Z</time>
</trkpt>
<trkpt lat="53.4541437" lon="18.2049152">
<ele>129</ele>
<time>2017-10-08T17:26:47Z</time>
</trkpt>
<trkpt lat="53.4539781" lon="18.2069072">
<ele>129</ele>
<time>2017-10-08T17:26:53Z</time>
</trkpt>
<trkpt lat="53.4537993" lon="18.2088567">
<ele>130</ele>
<time>2017-10-08T17:26:59Z</time>
</trkpt>
<trkpt lat="53.4536207" lon="18.2108112">
<ele>129</ele>
<time>2017-10-08T17:27:05Z</time>
</trkpt>
<trkpt lat="53.4534276" lon="18.2128269">
<ele>129</ele>
<time>2017-10-08T17:27:11Z</time>
</trkpt>
<trkpt lat="53.4532356" lon="18.2148434">
<ele>130</ele>
<time>2017-10-08T17:27:17Z</time>
</trkpt>
<trkpt lat="53.4530689" lon="18.2168409">
<ele>130</ele>
<time>2017-10-08T17:27:23Z</time>
</trkpt>
<trkpt lat="53.4528788" lon="18.2188412">
<ele>130</ele>
<time>2017-10-08T17:27:29Z</time>
</trkpt>
<trkpt lat="53.4526798" lon="18.2208638">
<ele>129</ele>
<time>2017-10-08T17:27:35Z</time>
</trkpt>
<trkpt lat="53.4523714" lon="18.2228563">
<ele>129</ele>
<time>2017-10-08T17:27:41Z</time>
</trkpt>
<trkpt lat="53.4520635" lon="18.2248963">
<ele>130</ele>
<time>2017-10-08T17:27:47Z</time>
</trkpt>
<trkpt lat="53.4517517" lon="18.2268801">
<ele>130</ele>
<time>2017-10-08T17:27:53Z</time>
</trkpt>
<trkpt lat="53.4514293" lon="18.2288817">
<ele>130</ele>
<time>2017-10-08T17:27:59Z</time>
</trkpt>
<trkpt lat="53.4511109" lon="18.2308957">
<ele>131</ele>
<time>2017-10-08T17:28:05Z</time>
</trkpt>
<trkpt lat="53.4508040" lon="18.2328592">
<ele>130</ele>
<time>2017-10-08T17:28:11Z</time>
</trkpt>
<trkpt lat="53.4505034" lon="18.2347903">
<ele>131</ele>
<time>2017-10-08T17:28:17Z</time>
</trkpt>
<trkpt lat="53.4501998" lon="18.2366979">
<ele>131</ele>
<time>2017-10-08T17:28:23Z</time>
</trkpt>
<trkpt lat="53.4498989" lon="18.2385607">
<ele>131</ele>
<time>2017-10-08T17:28:29Z</time>
</trkpt>
<trkpt lat="53.4496112" lon="18.2404302">
<ele>132</ele>
<time>2017-10-08T17:28:35Z</time>
</trkpt>
<trkpt lat="53.4493306" lon="18.2422334">
<ele>134</ele>
<time>2017-10-08T17:28:41Z</time>
</trkpt>
<trkpt lat="53.4490735" lon="18.2438813">
<ele>134</ele>
<time>2017-10-08T17:28:47Z</time>
</trkpt>
<trkpt lat="53.4488343" lon="18.2454185">
<ele>134</ele>
<time>2017-10-08T17:28:53Z</time>
</trkpt>
<trkpt lat="53.4485751" lon="18.2470801">
<ele>132</ele>
<time>2017-10-08T17:28:59Z</time>
</trkpt>
<trkpt lat="53.4482921" lon="18.2488885">
<ele>131</ele>
<time>2017-10-08T17:29:05Z</time>
</trkpt>
<trkpt lat="53.4479907" lon="18.2507804">
<ele>130</ele>
<time>2017-10-08T17:29:11Z</time>
</trkpt>
<trkpt lat="53.4476779" lon="18.2527076">
<ele>129</ele>
<time>2017-10-08T17:29:17Z</time>
</trkpt>
<trkpt lat="53.4473901" lon="18.2546466">
<ele>127</ele>
<time>2017-10-08T17:29:23Z</time>
</trkpt>
<trkpt lat="53.4471867" lon="18.2566437">
<ele>124</ele>
<time>2017-10-08T17:29:29Z</time>
</trkpt>
<trkpt lat="53.4469875" lon="18.2586200">
<ele>121</ele>
<time>2017-10-08T17:29:35Z</time>
</trkpt>
<trkpt lat="53.4467777" lon="18.2605809">
<ele>120</ele>
<time>2017-10-08T17:29:41Z</time>
</trkpt>
<trkpt lat="53.4463525" lon="18.2624094">
<ele>122</ele>
<time>2017-10-08T17:29:47Z</time>
</trkpt>
<trkpt lat="53.4452649" lon="18.2659910">
<ele>123</ele>
<time>2017-10-08T17:29:59Z</time>
</trkpt>
<trkpt lat="53.4447262" lon="18.2677923">
<ele>123</ele>
<time>2017-10-08T17:30:05Z</time>
</trkpt>
<trkpt lat="53.4442034" lon="18.2695934">
<ele>123</ele>
<time>2017-10-08T17:30:11Z</time>
</trkpt>
<trkpt lat="53.4436281" lon="18.2713507">
<ele>122</ele>
<time>2017-10-08T17:30:17Z</time>
</trkpt>
<trkpt lat="53.4430555" lon="18.2730922">
<ele>120</ele>
<time>2017-10-08T17:30:23Z</time>
</trkpt>
<trkpt lat="53.4424668" lon="18.2748435">
<ele>114</ele>
<time>2017-10-08T17:30:29Z</time>
</trkpt>
<trkpt lat="53.4419070" lon="18.2765851">
<ele>124</ele>
<time>2017-10-08T17:30:35Z</time>
</trkpt>
<trkpt lat="53.4413837" lon="18.2782480">
<ele>130</ele>
<time>2017-10-08T17:30:41Z</time>
</trkpt>
<trkpt lat="53.4408504" lon="18.2799296">
<ele>133</ele>
<time>2017-10-08T17:30:47Z</time>
</trkpt>
<trkpt lat="53.4402791" lon="18.2816714">
<ele>134</ele>
<time>2017-10-08T17:30:53Z</time>
</trkpt>
<trkpt lat="53.4397211" lon="18.2834059">
<ele>132</ele>
<time>2017-10-08T17:30:59Z</time>
</trkpt>
<trkpt lat="53.4391804" lon="18.2850581">
<ele>130</ele>
<time>2017-10-08T17:31:05Z</time>
</trkpt>
<trkpt lat="53.4386645" lon="18.2866716">
<ele>129</ele>
<time>2017-10-08T17:31:11Z</time>
</trkpt>
<trkpt lat="53.4381689" lon="18.2882611">
<ele>128</ele>
<time>2017-10-08T17:31:17Z</time>
</trkpt>
<trkpt lat="53.4376621" lon="18.2898688">
<ele>127</ele>
<time>2017-10-08T17:31:23Z</time>
</trkpt>
<trkpt lat="53.4371265" lon="18.2915045">
<ele>126</ele>
<time>2017-10-08T17:31:29Z</time>
</trkpt>
<trkpt lat="53.4365873" lon="18.2931652">
<ele>121</ele>
<time>2017-10-08T17:31:35Z</time>
</trkpt>
<trkpt lat="53.4360311" lon="18.2948657">
<ele>119</ele>
<time>2017-10-08T17:31:41Z</time>
</trkpt>
<trkpt lat="53.4354913" lon="18.2965343">
<ele>120</ele>
<time>2017-10-08T17:31:47Z</time>
</trkpt>
<trkpt lat="53.4349807" lon="18.2981427">
<ele>120</ele>
<time>2017-10-08T17:31:53Z</time>
</trkpt>
<trkpt lat="53.4344737" lon="18.2997159">
<ele>120</ele>
<time>2017-10-08T17:31:59Z</time>
</trkpt>
<trkpt lat="53.4339655" lon="18.3012600">
<ele>117</ele>
<time>2017-10-08T17:32:05Z</time>
</trkpt>
<trkpt lat="53.4334837" lon="18.3027413">
<ele>118</ele>
<time>2017-10-08T17:32:11Z</time>
</trkpt>
<trkpt lat="53.4330352" lon="18.3041533">
<ele>119</ele>
<time>2017-10-08T17:32:17Z</time>
</trkpt>
<trkpt lat="53.4326188" lon="18.3054664">
<ele>120</ele>
<time>2017-10-08T17:32:23Z</time>
</trkpt>
<trkpt lat="53.4321853" lon="18.3068101">
<ele>121</ele>
<time>2017-10-08T17:32:29Z</time>
</trkpt>
<trkpt lat="53.4317734" lon="18.3080911">
<ele>122</ele>
<time>2017-10-08T17:32:35Z</time>
</trkpt>
<trkpt lat="53.4314028" lon="18.3092552">
<ele>122</ele>
<time>2017-10-08T17:32:41Z</time>
</trkpt>
<trkpt lat="53.4310379" lon="18.3104013">
<ele>122</ele>
<time>2017-10-08T17:32:47Z</time>
</trkpt>
<trkpt lat="53.4306565" lon="18.3115846">
<ele>122</ele>
<time>2017-10-08T17:32:53Z</time>
</trkpt>
<trkpt lat="53.4302312" lon="18.3128797">
<ele>121</ele>
<time>2017-10-08T17:32:59Z</time>
</trkpt>
<trkpt lat="53.4297759" lon="18.3143002">
<ele>120</ele>
<time>2017-10-08T17:33:05Z</time>
</trkpt>
<trkpt lat="53.4292906" lon="18.3158455">
<ele>118</ele>
<time>2017-10-08T17:33:11Z</time>
</trkpt>
<trkpt lat="53.4287440" lon="18.3175411">
<ele>114</ele>
<time>2017-10-08T17:33:17Z</time>
</trkpt>
<trkpt lat="53.4281783" lon="18.3192421">
<ele>117</ele>
<time>2017-10-08T17:33:23Z</time>
</trkpt>
<trkpt lat="53.4276480" lon="18.3208665">
<ele>120</ele>
<time>2017-10-08T17:33:29Z</time>
</trkpt>
<trkpt lat="53.4271384" lon="18.3224561">
<ele>121</ele>
<time>2017-10-08T17:33:35Z</time>
</trkpt>
<trkpt lat="53.4266282" lon="18.3240608">
<ele>120</ele>
<time>2017-10-08T17:33:41Z</time>
</trkpt>
<trkpt lat="53.4260862" lon="18.3257629">
<ele>121</ele>
<time>2017-10-08T17:33:47Z</time>
</trkpt>
<trkpt lat="53.4255321" lon="18.3274726">
<ele>121</ele>
<time>2017-10-08T17:33:53Z</time>
</trkpt>
<trkpt lat="53.4249747" lon="18.3291882">
<ele>120</ele>
<time>2017-10-08T17:33:59Z</time>
</trkpt>
<trkpt lat="53.4244178" lon="18.3309112">
<ele>119</ele>
<time>2017-10-08T17:34:05Z</time>
</trkpt>
<trkpt lat="53.4228" lon="18.3358">
<ele>121</ele>
<time>2017-10-08T17:34:23Z</time>
</trkpt>
<trkpt lat="53.4224" lon="18.3373">
<ele>121</ele>
<time>2017-10-08T17:34:29Z</time>
</trkpt>
<trkpt lat="53.4219" lon="18.3389">
<ele>122</ele>
<time>2017-10-08T17:34:35Z</time>
</trkpt>
<trkpt lat="53.4214" lon="18.3403">
<ele>123</ele>
<time>2017-10-08T17:34:41Z</time>
</trkpt>
<trkpt lat="53.4209" lon="18.3419">
<ele>122</ele>
<time>2017-10-08T17:34:47Z</time>
</trkpt>
<trkpt lat="53.4204" lon="18.3433">
<ele>121</ele>
<time>2017-10-08T17:34:53Z</time>
</trkpt>
<trkpt lat="53.4199528" lon="18.3447675">
<ele>121</ele>
<time>2017-10-08T17:34:59Z</time>
</trkpt>
<trkpt lat="53.4183" lon="18.351">
<ele>111</ele>
<time>2017-10-08T17:35:23Z</time>
</trkpt>
<trkpt lat="53.418" lon="18.3528">
<ele>107</ele>
<time>2017-10-08T17:35:29Z</time>
</trkpt>
<trkpt lat="53.4177" lon="18.3546">
<ele>106</ele>
<time>2017-10-08T17:35:35Z</time>
</trkpt>
<trkpt lat="53.4174067" lon="18.3562516">
<ele>104</ele>
<time>2017-10-08T17:35:41Z</time>
</trkpt>
<trkpt lat="53.4169631" lon="18.3578231">
<ele>103</ele>
<time>2017-10-08T17:35:47Z</time>
</trkpt>
<trkpt lat="53.4163248" lon="18.3593042">
<ele>103</ele>
<time>2017-10-08T17:35:53Z</time>
</trkpt>
<trkpt lat="53.4156677" lon="18.3606693">
<ele>102</ele>
<time>2017-10-08T17:35:59Z</time>
</trkpt>
<trkpt lat="53.4149923" lon="18.3620470">
<ele>100</ele>
<time>2017-10-08T17:36:05Z</time>
</trkpt>
<trkpt lat="53.4144150" lon="18.3635356">
<ele>97</ele>
<time>2017-10-08T17:36:11Z</time>
</trkpt>
<trkpt lat="53.4139635" lon="18.3651653">
<ele>94</ele>
<time>2017-10-08T17:36:17Z</time>
</trkpt>
<trkpt lat="53.4136428" lon="18.3668646">
<ele>92</ele>
<time>2017-10-08T17:36:23Z</time>
</trkpt>
<trkpt lat="53.4133161" lon="18.3685404">
<ele>90</ele>
<time>2017-10-08T17:36:29Z</time>
</trkpt>
<trkpt lat="53.4129006" lon="18.3702108">
<ele>90</ele>
<time>2017-10-08T17:36:35Z</time>
</trkpt>
<trkpt lat="53.4123509" lon="18.3718040">
<ele>89</ele>
<time>2017-10-08T17:36:41Z</time>
</trkpt>
<trkpt lat="53.4116379" lon="18.3732161">
<ele>88</ele>
<time>2017-10-08T17:36:47Z</time>
</trkpt>
<trkpt lat="53.4102316" lon="18.3757386">
<ele>83</ele>
<time>2017-10-08T17:36:59Z</time>
</trkpt>
<trkpt lat="53.4095981" lon="18.3770485">
<ele>80</ele>
<time>2017-10-08T17:37:05Z</time>
</trkpt>
<trkpt lat="53.4090372" lon="18.3785831">
<ele>76</ele>
<time>2017-10-08T17:37:11Z</time>
</trkpt>
<trkpt lat="53.4086168" lon="18.3802246">
<ele>76</ele>
<time>2017-10-08T17:37:17Z</time>
</trkpt>
<trkpt lat="53.4082102" lon="18.3818600">
<ele>76</ele>
<time>2017-10-08T17:37:23Z</time>
</trkpt>
<trkpt lat="53.4077996" lon="18.3835396">
<ele>75</ele>
<time>2017-10-08T17:37:29Z</time>
</trkpt>
<trkpt lat="53.4073818" lon="18.3852373">
<ele>73</ele>
<time>2017-10-08T17:37:35Z</time>
</trkpt>
<trkpt lat="53.4069639" lon="18.3869424">
<ele>71</ele>
<time>2017-10-08T17:37:41Z</time>
</trkpt>
<trkpt lat="53.4065479" lon="18.3886372">
<ele>70</ele>
<time>2017-10-08T17:37:47Z</time>
</trkpt>
<trkpt lat="53.4060437" lon="18.3902439">
<ele>70</ele>
<time>2017-10-08T17:37:53Z</time>
</trkpt>
<trkpt lat="53.4053740" lon="18.3916955">
<ele>68</ele>
<time>2017-10-08T17:37:59Z</time>
</trkpt>
<trkpt lat="53.4046807" lon="18.3929850">
<ele>68</ele>
<time>2017-10-08T17:38:05Z</time>
</trkpt>
<trkpt lat="53.4040220" lon="18.3943032">
<ele>67</ele>
<time>2017-10-08T17:38:11Z</time>
</trkpt>
<trkpt lat="53.4033376" lon="18.3956570">
<ele>66</ele>
<time>2017-10-08T17:38:17Z</time>
</trkpt>
<trkpt lat="53.4025785" lon="18.3970314">
<ele>67</ele>
<time>2017-10-08T17:38:23Z</time>
</trkpt>
<trkpt lat="53.4017119" lon="18.3982203">
<ele>66</ele>
<time>2017-10-08T17:38:29Z</time>
</trkpt>
<trkpt lat="53.4008564" lon="18.3990612">
<ele>66</ele>
<time>2017-10-08T17:38:35Z</time>
</trkpt>
<trkpt lat="53.4000219" lon="18.3997105">
<ele>67</ele>
<time>2017-10-08T17:38:41Z</time>
</trkpt>
<trkpt lat="53.3991522" lon="18.4002217">
<ele>66</ele>
<time>2017-10-08T17:38:47Z</time>
</trkpt>
<trkpt lat="53.3982308" lon="18.4007158">
<ele>64</ele>
<time>2017-10-08T17:38:53Z</time>
</trkpt>
<trkpt lat="53.3972886" lon="18.4012138">
<ele>61</ele>
<time>2017-10-08T17:38:59Z</time>
</trkpt>
<trkpt lat="53.3963349" lon="18.4017219">
<ele>58</ele>
<time>2017-10-08T17:39:05Z</time>
</trkpt>
<trkpt lat="53.3953591" lon="18.4022653">
<ele>55</ele>
<time>2017-10-08T17:39:11Z</time>
</trkpt>
<trkpt lat="53.3943863" lon="18.4028673">
<ele>52</ele>
<time>2017-10-08T17:39:17Z</time>
</trkpt>
<trkpt lat="53.3934212" lon="18.4036056">
<ele>50</ele>
<time>2017-10-08T17:39:23Z</time>
</trkpt>
<trkpt lat="53.3924618" lon="18.4044476">
<ele>50</ele>
<time>2017-10-08T17:39:29Z</time>
</trkpt>
<trkpt lat="53.3915297" lon="18.4053427">
<ele>52</ele>
<time>2017-10-08T17:39:35Z</time>
</trkpt>
<trkpt lat="53.3906055" lon="18.4062863">
<ele>53</ele>
<time>2017-10-08T17:39:41Z</time>
</trkpt>
<trkpt lat="53.3896691" lon="18.4072230">
<ele>53</ele>
<time>2017-10-08T17:39:47Z</time>
</trkpt>
<trkpt lat="53.3887135" lon="18.4081946">
<ele>53</ele>
<time>2017-10-08T17:39:53Z</time>
</trkpt>
<trkpt lat="53.3877402" lon="18.4092016">
<ele>53</ele>
<time>2017-10-08T17:39:59Z</time>
</trkpt>
<trkpt lat="53.3867654" lon="18.4102129">
<ele>53</ele>
<time>2017-10-08T17:40:05Z</time>
</trkpt>
<trkpt lat="53.3857806" lon="18.4112354">
<ele>52</ele>
<time>2017-10-08T17:40:11Z</time>
</trkpt>
<trkpt lat="53.3847998" lon="18.4122624">
<ele>52</ele>
<time>2017-10-08T17:40:17Z</time>
</trkpt>
<trkpt lat="53.3838226" lon="18.4132788">
<ele>52</ele>
<time>2017-10-08T17:40:23Z</time>
</trkpt>
<trkpt lat="53.3828433" lon="18.4142907">
<ele>51</ele>
<time>2017-10-08T17:40:29Z</time>
</trkpt>
<trkpt lat="53.3818566" lon="18.4153114">
<ele>51</ele>
<time>2017-10-08T17:40:35Z</time>
</trkpt>
<trkpt lat="53.3808741" lon="18.4163138">
<ele>51</ele>
<time>2017-10-08T17:40:41Z</time>
</trkpt>
<trkpt lat="53.3799079" lon="18.4173197">
<ele>51</ele>
<time>2017-10-08T17:40:47Z</time>
</trkpt>
<trkpt lat="53.3789425" lon="18.4183295">
<ele>51</ele>
<time>2017-10-08T17:40:53Z</time>
</trkpt>
<trkpt lat="53.3779717" lon="18.4193313">
<ele>51</ele>
<time>2017-10-08T17:40:59Z</time>
</trkpt>
<trkpt lat="53.3760609" lon="18.4213161">
<ele>51</ele>
<time>2017-10-08T17:41:11Z</time>
</trkpt>
<trkpt lat="53.3750716" lon="18.4223269">
<ele>51</ele>
<time>2017-10-08T17:41:17Z</time>
</trkpt>
<trkpt lat="53.3730884" lon="18.4243587">
<ele>55</ele>
<time>2017-10-08T17:41:29Z</time>
</trkpt>
<trkpt lat="53.3720989" lon="18.4253834">
<ele>56</ele>
<time>2017-10-08T17:41:35Z</time>
</trkpt>
<trkpt lat="53.3711285" lon="18.4264087">
<ele>58</ele>
<time>2017-10-08T17:41:41Z</time>
</trkpt>
<trkpt lat="53.3701661" lon="18.4274145">
<ele>59</ele>
<time>2017-10-08T17:41:47Z</time>
</trkpt>
<trkpt lat="53.3691814" lon="18.4284300">
<ele>60</ele>
<time>2017-10-08T17:41:53Z</time>
</trkpt>
<trkpt lat="53.3681803" lon="18.4294743">
<ele>60</ele>
<time>2017-10-08T17:41:59Z</time>
</trkpt>
<trkpt lat="53.3672100" lon="18.4304822">
<ele>59</ele>
<time>2017-10-08T17:42:05Z</time>
</trkpt>
<trkpt lat="53.3662337" lon="18.4314777">
<ele>57</ele>
<time>2017-10-08T17:42:11Z</time>
</trkpt>
<trkpt lat="53.3652708" lon="18.4324663">
<ele>56</ele>
<time>2017-10-08T17:42:17Z</time>
</trkpt>
<trkpt lat="53.3643124" lon="18.4334620">
<ele>54</ele>
<time>2017-10-08T17:42:23Z</time>
</trkpt>
<trkpt lat="53.3633544" lon="18.4344606">
<ele>53</ele>
<time>2017-10-08T17:42:29Z</time>
</trkpt>
<trkpt lat="53.3624182" lon="18.4354421">
<ele>52</ele>
<time>2017-10-08T17:42:35Z</time>
</trkpt>
<trkpt lat="53.3614919" lon="18.4363993">
<ele>51</ele>
<time>2017-10-08T17:42:41Z</time>
</trkpt>
<trkpt lat="53.3606262" lon="18.4375223">
<ele>49</ele>
<time>2017-10-08T17:42:47Z</time>
</trkpt>
<trkpt lat="53.3598485" lon="18.4388692">
<ele>48</ele>
<time>2017-10-08T17:42:53Z</time>
</trkpt>
<trkpt lat="53.3590651" lon="18.4402163">
<ele>47</ele>
<time>2017-10-08T17:42:59Z</time>
</trkpt>
<trkpt lat="53.3582797" lon="18.4415316">
<ele>48</ele>
<time>2017-10-08T17:43:05Z</time>
</trkpt>
<trkpt lat="53.3574977" lon="18.4428575">
<ele>49</ele>
<time>2017-10-08T17:43:11Z</time>
</trkpt>
<trkpt lat="53.3567077" lon="18.4442044">
<ele>49</ele>
<time>2017-10-08T17:43:17Z</time>
</trkpt>
<trkpt lat="53.3559180" lon="18.4455508">
<ele>50</ele>
<time>2017-10-08T17:43:23Z</time>
</trkpt>
<trkpt lat="53.3551267" lon="18.4468768">
<ele>50</ele>
<time>2017-10-08T17:43:29Z</time>
</trkpt>
<trkpt lat="53.3543533" lon="18.4481918">
<ele>56</ele>
<time>2017-10-08T17:43:35Z</time>
</trkpt>
<trkpt lat="53.3536745" lon="18.4492841">
<ele>61</ele>
<time>2017-10-08T17:43:41Z</time>
</trkpt>
<trkpt lat="53.3530439" lon="18.4500741">
<ele>66</ele>
<time>2017-10-08T17:43:47Z</time>
</trkpt>
<trkpt lat="53.3525811" lon="18.4505351">
<ele>68</ele>
<time>2017-10-08T17:43:53Z</time>
</trkpt>
<trkpt lat="53.3523163" lon="18.4507742">
<ele>69</ele>
<time>2017-10-08T17:43:59Z</time>
</trkpt>
<trkpt lat="53.3521645" lon="18.4508565">
<ele>71</ele>
<time>2017-10-08T17:44:05Z</time>
</trkpt>
<trkpt lat="53.3518836" lon="18.4505189">
<ele>74</ele>
<time>2017-10-08T17:44:11Z</time>
</trkpt>
<trkpt lat="53.3516435" lon="18.4499144">
<ele>75</ele>
<time>2017-10-08T17:44:17Z</time>
</trkpt>
<trkpt lat="53.3513399" lon="18.4492414">
<ele>78</ele>
<time>2017-10-08T17:44:23Z</time>
</trkpt>
<trkpt lat="53.3509947" lon="18.4485710">
<ele>80</ele>
<time>2017-10-08T17:44:29Z</time>
</trkpt>
<trkpt lat="53.3506226" lon="18.4478656">
<ele>84</ele>
<time>2017-10-08T17:44:35Z</time>
</trkpt>
<trkpt lat="53.3502598" lon="18.4471496">
<ele>88</ele>
<time>2017-10-08T17:44:41Z</time>
</trkpt>
<trkpt lat="53.3499257" lon="18.4464802">
<ele>89</ele>
<time>2017-10-08T17:44:47Z</time>
</trkpt>
<trkpt lat="53.3496991" lon="18.4459947">
<ele>90</ele>
<time>2017-10-08T17:44:53Z</time>
</trkpt>
<trkpt lat="53.3493945" lon="18.4454205">
<ele>92</ele>
<time>2017-10-08T17:44:59Z</time>
</trkpt>
<trkpt lat="53.3490405" lon="18.4449236">
<ele>94</ele>
<time>2017-10-08T17:45:05Z</time>
</trkpt>
<trkpt lat="53.3485773" lon="18.4448636">
<ele>95</ele>
<time>2017-10-08T17:45:11Z</time>
</trkpt>
<trkpt lat="53.3481146" lon="18.4446649">
<ele>96</ele>
<time>2017-10-08T17:45:17Z</time>
</trkpt>
<trkpt lat="53.3477650" lon="18.4443565">
<ele>97</ele>
<time>2017-10-08T17:45:23Z</time>
</trkpt>
<trkpt lat="53.3474034" lon="18.4448605">
<ele>99</ele>
<time>2017-10-08T17:45:29Z</time>
</trkpt>
<trkpt lat="53.3472642" lon="18.4450332">
<ele>98</ele>
<time>2017-10-08T17:45:35Z</time>
</trkpt>
<trkpt lat="53.3471116" lon="18.4448411">
<ele>97</ele>
<time>2017-10-08T17:45:41Z</time>
</trkpt>
<trkpt lat="53.3470032" lon="18.4441982">
<ele>97</ele>
<time>2017-10-08T17:45:47Z</time>
</trkpt>
<trkpt lat="53.3472864" lon="18.4434819">
<ele>96</ele>
<time>2017-10-08T17:45:53Z</time>
</trkpt>
<trkpt lat="53.3475834" lon="18.4427414">
<ele>98</ele>
<time>2017-10-08T17:45:59Z</time>
</trkpt>
<trkpt lat="53.3479621" lon="18.4420921">
<ele>97</ele>
<time>2017-10-08T17:46:05Z</time>
</trkpt>
<trkpt lat="53.3483013" lon="18.4413306">
<ele>96</ele>
<time>2017-10-08T17:46:11Z</time>
</trkpt>
<trkpt lat="53.3485507" lon="18.4405268">
<ele>97</ele>
<time>2017-10-08T17:46:17Z</time>
</trkpt>
<trkpt lat="53.3487908" lon="18.4398303">
<ele>100</ele>
<time>2017-10-08T17:46:23Z</time>
</trkpt>
<trkpt lat="53.3489611" lon="18.4391311">
<ele>100</ele>
<time>2017-10-08T17:46:29Z</time>
</trkpt>
<trkpt lat="53.3490486" lon="18.4387935">
<ele>99</ele>
<time>2017-10-08T17:46:35Z</time>
</trkpt>
<trkpt lat="53.3490060" lon="18.4387087">
<ele>97</ele>
<time>2017-10-08T17:46:41Z</time>
</trkpt>
<trkpt lat="53.3489799" lon="18.4386463">
<ele>95</ele>
<time>2017-10-08T17:46:47Z</time>
</trkpt>
<trkpt lat="53.3489626" lon="18.4385473">
<ele>94</ele>
<time>2017-10-08T17:46:53Z</time>
</trkpt>
<trkpt lat="53.3489397" lon="18.4385448">
<ele>94</ele>
<time>2017-10-08T17:46:59Z</time>
</trkpt>
<trkpt lat="53.3489397" lon="18.4385448">
<ele>94</ele>
<time>2017-10-08T17:47:05Z</time>
</trkpt>
<trkpt lat="53.3489397" lon="18.4385448">
<ele>94</ele>
<time>2017-10-08T17:47:11Z</time>
</trkpt>
<trkpt lat="53.3489397" lon="18.4385448">
<ele>94</ele>
<time>2017-10-08T17:47:17Z</time>
</trkpt>
<trkpt lat="53.3489397" lon="18.4385448">
<ele>94</ele>
<time>2017-10-08T17:47:23Z</time>
</trkpt>
<trkpt lat="" lon="">
<ele></ele>
<time>2017-10-08TZ</time>
</trkpt>
</trkseg>
</trk>
<wpt lat="" lon="">
	<name></name>
	<desc></desc>
	<cmt></cmt>
	<photoid></photoid>
	<type></type>
</wpt>
</gpx>
